Darstellungsparameter: Aktuell verwendete Einstellungen:
Skalierung der Graphiken ... ?
xyx+y,   Skalierungsfaktor:      Skalierung: Modus: x, Faktor: 1
Darstellungszeitraum ... ?
Vom - - bis: - -   Zeitraum: 24.05.2017 - 06.06.2017
Min/Max/Avg-Anzeige ... ?
Zeige MMA aktuell
Zeige MMA Monat
Zeige MMA alles
Zeige --A aktuell
Zeige --A Monat
Zeige --A alles
Keine MMA-Anzeige
MMA:
Keine MMA-Graphiken
MMA-Basis: 24.05.2017 - 06.06.2017
Quicknavigation für Darstellung... ?
Tage:      1T, 2T, 3T, 5T -1T -2T -3T -5T +1T +2T +3T +5T
Wochen: 1W, 2W, 3W -1W -2W -3W +1W +2W +3W
Monate: 1M, 3M, 6M -1M -3M -6M +1M +3M +6M
Jahre:    1J, 3J, 5J, 10J -1J -3J -5J -10J +1J +3J +5J +10J
Nutze für die Darstellung ... ?
Originaldaten oder Mittelwerte auf ...
Stundenbasis Tagesbasis Wochenbasis
Monatsbasis Jahresbasis      Datenbasis: Original-Daten
Darstellen als:
Statistik (Auto) Statistik J:M      Darstellung:
Zur Graphik,    zurück zur Übersicht aller Sensoren.
 
Tabellarische Datenbersicht: ?
 
Sensor: Nr:Datum:Temp:Abs-Feuchte:Windchill:Wind:
Aussen-T/F 1 24-05-2017 00:00:00 16.6 C 8.48 g/m*3 16.6 C 3.2 km/h
2 24-05-2017 00:05:00 16.3 C 8.74 g/m*3 16.3 C 1.6 km/h
3 24-05-2017 00:10:00 16.1 C 8.64 g/m*3 16.1 C 1.6 km/h
4 24-05-2017 00:15:00 16 C 8.72 g/m*3 16 C 6.4 km/h
5 24-05-2017 00:20:00 15.8 C 8.62 g/m*3 15.8 C 11.3 km/h
6 24-05-2017 00:25:00 15.9 C 8.53 g/m*3 15.9 C 4.8 km/h
7 24-05-2017 00:30:00 15.8 C 8.48 g/m*3 15.8 C 3.2 km/h
8 24-05-2017 00:35:00 15.7 C 8.7 g/m*3 15.7 C 0 km/h
9 24-05-2017 00:40:00 15.4 C 8.67 g/m*3 15.4 C 0 km/h
10 24-05-2017 00:45:00 15.2 C 8.44 g/m*3 15.2 C 1.6 km/h
11 24-05-2017 00:50:00 15.1 C 8.64 g/m*3 15.1 C 0 km/h
12 24-05-2017 00:55:00 15 C 8.72 g/m*3 15 C 1.6 km/h
13 24-05-2017 01:00:00 14.9 C 8.54 g/m*3 14.9 C 4.8 km/h
14 24-05-2017 01:05:00 14.9 C 8.54 g/m*3 14.9 C 4.8 km/h
15 24-05-2017 01:10:00 14.9 C 8.67 g/m*3 14.9 C 0 km/h
16 24-05-2017 01:15:00 14.8 C 8.74 g/m*3 14.8 C 0 km/h
17 24-05-2017 01:20:00 14.5 C 8.71 g/m*3 14.5 C 0 km/h
18 24-05-2017 01:25:00 14.3 C 8.6 g/m*3 14.3 C 1.6 km/h
19 24-05-2017 01:30:00 14.1 C 8.62 g/m*3 14.1 C 3.2 km/h
20 24-05-2017 01:35:00 14 C 8.56 g/m*3 14 C 6.4 km/h
21 24-05-2017 01:40:00 13.9 C 8.63 g/m*3 13.9 C 0 km/h
22 24-05-2017 01:45:00 13.8 C 8.58 g/m*3 13.8 C 0 km/h
23 24-05-2017 01:50:00 13.7 C 8.53 g/m*3 13.7 C 0 km/h
24 24-05-2017 01:55:00 13.6 C 8.59 g/m*3 13.6 C 0 km/h
25 24-05-2017 02:00:00 13.5 C 8.66 g/m*3 13.5 C 1.6 km/h
Sensor: Nr:Datum:Temp:Abs-Feuchte:Windchill:Wind:
Aussen-T/F 26 24-05-2017 02:05:00 13.4 C 8.6 g/m*3 13.4 C 0 km/h
27 24-05-2017 02:10:00 13.3 C 8.66 g/m*3 13.3 C 0 km/h
28 24-05-2017 02:15:00 13.2 C 8.61 g/m*3 13.2 C 0 km/h
29 24-05-2017 02:20:00 13.1 C 8.67 g/m*3 13.1 C 0 km/h
30 24-05-2017 02:25:00 13.1 C 8.67 g/m*3 13.1 C 0 km/h
31 24-05-2017 02:30:00 13 C 8.62 g/m*3 13 C 0 km/h
32 24-05-2017 02:35:00 12.9 C 8.57 g/m*3 12.9 C 0 km/h
33 24-05-2017 02:40:00 12.8 C 8.62 g/m*3 12.8 C 0 km/h
34 24-05-2017 02:45:00 12.8 C 8.62 g/m*3 12.8 C 0 km/h
35 24-05-2017 02:50:00 12.8 C 8.62 g/m*3 12.8 C 0 km/h
36 24-05-2017 02:55:00 12.8 C 8.62 g/m*3 12.8 C 0 km/h
37 24-05-2017 03:00:00 12.8 C 8.62 g/m*3 12.8 C 0 km/h
38 24-05-2017 03:05:00 12.7 C 8.57 g/m*3 12.7 C 0 km/h
39 24-05-2017 03:10:00 12.7 C 8.57 g/m*3 12.7 C 0 km/h
40 24-05-2017 03:15:00 12.7 C 8.68 g/m*3 12.7 C 0 km/h
41 24-05-2017 03:20:00 12.7 C 8.68 g/m*3 12.7 C 0 km/h
42 24-05-2017 03:25:00 12.6 C 8.74 g/m*3 12.6 C 0 km/h
43 24-05-2017 03:30:00 12.5 C 8.69 g/m*3 12.5 C 0 km/h
44 24-05-2017 03:35:00 12.3 C 8.69 g/m*3 12.3 C 0 km/h
45 24-05-2017 03:40:00 12.2 C 8.63 g/m*3 12.2 C 0 km/h
46 24-05-2017 03:45:00 12.1 C 8.69 g/m*3 12.1 C 1.6 km/h
47 24-05-2017 03:50:00 12 C 8.63 g/m*3 12 C 1.6 km/h
48 24-05-2017 03:55:00 11.9 C 8.68 g/m*3 11.9 C 0 km/h
49 24-05-2017 04:00:00 11.8 C 8.63 g/m*3 11.8 C 0 km/h
50 24-05-2017 04:05:00 11.7 C 8.58 g/m*3 11.7 C 1.6 km/h
Sensor: Nr:Datum:Temp:Abs-Feuchte:Windchill:Wind:
Aussen-T/F 51 24-05-2017 04:10:00 11.7 C 8.58 g/m*3 11.7 C 3.2 km/h
52 24-05-2017 04:15:00 11.7 C 8.58 g/m*3 11.7 C 0 km/h
53 24-05-2017 04:20:00 11.7 C 8.58 g/m*3 11.7 C 0 km/h
54 24-05-2017 04:25:00 11.7 C 8.58 g/m*3 11.7 C 3.2 km/h
55 24-05-2017 04:30:00 11.6 C 8.52 g/m*3 11.6 C 0 km/h
56 24-05-2017 04:35:00 11.6 C 8.63 g/m*3 11.6 C 0 km/h
57 24-05-2017 04:40:00 11.5 C 8.57 g/m*3 11.5 C 0 km/h
58 24-05-2017 04:45:00 11.4 C 8.52 g/m*3 11.4 C 1.6 km/h
59 24-05-2017 04:50:00 11.4 C 8.62 g/m*3 11.4 C 8.1 km/h
60 24-05-2017 04:55:00 11.4 C 8.62 g/m*3 11.4 C 0 km/h
61 24-05-2017 05:00:00 11.3 C 8.57 g/m*3 11.3 C 1.6 km/h
62 24-05-2017 05:05:00 11.3 C 8.57 g/m*3 11.3 C 0 km/h
63 24-05-2017 05:10:00 11.2 C 8.51 g/m*3 11.2 C 3.2 km/h
64 24-05-2017 05:15:00 11.2 C 8.62 g/m*3 11.2 C 0 km/h
65 24-05-2017 05:20:00 11.1 C 8.56 g/m*3 11.1 C 0 km/h
66 24-05-2017 05:25:00 11 C 8.51 g/m*3 11 C 0 km/h
67 24-05-2017 05:30:00 10.9 C 8.55 g/m*3 10.9 C 1.6 km/h
68 24-05-2017 05:35:00 10.8 C 8.5 g/m*3 10.8 C 0 km/h
69 24-05-2017 05:40:00 10.8 C 8.5 g/m*3 10.8 C 4.8 km/h
70 24-05-2017 05:45:00 10.7 C 8.45 g/m*3 10.7 C 1.6 km/h
71 24-05-2017 05:50:00 10.5 C 8.34 g/m*3 10.5 C 1.6 km/h
72 24-05-2017 05:55:00 10.4 C 8.38 g/m*3 10.4 C 4.8 km/h
73 24-05-2017 06:00:00 10.3 C 8.33 g/m*3 10.3 C 0 km/h
74 24-05-2017 06:05:00 10.3 C 8.43 g/m*3 10.3 C 0 km/h
75 24-05-2017 06:10:00 10.2 C 8.37 g/m*3 10.2 C 1.6 km/h
Sensor: Nr:Datum:Temp:Abs-Feuchte:Windchill:Wind:
Aussen-T/F 76 24-05-2017 06:15:00 10.2 C 8.47 g/m*3 10.2 C 1.6 km/h
77 24-05-2017 06:20:00 10.2 C 8.47 g/m*3 10.2 C 0 km/h
78 24-05-2017 06:25:00 10.2 C 8.47 g/m*3 10.2 C 0 km/h
79 24-05-2017 06:30:00 10.2 C 8.47 g/m*3 9.6 C 6.4 km/h
80 24-05-2017 06:35:00 10.2 C 8.47 g/m*3 10.2 C 3.2 km/h
81 24-05-2017 06:40:00 10.3 C 8.52 g/m*3 10.3 C 1.6 km/h
82 24-05-2017 06:45:00 10.3 C 8.62 g/m*3 10.3 C 3.2 km/h
83 24-05-2017 06:50:00 10.3 C 8.62 g/m*3 10.3 C 1.6 km/h
84 24-05-2017 06:55:00 10.3 C 8.62 g/m*3 10.3 C 3.2 km/h
85 24-05-2017 07:00:00 10.3 C 8.62 g/m*3 10.3 C 0 km/h
86 24-05-2017 07:05:00 10.4 C 8.67 g/m*3 10.4 C 3.2 km/h
87 24-05-2017 07:10:00 10.4 C 8.67 g/m*3 10.4 C 0 km/h
88 24-05-2017 07:15:00 10.5 C 8.73 g/m*3 10.5 C 3.2 km/h
89 24-05-2017 07:20:00 10.6 C 8.78 g/m*3 10.6 C 1.6 km/h
90 24-05-2017 07:25:00 10.7 C 8.84 g/m*3 10.7 C 4.8 km/h
91 24-05-2017 07:30:00 10.9 C 8.95 g/m*3 10.04 C 8.1 km/h
92 24-05-2017 07:35:00 11.1 C 8.96 g/m*3 11.1 C 6.4 km/h
93 24-05-2017 07:40:00 11.4 C 9.03 g/m*3 11.4 C 4.8 km/h
94 24-05-2017 07:45:00 11.7 C 9.1 g/m*3 11.7 C 8.1 km/h
95 24-05-2017 07:50:00 11.9 C 9.11 g/m*3 11.9 C 8.1 km/h
96 24-05-2017 07:55:00 12.2 C 9.17 g/m*3 12.2 C 8.1 km/h
97 24-05-2017 08:00:00 12.3 C 9.23 g/m*3 12.3 C 6.4 km/h
98 24-05-2017 08:05:00 12.4 C 9.18 g/m*3 12.4 C 6.4 km/h
99 24-05-2017 08:10:00 12.6 C 9.18 g/m*3 12.6 C 6.4 km/h
100 24-05-2017 08:15:00 12.7 C 9.13 g/m*3 12.7 C 9.7 km/h
Sensor: Nr:Datum:Temp:Abs-Feuchte:Windchill:Wind:
Aussen-T/F 101 24-05-2017 08:20:00 12.9 C 9.24 g/m*3 12.9 C 6.4 km/h
102 24-05-2017 08:25:00 13.1 C 9.36 g/m*3 13.1 C 8.1 km/h
103 24-05-2017 08:30:00 13.3 C 9.36 g/m*3 13.3 C 9.7 km/h
104 24-05-2017 08:35:00 13.5 C 9.36 g/m*3 13.5 C 9.7 km/h
105 24-05-2017 08:40:00 13.7 C 9.35 g/m*3 13.7 C 11.3 km/h
106 24-05-2017 08:45:00 13.9 C 9.47 g/m*3 13.9 C 4.8 km/h
107 24-05-2017 08:50:00 14.2 C 9.52 g/m*3 14.2 C 6.4 km/h
108 24-05-2017 08:55:00 14.6 C 9.64 g/m*3 14.6 C 6.4 km/h
109 24-05-2017 09:00:00 14.8 C 9.63 g/m*3 14.8 C 4.8 km/h
110 24-05-2017 09:05:00 14.8 C 9.5 g/m*3 14.8 C 6.4 km/h
111 24-05-2017 09:10:00 14.9 C 9.43 g/m*3 14.9 C 8.1 km/h
112 24-05-2017 09:15:00 15 C 9.62 g/m*3 15 C 8.1 km/h
113 24-05-2017 09:20:00 15.2 C 9.61 g/m*3 15.2 C 8.1 km/h
114 24-05-2017 09:25:00 15.3 C 9.53 g/m*3 15.3 C 9.7 km/h
115 24-05-2017 09:30:00 15.5 C 9.65 g/m*3 15.5 C 8.1 km/h
116 24-05-2017 09:35:00 15.7 C 9.77 g/m*3 15.7 C 4.8 km/h
117 24-05-2017 09:40:00 15.8 C 9.42 g/m*3 15.8 C 6.4 km/h
118 24-05-2017 09:45:00 16 C 9.67 g/m*3 16 C 3.2 km/h
119 24-05-2017 09:50:00 16.2 C 9.79 g/m*3 16.2 C 4.8 km/h
120 24-05-2017 09:55:00 16.3 C 9.85 g/m*3 16.3 C 4.8 km/h
121 24-05-2017 10:00:00 16.5 C 10.11 g/m*3 16.5 C 1.6 km/h
122 24-05-2017 10:05:00 16.8 C 10.15 g/m*3 16.8 C 4.8 km/h
123 24-05-2017 10:10:00 17.2 C 10.25 g/m*3 17.2 C 8.1 km/h
124 24-05-2017 10:15:00 17.6 C 10.35 g/m*3 17.6 C 11.3 km/h
125 24-05-2017 10:20:00 17.9 C 10.54 g/m*3 17.9 C 6.4 km/h
Sensor: Nr:Datum:Temp:Abs-Feuchte:Windchill:Wind:
Aussen-T/F 126 24-05-2017 10:25:00 18.3 C 10.16 g/m*3 18.3 C 4.8 km/h
127 24-05-2017 10:30:00 18.6 C 10.5 g/m*3 18.6 C 4.8 km/h
128 24-05-2017 10:35:00 18.7 C 10.41 g/m*3 18.7 C 3.2 km/h
129 24-05-2017 10:40:00 18.8 C 10.63 g/m*3 18.8 C 3.2 km/h
130 24-05-2017 10:45:00 18.9 C 10.85 g/m*3 18.9 C 3.2 km/h
131 24-05-2017 10:50:00 19 C 10.92 g/m*3 19 C 3.2 km/h
132 24-05-2017 10:55:00 19.1 C 10.66 g/m*3 19.1 C 8.1 km/h
133 24-05-2017 11:00:00 19.1 C 10.49 g/m*3 19.1 C 6.4 km/h
134 24-05-2017 11:05:00 19.2 C 10.55 g/m*3 19.2 C 3.2 km/h
135 24-05-2017 11:10:00 19.3 C 10.62 g/m*3 19.3 C 6.4 km/h
136 24-05-2017 11:15:00 19.4 C 10.84 g/m*3 19.4 C 4.8 km/h
137 24-05-2017 11:20:00 19.6 C 10.8 g/m*3 19.6 C 4.8 km/h
138 24-05-2017 11:25:00 19.6 C 10.64 g/m*3 19.6 C 6.4 km/h
139 24-05-2017 11:30:00 19.7 C 10.87 g/m*3 19.7 C 8.1 km/h
140 24-05-2017 11:35:00 19.8 C 10.76 g/m*3 19.8 C 6.4 km/h
141 24-05-2017 11:40:00 19.8 C 10.93 g/m*3 19.8 C 8.1 km/h
142 24-05-2017 11:45:00 19.9 C 10.82 g/m*3 19.9 C 12.9 km/h
143 24-05-2017 11:50:00 19.8 C 10.76 g/m*3 19.8 C 8.1 km/h
144 24-05-2017 11:55:00 19.7 C 10.87 g/m*3 19.7 C 8.1 km/h
145 24-05-2017 12:00:00 19.7 C 11.04 g/m*3 19.7 C 6.4 km/h
146 24-05-2017 12:05:00 19.7 C 11.04 g/m*3 19.7 C 6.4 km/h
147 24-05-2017 12:10:00 19.8 C 11.1 g/m*3 19.8 C 6.4 km/h
148 24-05-2017 12:15:00 19.8 C 11.1 g/m*3 19.8 C 6.4 km/h
149 24-05-2017 12:20:00 19.8 C 10.93 g/m*3 19.8 C 4.8 km/h
150 24-05-2017 12:25:00 19.7 C 11.04 g/m*3 19.7 C 4.8 km/h
Sensor: Nr:Datum:Temp:Abs-Feuchte:Windchill:Wind:
Aussen-T/F 151 24-05-2017 12:30:00 19.8 C 11.27 g/m*3 19.8 C 9.7 km/h
152 24-05-2017 12:35:00 19.9 C 11.51 g/m*3 19.9 C 6.4 km/h
153 24-05-2017 12:40:00 20 C 11.41 g/m*3 20 C 6.4 km/h
154 24-05-2017 12:45:00 20.1 C 11.47 g/m*3 20.1 C 6.4 km/h
155 24-05-2017 12:50:00 20.1 C 11.47 g/m*3 20.1 C 6.4 km/h
156 24-05-2017 12:55:00 20.1 C 11.3 g/m*3 20.1 C 6.4 km/h
157 24-05-2017 13:00:00 20 C 11.23 g/m*3 20 C 4.8 km/h
158 24-05-2017 13:05:00 19.8 C 11.1 g/m*3 19.8 C 8.1 km/h
159 24-05-2017 13:10:00 19.6 C 11.31 g/m*3 19.6 C 8.1 km/h
160 24-05-2017 13:15:00 19.5 C 11.24 g/m*3 19.5 C 3.2 km/h
161 24-05-2017 13:20:00 19.4 C 11.18 g/m*3 19.4 C 3.2 km/h
162 24-05-2017 13:25:00 19.4 C 12.18 g/m*3 19.4 C 0 km/h
163 24-05-2017 13:30:00 19.5 C 11.58 g/m*3 19.5 C 3.2 km/h
164 24-05-2017 13:35:00 19.7 C 11.55 g/m*3 19.7 C 4.8 km/h
165 24-05-2017 13:40:00 19.7 C 11.21 g/m*3 19.7 C 3.2 km/h
166 24-05-2017 13:45:00 19.8 C 11.44 g/m*3 19.8 C 1.6 km/h
167 24-05-2017 13:50:00 19.8 C 11.79 g/m*3 19.8 C 3.2 km/h
168 24-05-2017 13:55:00 19.9 C 12.2 g/m*3 19.9 C 0 km/h
169 24-05-2017 14:00:00 20 C 12.62 g/m*3 20 C 0 km/h
170 24-05-2017 14:05:00 20.1 C 12.52 g/m*3 20.1 C 0 km/h
171 24-05-2017 14:10:00 20.1 C 12.17 g/m*3 20.1 C 1.6 km/h
172 24-05-2017 14:15:00 20.2 C 11.71 g/m*3 20.2 C 4.8 km/h
173 24-05-2017 14:20:00 20.2 C 12.06 g/m*3 20.2 C 3.2 km/h
174 24-05-2017 14:25:00 20.2 C 12.06 g/m*3 20.2 C 4.8 km/h
175 24-05-2017 14:30:00 20.2 C 12.24 g/m*3 20.2 C 1.6 km/h
Sensor: Nr:Datum:Temp:Abs-Feuchte:Windchill:Wind:
Aussen-T/F 176 24-05-2017 14:35:00 20.3 C 12.84 g/m*3 20.3 C 0 km/h
177 24-05-2017 14:40:00 20.3 C 12.84 g/m*3 20.3 C 0 km/h
178 24-05-2017 14:45:00 20.2 C 12.94 g/m*3 20.2 C 0 km/h
179 24-05-2017 14:50:00 20.2 C 11.89 g/m*3 20.2 C 3.2 km/h
180 24-05-2017 14:55:00 20.2 C 12.06 g/m*3 20.2 C 1.6 km/h
181 24-05-2017 15:00:00 20.3 C 12.31 g/m*3 20.3 C 4.8 km/h
182 24-05-2017 15:05:00 20.3 C 12.66 g/m*3 20.3 C 1.6 km/h
183 24-05-2017 15:10:00 20.4 C 12.91 g/m*3 20.4 C 4.8 km/h
184 24-05-2017 15:15:00 20.4 C 12.74 g/m*3 20.4 C 3.2 km/h
185 24-05-2017 15:20:00 20.4 C 12.56 g/m*3 20.4 C 1.6 km/h
186 24-05-2017 15:25:00 20.4 C 12.21 g/m*3 20.4 C 3.2 km/h
187 24-05-2017 15:30:00 20.7 C 12.42 g/m*3 20.7 C 4.8 km/h
188 24-05-2017 15:35:00 20.8 C 12.67 g/m*3 20.8 C 0 km/h
189 24-05-2017 15:40:00 20.8 C 12.86 g/m*3 20.8 C 4.8 km/h
190 24-05-2017 15:45:00 20.7 C 12.42 g/m*3 20.7 C 1.6 km/h
191 24-05-2017 15:50:00 20.7 C 12.96 g/m*3 20.7 C 1.6 km/h
192 24-05-2017 15:55:00 20.7 C 12.96 g/m*3 20.7 C 0 km/h
193 24-05-2017 16:00:00 20.7 C 13.14 g/m*3 20.7 C 0 km/h
194 24-05-2017 16:05:00 20.7 C 13.14 g/m*3 20.7 C 0 km/h
195 24-05-2017 16:10:00 20.6 C 12.53 g/m*3 20.6 C 4.8 km/h
196 24-05-2017 16:15:00 20.7 C 12.96 g/m*3 20.7 C 4.8 km/h
197 24-05-2017 16:20:00 20.8 C 12.67 g/m*3 20.8 C 3.2 km/h
198 24-05-2017 16:25:00 20.9 C 12.57 g/m*3 20.9 C 4.8 km/h
199 24-05-2017 16:30:00 21 C 12.46 g/m*3 21 C 3.2 km/h
200 24-05-2017 16:35:00 20.9 C 12.75 g/m*3 20.9 C 8.1 km/h
Sensor: Nr:Datum:Temp:Abs-Feuchte:Windchill:Wind:
Aussen-T/F 201 24-05-2017 16:40:00 20.9 C 12.38 g/m*3 20.9 C 3.2 km/h
202 24-05-2017 16:45:00 21 C 11.91 g/m*3 21 C 6.4 km/h
203 24-05-2017 16:50:00 21.1 C 12.34 g/m*3 21.1 C 9.7 km/h
204 24-05-2017 16:55:00 21.2 C 12.05 g/m*3 21.2 C 8.1 km/h
205 24-05-2017 17:00:00 21.3 C 11.93 g/m*3 21.3 C 8.1 km/h
206 24-05-2017 17:05:00 21.3 C 13.05 g/m*3 21.3 C 3.2 km/h
207 24-05-2017 17:10:00 21.2 C 12.79 g/m*3 21.2 C 3.2 km/h
208 24-05-2017 17:15:00 21.2 C 12.97 g/m*3 21.2 C 3.2 km/h
209 24-05-2017 17:20:00 20.9 C 12.2 g/m*3 20.9 C 4.8 km/h
210 24-05-2017 17:25:00 20.9 C 12.38 g/m*3 20.9 C 8.1 km/h
211 24-05-2017 17:30:00 21 C 13.19 g/m*3 21 C 6.4 km/h
212 24-05-2017 17:35:00 21 C 12.46 g/m*3 21 C 4.8 km/h
213 24-05-2017 17:40:00 21 C 12.46 g/m*3 21 C 4.8 km/h
214 24-05-2017 17:45:00 20.9 C 12.2 g/m*3 20.9 C 3.2 km/h
215 24-05-2017 17:50:00 21 C 12.27 g/m*3 21 C 4.8 km/h
216 24-05-2017 17:55:00 21.2 C 13.16 g/m*3 21.2 C 3.2 km/h
217 24-05-2017 18:00:00 21.3 C 12.86 g/m*3 21.3 C 3.2 km/h
218 24-05-2017 18:05:00 21.4 C 12.37 g/m*3 21.4 C 8.1 km/h
219 24-05-2017 18:10:00 21.5 C 12.26 g/m*3 21.5 C 6.4 km/h
220 24-05-2017 18:15:00 21.5 C 12.45 g/m*3 21.5 C 8.1 km/h
221 24-05-2017 18:20:00 21.4 C 12.37 g/m*3 21.4 C 8.1 km/h
222 24-05-2017 18:25:00 21.4 C 12.75 g/m*3 21.4 C 4.8 km/h
223 24-05-2017 18:30:00 21.4 C 12.37 g/m*3 21.4 C 3.2 km/h
224 24-05-2017 18:35:00 21.4 C 12.19 g/m*3 21.4 C 6.4 km/h
225 24-05-2017 18:40:00 21.4 C 12 g/m*3 21.4 C 8.1 km/h
Sensor: Nr:Datum:Temp:Abs-Feuchte:Windchill:Wind:
Aussen-T/F 226 24-05-2017 18:45:00 21.5 C 11.88 g/m*3 21.5 C 8.1 km/h
227 24-05-2017 18:50:00 21.8 C 11.7 g/m*3 21.8 C 9.7 km/h
228 24-05-2017 18:55:00 22.1 C 11.71 g/m*3 22.1 C 6.4 km/h
229 24-05-2017 19:00:00 22.1 C 11.52 g/m*3 22.1 C 11.3 km/h
230 24-05-2017 19:05:00 21.8 C 11.32 g/m*3 21.8 C 11.3 km/h
231 24-05-2017 19:10:00 21.6 C 11.19 g/m*3 21.6 C 9.7 km/h
232 24-05-2017 19:15:00 21.5 C 11.31 g/m*3 21.5 C 4.8 km/h
233 24-05-2017 19:20:00 21.4 C 11.25 g/m*3 21.4 C 4.8 km/h
234 24-05-2017 19:25:00 21.3 C 11.56 g/m*3 21.3 C 8.1 km/h
235 24-05-2017 19:30:00 21.4 C 12 g/m*3 21.4 C 3.2 km/h
236 24-05-2017 19:35:00 21.3 C 11.18 g/m*3 21.3 C 4.8 km/h
237 24-05-2017 19:40:00 21.3 C 11.37 g/m*3 21.3 C 8.1 km/h
238 24-05-2017 19:45:00 21.3 C 11.56 g/m*3 21.3 C 6.4 km/h
239 24-05-2017 19:50:00 21.4 C 11.62 g/m*3 21.4 C 8.1 km/h
240 24-05-2017 19:55:00 21.5 C 11.31 g/m*3 21.5 C 11.3 km/h
241 24-05-2017 20:00:00 21.5 C 11.5 g/m*3 21.5 C 11.3 km/h
242 24-05-2017 20:05:00 21.3 C 11.37 g/m*3 21.3 C 9.7 km/h
243 24-05-2017 20:10:00 21.2 C 11.3 g/m*3 21.2 C 4.8 km/h
244 24-05-2017 20:15:00 21.1 C 11.79 g/m*3 21.1 C 9.7 km/h
245 24-05-2017 20:20:00 20.9 C 11.66 g/m*3 20.9 C 8.1 km/h
246 24-05-2017 20:25:00 20.7 C 12.06 g/m*3 20.7 C 3.2 km/h
247 24-05-2017 20:30:00 20.4 C 11.5 g/m*3 20.4 C 4.8 km/h
248 24-05-2017 20:35:00 20.3 C 11.96 g/m*3 20.3 C 0 km/h
249 24-05-2017 20:40:00 20.2 C 11.89 g/m*3 20.2 C 1.6 km/h
250 24-05-2017 20:45:00 19.9 C 12.03 g/m*3 19.9 C 0 km/h
Sensor: Nr:Datum:Temp:Abs-Feuchte:Windchill:Wind:
Aussen-T/F 251 24-05-2017 20:50:00 19.8 C 12.13 g/m*3 19.8 C 1.6 km/h
252 24-05-2017 20:55:00 19.5 C 12.59 g/m*3 19.5 C 0 km/h
253 24-05-2017 21:00:00 19.2 C 12.53 g/m*3 19.2 C 3.2 km/h
254 24-05-2017 21:05:00 18.9 C 12.47 g/m*3 18.9 C 0 km/h
255 24-05-2017 21:10:00 18.7 C 12.49 g/m*3 18.7 C 0 km/h
256 24-05-2017 21:15:00 18.5 C 12.5 g/m*3 18.5 C 1.6 km/h
257 24-05-2017 21:20:00 18.3 C 12.51 g/m*3 18.3 C 0 km/h
258 24-05-2017 21:25:00 18.2 C 12.43 g/m*3 18.2 C 0 km/h
259 24-05-2017 21:30:00 18 C 12.29 g/m*3 18 C 0 km/h
260 24-05-2017 21:35:00 17.9 C 12.37 g/m*3 17.9 C 0 km/h
261 24-05-2017 21:40:00 17.8 C 12.29 g/m*3 17.8 C 0 km/h
262 24-05-2017 21:45:00 17.7 C 12.22 g/m*3 17.7 C 0 km/h
263 24-05-2017 21:50:00 17.7 C 12.37 g/m*3 17.7 C 0 km/h
264 24-05-2017 21:55:00 17.6 C 12.3 g/m*3 17.6 C 0 km/h
265 24-05-2017 22:00:00 17.5 C 12.23 g/m*3 17.5 C 0 km/h
266 24-05-2017 22:05:00 17.5 C 12.37 g/m*3 17.5 C 0 km/h
267 24-05-2017 22:10:00 17.4 C 12.3 g/m*3 17.4 C 0 km/h
268 24-05-2017 22:15:00 17.4 C 12.3 g/m*3 17.4 C 0 km/h
269 24-05-2017 22:20:00 17.3 C 12.23 g/m*3 17.3 C 0 km/h
270 24-05-2017 22:25:00 17.3 C 12.23 g/m*3 17.3 C 0 km/h
271 24-05-2017 22:30:00 17.3 C 12.23 g/m*3 17.3 C 0 km/h
272 24-05-2017 22:35:00 17.3 C 12.08 g/m*3 17.3 C 0 km/h
273 24-05-2017 22:40:00 17.2 C 12.15 g/m*3 17.2 C 0 km/h
274 24-05-2017 22:45:00 17.2 C 12.15 g/m*3 17.2 C 1.6 km/h
275 24-05-2017 22:50:00 17.1 C 12.08 g/m*3 17.1 C 0 km/h
Sensor: Nr:Datum:Temp:Abs-Feuchte:Windchill:Wind:
Aussen-T/F 276 24-05-2017 22:55:00 16.9 C 11.94 g/m*3 16.9 C 1.6 km/h
277 24-05-2017 23:00:00 16.9 C 11.94 g/m*3 16.9 C 1.6 km/h
278 24-05-2017 23:05:00 16.8 C 11.87 g/m*3 16.8 C 1.6 km/h
279 24-05-2017 23:10:00 16.8 C 11.87 g/m*3 16.8 C 0 km/h
280 24-05-2017 23:15:00 16.8 C 11.87 g/m*3 16.8 C 0 km/h
281 24-05-2017 23:20:00 16.7 C 11.94 g/m*3 16.7 C 0 km/h
282 24-05-2017 23:25:00 16.7 C 11.94 g/m*3 16.7 C 0 km/h
283 24-05-2017 23:30:00 16.7 C 11.8 g/m*3 16.7 C 0 km/h
284 24-05-2017 23:35:00 16.6 C 11.72 g/m*3 16.6 C 0 km/h
285 24-05-2017 23:40:00 16.4 C 11.58 g/m*3 16.4 C 0 km/h
286 24-05-2017 23:45:00 16.4 C 11.72 g/m*3 16.4 C 0 km/h
287 24-05-2017 23:50:00 16.3 C 11.65 g/m*3 16.3 C 1.6 km/h
288 24-05-2017 23:55:00 16.2 C 11.45 g/m*3 16.2 C 0 km/h
289 25-05-2017 00:00:00 16.1 C 11.51 g/m*3 16.1 C 0 km/h
290 25-05-2017 00:05:00 16.1 C 11.51 g/m*3 16.1 C 0 km/h
291 25-05-2017 00:10:00 16 C 11.44 g/m*3 16 C 0 km/h
292 25-05-2017 00:15:00 16 C 11.44 g/m*3 16 C 0 km/h
293 25-05-2017 00:20:00 16 C 11.17 g/m*3 16 C 1.6 km/h
294 25-05-2017 00:25:00 16.2 C 11.45 g/m*3 16.2 C 1.6 km/h
295 25-05-2017 00:30:00 16.3 C 11.38 g/m*3 16.3 C 1.6 km/h
296 25-05-2017 00:35:00 16.3 C 11.24 g/m*3 16.3 C 0 km/h
297 25-05-2017 00:40:00 16.3 C 11.24 g/m*3 16.3 C 1.6 km/h
298 25-05-2017 00:45:00 16.3 C 11.24 g/m*3 16.3 C 0 km/h
299 25-05-2017 00:50:00 16.3 C 11.38 g/m*3 16.3 C 0 km/h
300 25-05-2017 00:55:00 16.3 C 11.38 g/m*3 16.3 C 1.6 km/h
Sensor: Nr:Datum:Temp:Abs-Feuchte:Windchill:Wind:
Aussen-T/F 301 25-05-2017 01:00:00 16.2 C 11.31 g/m*3 16.2 C 3.2 km/h
302 25-05-2017 01:05:00 16.2 C 11.45 g/m*3 16.2 C 0 km/h
303 25-05-2017 01:10:00 16.2 C 11.45 g/m*3 16.2 C 1.6 km/h
304 25-05-2017 01:15:00 16.2 C 11.45 g/m*3 16.2 C 0 km/h
305 25-05-2017 01:20:00 16.2 C 11.45 g/m*3 16.2 C 0 km/h
306 25-05-2017 01:25:00 16.2 C 11.45 g/m*3 16.2 C 0 km/h
307 25-05-2017 01:30:00 16.2 C 11.31 g/m*3 16.2 C 4.8 km/h
308 25-05-2017 01:35:00 16.3 C 11.38 g/m*3 16.3 C 0 km/h
309 25-05-2017 01:40:00 16.3 C 11.52 g/m*3 16.3 C 1.6 km/h
310 25-05-2017 01:45:00 16.3 C 11.38 g/m*3 16.3 C 1.6 km/h
311 25-05-2017 01:50:00 16.3 C 11.52 g/m*3 16.3 C 0 km/h
312 25-05-2017 01:55:00 16.2 C 11.31 g/m*3 16.2 C 1.6 km/h
313 25-05-2017 02:00:00 16.2 C 11.31 g/m*3 16.2 C 1.6 km/h
314 25-05-2017 02:05:00 16.2 C 11.45 g/m*3 16.2 C 0 km/h
315 25-05-2017 02:10:00 16.1 C 11.51 g/m*3 16.1 C 1.6 km/h
316 25-05-2017 02:15:00 16 C 11.44 g/m*3 16 C 1.6 km/h
317 25-05-2017 02:20:00 16 C 11.31 g/m*3 16 C 9.7 km/h
318 25-05-2017 02:25:00 16.1 C 11.38 g/m*3 16.1 C 11.3 km/h
319 25-05-2017 02:30:00 16.1 C 11.24 g/m*3 16.1 C 4.8 km/h
320 25-05-2017 02:35:00 16.2 C 11.31 g/m*3 16.2 C 6.4 km/h
321 25-05-2017 02:40:00 16.2 C 11.31 g/m*3 16.2 C 6.4 km/h
322 25-05-2017 02:45:00 16.2 C 11.31 g/m*3 16.2 C 6.4 km/h
323 25-05-2017 02:50:00 16.1 C 11.24 g/m*3 16.1 C 1.6 km/h
324 25-05-2017 02:55:00 16.1 C 11.24 g/m*3 16.1 C 4.8 km/h
325 25-05-2017 03:00:00 16 C 11.17 g/m*3 16 C 1.6 km/h
Sensor: Nr:Datum:Temp:Abs-Feuchte:Windchill:Wind:
Aussen-T/F 326 25-05-2017 03:05:00 15.9 C 11.24 g/m*3 15.9 C 0 km/h
327 25-05-2017 03:10:00 15.7 C 11.11 g/m*3 15.7 C 0 km/h
328 25-05-2017 03:15:00 15.6 C 11.3 g/m*3 15.6 C 0 km/h
329 25-05-2017 03:20:00 15.4 C 11.17 g/m*3 15.4 C 0 km/h
330 25-05-2017 03:25:00 15.3 C 11.23 g/m*3 15.3 C 0 km/h
331 25-05-2017 03:30:00 15.3 C 11.23 g/m*3 15.3 C 0 km/h
332 25-05-2017 03:35:00 15.2 C 11.16 g/m*3 15.2 C 0 km/h
333 25-05-2017 03:40:00 15.1 C 10.97 g/m*3 15.1 C 4.8 km/h
334 25-05-2017 03:45:00 15.1 C 10.84 g/m*3 15.1 C 3.2 km/h
335 25-05-2017 03:50:00 15.2 C 10.77 g/m*3 15.2 C 6.4 km/h
336 25-05-2017 03:55:00 15.3 C 10.71 g/m*3 15.3 C 3.2 km/h
337 25-05-2017 04:00:00 15.4 C 10.64 g/m*3 15.4 C 4.8 km/h
338 25-05-2017 04:05:00 15.4 C 10.64 g/m*3 15.4 C 6.4 km/h
339 25-05-2017 04:10:00 15.5 C 10.71 g/m*3 15.5 C 6.4 km/h
340 25-05-2017 04:15:00 15.5 C 10.57 g/m*3 15.5 C 3.2 km/h
341 25-05-2017 04:20:00 15.5 C 10.57 g/m*3 15.5 C 4.8 km/h
342 25-05-2017 04:25:00 15.4 C 10.64 g/m*3 15.4 C 1.6 km/h
343 25-05-2017 04:30:00 15.2 C 10.64 g/m*3 15.2 C 0 km/h
344 25-05-2017 04:35:00 14.9 C 10.45 g/m*3 14.9 C 0 km/h
345 25-05-2017 04:40:00 14.7 C 10.45 g/m*3 14.7 C 0 km/h
346 25-05-2017 04:45:00 14.5 C 10.32 g/m*3 14.5 C 0 km/h
347 25-05-2017 04:50:00 14.3 C 10.44 g/m*3 14.3 C 0 km/h
348 25-05-2017 04:55:00 14.1 C 10.32 g/m*3 14.1 C 0 km/h
349 25-05-2017 05:00:00 13.9 C 10.19 g/m*3 13.9 C 0 km/h
350 25-05-2017 05:05:00 13.7 C 10.18 g/m*3 13.7 C 0 km/h
Sensor: Nr:Datum:Temp:Abs-Feuchte:Windchill:Wind:
Aussen-T/F 351 25-05-2017 05:10:00 13.5 C 10.18 g/m*3 13.5 C 0 km/h
352 25-05-2017 05:15:00 13.3 C 10.05 g/m*3 13.3 C 0 km/h
353 25-05-2017 05:20:00 13.2 C 10.1 g/m*3 13.2 C 0 km/h
354 25-05-2017 05:25:00 13.1 C 10.04 g/m*3 13.1 C 0 km/h
355 25-05-2017 05:30:00 12.9 C 10.03 g/m*3 12.9 C 0 km/h
356 25-05-2017 05:35:00 12.9 C 10.03 g/m*3 12.9 C 0 km/h
357 25-05-2017 05:40:00 12.7 C 9.91 g/m*3 12.7 C 0 km/h
358 25-05-2017 05:45:00 12.7 C 10.02 g/m*3 12.7 C 0 km/h
359 25-05-2017 05:50:00 12.6 C 9.96 g/m*3 12.6 C 0 km/h
360 25-05-2017 05:55:00 12.6 C 9.96 g/m*3 12.6 C 0 km/h
361 25-05-2017 06:00:00 12.5 C 9.89 g/m*3 12.5 C 0 km/h
362 25-05-2017 06:05:00 12.5 C 10 g/m*3 12.5 C 0 km/h
363 25-05-2017 06:10:00 12.4 C 9.94 g/m*3 12.4 C 0 km/h
364 25-05-2017 06:15:00 12.4 C 9.94 g/m*3 12.4 C 0 km/h
365 25-05-2017 06:20:00 12.4 C 9.94 g/m*3 12.4 C 0 km/h
366 25-05-2017 06:25:00 12.3 C 9.88 g/m*3 12.3 C 0 km/h
367 25-05-2017 06:30:00 12.3 C 9.99 g/m*3 12.3 C 0 km/h
368 25-05-2017 06:35:00 12.4 C 10.05 g/m*3 12.4 C 0 km/h
369 25-05-2017 06:40:00 12.4 C 10.05 g/m*3 12.4 C 0 km/h
370 25-05-2017 06:45:00 12.4 C 10.05 g/m*3 12.4 C 0 km/h
371 25-05-2017 06:50:00 12.5 C 10.11 g/m*3 12.5 C 0 km/h
372 25-05-2017 06:55:00 12.6 C 10.18 g/m*3 12.6 C 0 km/h
373 25-05-2017 07:00:00 12.6 C 10.18 g/m*3 12.6 C 0 km/h
374 25-05-2017 07:05:00 12.7 C 10.24 g/m*3 12.7 C 0 km/h
375 25-05-2017 07:10:00 12.7 C 10.24 g/m*3 12.7 C 0 km/h
Sensor: Nr:Datum:Temp:Abs-Feuchte:Windchill:Wind:
Aussen-T/F 376 25-05-2017 07:15:00 12.8 C 10.42 g/m*3 12.8 C 0 km/h
377 25-05-2017 07:20:00 12.9 C 10.48 g/m*3 12.9 C 0 km/h
378 25-05-2017 07:25:00 13 C 10.43 g/m*3 13 C 0 km/h
379 25-05-2017 07:30:00 13.1 C 10.5 g/m*3 13.1 C 0 km/h
380 25-05-2017 07:35:00 13.2 C 10.56 g/m*3 13.2 C 0 km/h
381 25-05-2017 07:40:00 13.3 C 10.63 g/m*3 13.3 C 4.8 km/h
382 25-05-2017 07:45:00 13.5 C 10.76 g/m*3 13.5 C 0 km/h
383 25-05-2017 07:50:00 13.7 C 10.78 g/m*3 13.7 C 3.2 km/h
384 25-05-2017 07:55:00 13.8 C 10.72 g/m*3 13.8 C 4.8 km/h
385 25-05-2017 08:00:00 14 C 10.86 g/m*3 14 C 0 km/h
386 25-05-2017 08:05:00 14.2 C 10.87 g/m*3 14.2 C 1.6 km/h
387 25-05-2017 08:10:00 14.3 C 10.81 g/m*3 14.3 C 1.6 km/h
388 25-05-2017 08:15:00 14.6 C 10.89 g/m*3 14.6 C 1.6 km/h
389 25-05-2017 08:20:00 14.7 C 10.95 g/m*3 14.7 C 1.6 km/h
390 25-05-2017 08:25:00 14.8 C 11.02 g/m*3 14.8 C 1.6 km/h
391 25-05-2017 08:30:00 14.8 C 10.89 g/m*3 14.8 C 3.2 km/h
392 25-05-2017 08:35:00 15 C 11.03 g/m*3 15 C 4.8 km/h
393 25-05-2017 08:40:00 15.1 C 11.09 g/m*3 15.1 C 0 km/h
394 25-05-2017 08:45:00 15.2 C 11.03 g/m*3 15.2 C 1.6 km/h
395 25-05-2017 08:50:00 15.3 C 11.1 g/m*3 15.3 C 3.2 km/h
396 25-05-2017 08:55:00 15.3 C 10.97 g/m*3 15.3 C 1.6 km/h
397 25-05-2017 09:00:00 15.4 C 11.04 g/m*3 15.4 C 4.8 km/h
398 25-05-2017 09:05:00 15.4 C 11.04 g/m*3 15.4 C 4.8 km/h
399 25-05-2017 09:10:00 15.5 C 11.1 g/m*3 15.5 C 1.6 km/h
400 25-05-2017 09:15:00 15.6 C 11.17 g/m*3 15.6 C 3.2 km/h
Sensor: Nr:Datum:Temp:Abs-Feuchte:Windchill:Wind:
Aussen-T/F 401 25-05-2017 09:20:00 15.7 C 11.24 g/m*3 15.7 C 1.6 km/h
402 25-05-2017 09:25:00 15.9 C 11.24 g/m*3 15.9 C 3.2 km/h
403 25-05-2017 09:30:00 15.9 C 11.1 g/m*3 15.9 C 1.6 km/h
404 25-05-2017 09:35:00 16.1 C 11.24 g/m*3 16.1 C 1.6 km/h
405 25-05-2017 09:40:00 16.1 C 11.24 g/m*3 16.1 C 1.6 km/h
406 25-05-2017 09:45:00 16.2 C 11.31 g/m*3 16.2 C 3.2 km/h
407 25-05-2017 09:50:00 16.2 C 11.17 g/m*3 16.2 C 3.2 km/h
408 25-05-2017 09:55:00 16.3 C 11.24 g/m*3 16.3 C 4.8 km/h
409 25-05-2017 10:00:00 16.4 C 11.45 g/m*3 16.4 C 4.8 km/h
410 25-05-2017 10:05:00 16.6 C 11.44 g/m*3 16.6 C 4.8 km/h
411 25-05-2017 10:10:00 16.8 C 11.44 g/m*3 16.8 C 3.2 km/h
412 25-05-2017 10:15:00 16.9 C 11.65 g/m*3 16.9 C 3.2 km/h
413 25-05-2017 10:20:00 17.1 C 11.5 g/m*3 17.1 C 8.1 km/h
414 25-05-2017 10:25:00 17.1 C 11.21 g/m*3 17.1 C 6.4 km/h
415 25-05-2017 10:30:00 17.1 C 11.35 g/m*3 17.1 C 3.2 km/h
416 25-05-2017 10:35:00 17.2 C 11.57 g/m*3 17.2 C 1.6 km/h
417 25-05-2017 10:40:00 17.3 C 11.34 g/m*3 17.3 C 6.4 km/h
418 25-05-2017 10:45:00 17.5 C 11.33 g/m*3 17.5 C 6.4 km/h
419 25-05-2017 10:50:00 17.7 C 11.47 g/m*3 17.7 C 3.2 km/h
420 25-05-2017 10:55:00 17.9 C 11.45 g/m*3 17.9 C 3.2 km/h
421 25-05-2017 11:00:00 17.9 C 11.3 g/m*3 17.9 C 8.1 km/h
422 25-05-2017 11:05:00 17.8 C 11.23 g/m*3 17.8 C 4.8 km/h
423 25-05-2017 11:10:00 17.8 C 11.54 g/m*3 17.8 C 6.4 km/h
424 25-05-2017 11:15:00 17.9 C 11.45 g/m*3 17.9 C 11.3 km/h
425 25-05-2017 11:20:00 18 C 11.52 g/m*3 18 C 6.4 km/h
Sensor: Nr:Datum:Temp:Abs-Feuchte:Windchill:Wind:
Aussen-T/F 426 25-05-2017 11:25:00 18.1 C 11.74 g/m*3 18.1 C 6.4 km/h
427 25-05-2017 11:30:00 18.1 C 11.59 g/m*3 18.1 C 4.8 km/h
428 25-05-2017 11:35:00 18.2 C 11.35 g/m*3 18.2 C 4.8 km/h
429 25-05-2017 11:40:00 18.3 C 11.57 g/m*3 18.3 C 4.8 km/h
430 25-05-2017 11:45:00 18.4 C 11.64 g/m*3 18.4 C 8.1 km/h
431 25-05-2017 11:50:00 18.4 C 11.48 g/m*3 18.4 C 4.8 km/h
432 25-05-2017 11:55:00 18.4 C 11.48 g/m*3 18.4 C 9.7 km/h
433 25-05-2017 12:00:00 18.4 C 11.64 g/m*3 18.4 C 1.6 km/h
434 25-05-2017 12:05:00 18.6 C 11.78 g/m*3 18.6 C 8.1 km/h
435 25-05-2017 12:10:00 18.7 C 11.53 g/m*3 18.7 C 6.4 km/h
436 25-05-2017 12:15:00 18.7 C 11.37 g/m*3 18.7 C 9.7 km/h
437 25-05-2017 12:20:00 18.7 C 11.53 g/m*3 18.7 C 9.7 km/h
438 25-05-2017 12:25:00 18.8 C 11.76 g/m*3 18.8 C 6.4 km/h
439 25-05-2017 12:30:00 18.8 C 11.11 g/m*3 18.8 C 9.7 km/h
440 25-05-2017 12:35:00 18.9 C 11.02 g/m*3 18.9 C 9.7 km/h
441 25-05-2017 12:40:00 19 C 11.24 g/m*3 19 C 6.4 km/h
442 25-05-2017 12:45:00 19.1 C 10.98 g/m*3 19.1 C 8.1 km/h
443 25-05-2017 12:50:00 19.2 C 10.88 g/m*3 19.2 C 4.8 km/h
444 25-05-2017 12:55:00 19.3 C 11.11 g/m*3 19.3 C 4.8 km/h
445 25-05-2017 13:00:00 19.4 C 11.18 g/m*3 19.4 C 9.7 km/h
446 25-05-2017 13:05:00 19.4 C 10.84 g/m*3 19.4 C 8.1 km/h
447 25-05-2017 13:10:00 19.6 C 11.48 g/m*3 19.6 C 4.8 km/h
448 25-05-2017 13:15:00 19.6 C 10.8 g/m*3 19.6 C 11.3 km/h
449 25-05-2017 13:20:00 19.7 C 10.87 g/m*3 19.7 C 8.1 km/h
450 25-05-2017 13:25:00 19.8 C 11.1 g/m*3 19.8 C 8.1 km/h
Sensor: Nr:Datum:Temp:Abs-Feuchte:Windchill:Wind:
Aussen-T/F 451 25-05-2017 13:30:00 20.1 C 10.95 g/m*3 20.1 C 8.1 km/h
452 25-05-2017 13:35:00 20.2 C 11.02 g/m*3 20.2 C 9.7 km/h
453 25-05-2017 13:40:00 20.3 C 10.9 g/m*3 20.3 C 9.7 km/h
454 25-05-2017 13:45:00 20.3 C 11.26 g/m*3 20.3 C 3.2 km/h
455 25-05-2017 13:50:00 20.4 C 11.14 g/m*3 20.4 C 11.3 km/h
456 25-05-2017 13:55:00 20.4 C 10.97 g/m*3 20.4 C 11.3 km/h
457 25-05-2017 14:00:00 20.6 C 11.1 g/m*3 20.6 C 11.3 km/h
458 25-05-2017 14:05:00 20.8 C 11.05 g/m*3 20.8 C 8.1 km/h
459 25-05-2017 14:10:00 20.9 C 11.11 g/m*3 20.9 C 9.7 km/h
460 25-05-2017 14:15:00 21 C 11.17 g/m*3 21 C 8.1 km/h
461 25-05-2017 14:20:00 21.3 C 11.37 g/m*3 21.3 C 11.3 km/h
462 25-05-2017 14:25:00 21.4 C 11.06 g/m*3 21.4 C 8.1 km/h
463 25-05-2017 14:30:00 21.6 C 11 g/m*3 21.6 C 17.7 km/h
464 25-05-2017 14:35:00 21.6 C 11 g/m*3 21.6 C 17.7 km/h
465 25-05-2017 14:40:00 21.7 C 11.25 g/m*3 21.7 C 9.7 km/h
466 25-05-2017 14:45:00 21.8 C 11.32 g/m*3 21.8 C 12.9 km/h
467 25-05-2017 14:50:00 22 C 11.06 g/m*3 22 C 19.3 km/h
468 25-05-2017 14:55:00 22.1 C 11.13 g/m*3 22.1 C 6.4 km/h
469 25-05-2017 15:00:00 22.2 C 10.99 g/m*3 22.2 C 16.1 km/h
470 25-05-2017 15:05:00 22.2 C 10.99 g/m*3 22.2 C 14.5 km/h
471 25-05-2017 15:10:00 22.4 C 10.92 g/m*3 22.4 C 14.5 km/h
472 25-05-2017 15:15:00 22.6 C 10.85 g/m*3 22.6 C 14.5 km/h
473 25-05-2017 15:20:00 22.7 C 10.91 g/m*3 22.7 C 12.9 km/h
474 25-05-2017 15:25:00 22.9 C 11.44 g/m*3 22.9 C 8.1 km/h
475 25-05-2017 15:30:00 23.2 C 11.02 g/m*3 23.2 C 9.7 km/h
Sensor: Nr:Datum:Temp:Abs-Feuchte:Windchill:Wind:
Aussen-T/F 476 25-05-2017 15:35:00 23.6 C 11.06 g/m*3 23.6 C 9.7 km/h
477 25-05-2017 15:40:00 23.7 C 11.34 g/m*3 23.7 C 11.3 km/h
478 25-05-2017 15:45:00 24.1 C 10.94 g/m*3 24.1 C 12.9 km/h
479 25-05-2017 15:50:00 24.2 C 11 g/m*3 24.2 C 9.7 km/h
480 25-05-2017 15:55:00 24.1 C 11.38 g/m*3 24.1 C 8.1 km/h
481 25-05-2017 16:00:00 24.2 C 11 g/m*3 24.2 C 14.5 km/h
482 25-05-2017 16:05:00 24.3 C 11.29 g/m*3 24.3 C 11.3 km/h
483 25-05-2017 16:10:00 24.4 C 11.35 g/m*3 24.4 C 12.9 km/h
484 25-05-2017 16:15:00 24.6 C 11.25 g/m*3 24.6 C 11.3 km/h
485 25-05-2017 16:20:00 24.8 C 11.38 g/m*3 24.8 C 11.3 km/h
486 25-05-2017 16:25:00 25.1 C 11.11 g/m*3 25.1 C 14.5 km/h
487 25-05-2017 16:30:00 24.9 C 11.22 g/m*3 24.9 C 8.1 km/h
488 25-05-2017 16:35:00 25.1 C 11.57 g/m*3 25.1 C 12.9 km/h
489 25-05-2017 16:40:00 25.1 C 11.34 g/m*3 25.1 C 11.3 km/h
490 25-05-2017 16:45:00 25.3 C 10.77 g/m*3 25.3 C 16.1 km/h
491 25-05-2017 16:50:00 25.2 C 10.94 g/m*3 25.2 C 9.7 km/h
492 25-05-2017 16:55:00 25.1 C 11.11 g/m*3 25.1 C 11.3 km/h
493 25-05-2017 17:00:00 25.1 C 10.88 g/m*3 25.1 C 14.5 km/h
494 25-05-2017 17:05:00 25.3 C 11.24 g/m*3 25.3 C 11.3 km/h
495 25-05-2017 17:10:00 25.5 C 10.89 g/m*3 25.5 C 12.9 km/h
496 25-05-2017 17:15:00 25.5 C 10.89 g/m*3 25.5 C 11.3 km/h
497 25-05-2017 17:20:00 25.6 C 10.95 g/m*3 25.6 C 11.3 km/h
498 25-05-2017 17:25:00 25.4 C 10.83 g/m*3 25.4 C 8.1 km/h
499 25-05-2017 17:30:00 25.7 C 11.01 g/m*3 25.7 C 8.1 km/h
500 25-05-2017 17:35:00 26 C 10.96 g/m*3 26 C 14.5 km/h
Sensor: Nr:Datum:Temp:Abs-Feuchte:Windchill:Wind:
Aussen-T/F 501 25-05-2017 17:40:00 25.9 C 11.14 g/m*3 25.9 C 12.9 km/h
502 25-05-2017 17:45:00 26 C 10.96 g/m*3 26 C 12.9 km/h
503 25-05-2017 17:50:00 26.1 C 11.02 g/m*3 26.1 C 9.7 km/h
504 25-05-2017 17:55:00 26.2 C 11.32 g/m*3 26.2 C 12.9 km/h
505 25-05-2017 18:00:00 26.3 C 11.14 g/m*3 26.3 C 8.1 km/h
506 25-05-2017 18:05:00 26.4 C 10.95 g/m*3 26.4 C 11.3 km/h
507 25-05-2017 18:10:00 26.6 C 10.57 g/m*3 26.6 C 9.7 km/h
508 25-05-2017 18:15:00 26.6 C 9.82 g/m*3 26.6 C 9.7 km/h
509 25-05-2017 18:20:00 26.6 C 9.57 g/m*3 26.6 C 14.5 km/h
510 25-05-2017 18:25:00 26.3 C 9.41 g/m*3 26.3 C 14.5 km/h
511 25-05-2017 18:30:00 26.1 C 9.3 g/m*3 26.1 C 12.9 km/h
512 25-05-2017 18:35:00 25.8 C 9.39 g/m*3 25.8 C 17.7 km/h
513 25-05-2017 18:40:00 25.8 C 9.39 g/m*3 25.8 C 16.1 km/h
514 25-05-2017 18:45:00 25.7 C 9.34 g/m*3 25.7 C 14.5 km/h
515 25-05-2017 18:50:00 25.5 C 9.23 g/m*3 25.5 C 14.5 km/h
516 25-05-2017 18:55:00 25.4 C 9.42 g/m*3 25.4 C 9.7 km/h
517 25-05-2017 19:00:00 25.4 C 9.42 g/m*3 25.4 C 16.1 km/h
518 25-05-2017 19:05:00 25.4 C 9.65 g/m*3 25.4 C 9.7 km/h
519 25-05-2017 19:10:00 25.2 C 9.54 g/m*3 25.2 C 12.9 km/h
520 25-05-2017 19:15:00 24.9 C 9.61 g/m*3 24.9 C 16.1 km/h
521 25-05-2017 19:20:00 24.7 C 9.96 g/m*3 24.7 C 11.3 km/h
522 25-05-2017 19:25:00 24.6 C 9.9 g/m*3 24.6 C 11.3 km/h
523 25-05-2017 19:30:00 24.3 C 9.74 g/m*3 24.3 C 19.3 km/h
524 25-05-2017 19:35:00 24.2 C 9.9 g/m*3 24.2 C 11.3 km/h
525 25-05-2017 19:40:00 24.1 C 10.06 g/m*3 24.1 C 12.9 km/h
Sensor: Nr:Datum:Temp:Abs-Feuchte:Windchill:Wind:
Aussen-T/F 526 25-05-2017 19:45:00 23.9 C 9.95 g/m*3 23.9 C 14.5 km/h
527 25-05-2017 19:50:00 23.9 C 9.95 g/m*3 23.9 C 12.9 km/h
528 25-05-2017 19:55:00 23.8 C 10.11 g/m*3 23.8 C 9.7 km/h
529 25-05-2017 20:00:00 23.7 C 10.27 g/m*3 23.7 C 11.3 km/h
530 25-05-2017 20:05:00 23.6 C 10 g/m*3 23.6 C 14.5 km/h
531 25-05-2017 20:10:00 23.6 C 10 g/m*3 23.6 C 11.3 km/h
532 25-05-2017 20:15:00 23.5 C 9.94 g/m*3 23.5 C 11.3 km/h
533 25-05-2017 20:20:00 23.4 C 9.88 g/m*3 23.4 C 11.3 km/h
534 25-05-2017 20:25:00 23.3 C 9.83 g/m*3 23.3 C 14.5 km/h
535 25-05-2017 20:30:00 23.2 C 9.98 g/m*3 23.2 C 12.9 km/h
536 25-05-2017 20:35:00 23.1 C 10.13 g/m*3 23.1 C 8.1 km/h
537 25-05-2017 20:40:00 22.9 C 10.01 g/m*3 22.9 C 11.3 km/h
538 25-05-2017 20:45:00 22.7 C 10.1 g/m*3 22.7 C 14.5 km/h
539 25-05-2017 20:50:00 22.5 C 9.99 g/m*3 22.5 C 9.7 km/h
540 25-05-2017 20:55:00 22.3 C 10.07 g/m*3 22.3 C 14.5 km/h
541 25-05-2017 21:00:00 22.1 C 10.15 g/m*3 22.1 C 12.9 km/h
542 25-05-2017 21:05:00 21.9 C 10.42 g/m*3 21.9 C 6.4 km/h
543 25-05-2017 21:10:00 21.8 C 10.55 g/m*3 21.8 C 3.2 km/h
544 25-05-2017 21:15:00 21.6 C 11.19 g/m*3 21.6 C 3.2 km/h
545 25-05-2017 21:20:00 21.3 C 10.62 g/m*3 21.3 C 14.5 km/h
546 25-05-2017 21:25:00 21.2 C 10.93 g/m*3 21.2 C 6.4 km/h
547 25-05-2017 21:30:00 20.9 C 10.75 g/m*3 20.9 C 3.2 km/h
548 25-05-2017 21:35:00 20.6 C 10.92 g/m*3 20.6 C 1.6 km/h
549 25-05-2017 21:40:00 20.1 C 10.78 g/m*3 20.1 C 0 km/h
550 25-05-2017 21:45:00 19.7 C 10.7 g/m*3 19.7 C 3.2 km/h
Sensor: Nr:Datum:Temp:Abs-Feuchte:Windchill:Wind:
Aussen-T/F 551 25-05-2017 21:50:00 19.4 C 10.84 g/m*3 19.4 C 1.6 km/h
552 25-05-2017 21:55:00 19.1 C 10.66 g/m*3 19.1 C 0 km/h
553 25-05-2017 22:00:00 18.8 C 10.63 g/m*3 18.8 C 0 km/h
554 25-05-2017 22:05:00 18.6 C 10.66 g/m*3 18.6 C 0 km/h
555 25-05-2017 22:10:00 18.4 C 10.7 g/m*3 18.4 C 0 km/h
556 25-05-2017 22:15:00 18.2 C 10.72 g/m*3 18.2 C 0 km/h
557 25-05-2017 22:20:00 18.1 C 10.66 g/m*3 18.1 C 0 km/h
558 25-05-2017 22:25:00 17.9 C 10.69 g/m*3 17.9 C 0 km/h
559 25-05-2017 22:30:00 17.8 C 10.78 g/m*3 17.8 C 0 km/h
560 25-05-2017 22:35:00 17.6 C 10.65 g/m*3 17.6 C 0 km/h
561 25-05-2017 22:40:00 17.4 C 10.67 g/m*3 17.4 C 0 km/h
562 25-05-2017 22:45:00 17.3 C 10.61 g/m*3 17.3 C 0 km/h
563 25-05-2017 22:50:00 17.2 C 10.54 g/m*3 17.2 C 1.6 km/h
564 25-05-2017 22:55:00 17.1 C 10.48 g/m*3 17.1 C 0 km/h
565 25-05-2017 23:00:00 17 C 10.56 g/m*3 17 C 0 km/h
566 25-05-2017 23:05:00 16.9 C 10.5 g/m*3 16.9 C 0 km/h
567 25-05-2017 23:10:00 16.8 C 10.58 g/m*3 16.8 C 0 km/h
568 25-05-2017 23:15:00 16.6 C 10.59 g/m*3 16.6 C 0 km/h
569 25-05-2017 23:20:00 16.4 C 10.47 g/m*3 16.4 C 0 km/h
570 25-05-2017 23:25:00 16.4 C 10.47 g/m*3 16.4 C 0 km/h
571 25-05-2017 23:30:00 16.3 C 10.41 g/m*3 16.3 C 0 km/h
572 25-05-2017 23:35:00 16.2 C 10.34 g/m*3 16.2 C 0 km/h
573 25-05-2017 23:40:00 16.1 C 10.42 g/m*3 16.1 C 0 km/h
574 25-05-2017 23:45:00 16.1 C 10.55 g/m*3 16.1 C 0 km/h
575 25-05-2017 23:50:00 15.9 C 10.43 g/m*3 15.9 C 0 km/h
Sensor: Nr:Datum:Temp:Abs-Feuchte:Windchill:Wind:
Aussen-T/F 576 25-05-2017 23:55:00 15.8 C 10.36 g/m*3 15.8 C 0 km/h
577 26-05-2017 00:00:00 15.6 C 10.37 g/m*3 15.6 C 0 km/h
578 26-05-2017 00:05:00 15.5 C 10.31 g/m*3 15.5 C 0 km/h
579 26-05-2017 00:10:00 15.4 C 10.38 g/m*3 15.4 C 0 km/h
580 26-05-2017 00:15:00 15.3 C 10.32 g/m*3 15.3 C 0 km/h
581 26-05-2017 00:20:00 15.2 C 10.38 g/m*3 15.2 C 0 km/h
582 26-05-2017 00:25:00 15 C 10.26 g/m*3 15 C 0 km/h
583 26-05-2017 00:30:00 14.8 C 10.13 g/m*3 14.8 C 0 km/h
584 26-05-2017 00:35:00 14.7 C 10.2 g/m*3 14.7 C 0 km/h
585 26-05-2017 00:40:00 14.6 C 10.14 g/m*3 14.6 C 0 km/h
586 26-05-2017 00:45:00 14.4 C 10.14 g/m*3 14.4 C 0 km/h
587 26-05-2017 00:50:00 14.3 C 10.07 g/m*3 14.3 C 0 km/h
588 26-05-2017 00:55:00 14.2 C 10.01 g/m*3 14.2 C 0 km/h
589 26-05-2017 01:00:00 14.1 C 10.07 g/m*3 14.1 C 0 km/h
590 26-05-2017 01:05:00 13.9 C 9.95 g/m*3 13.9 C 0 km/h
591 26-05-2017 01:10:00 13.8 C 9.89 g/m*3 13.8 C 0 km/h
592 26-05-2017 01:15:00 13.8 C 10.01 g/m*3 13.8 C 0 km/h
593 26-05-2017 01:20:00 13.7 C 9.95 g/m*3 13.7 C 0 km/h
594 26-05-2017 01:25:00 13.5 C 9.83 g/m*3 13.5 C 0 km/h
595 26-05-2017 01:30:00 13.4 C 9.76 g/m*3 13.4 C 0 km/h
596 26-05-2017 01:35:00 13.3 C 9.82 g/m*3 13.3 C 0 km/h
597 26-05-2017 01:40:00 13.2 C 9.87 g/m*3 13.2 C 0 km/h
598 26-05-2017 01:45:00 13.1 C 9.81 g/m*3 13.1 C 0 km/h
599 26-05-2017 01:50:00 13 C 9.75 g/m*3 13 C 0 km/h
600 26-05-2017 01:55:00 12.9 C 9.69 g/m*3 12.9 C 0 km/h
Sensor: Nr:Datum:Temp:Abs-Feuchte:Windchill:Wind:
Aussen-T/F 601 26-05-2017 02:00:00 12.8 C 9.74 g/m*3 12.8 C 0 km/h
602 26-05-2017 02:05:00 12.7 C 9.68 g/m*3 12.7 C 0 km/h
603 26-05-2017 02:10:00 12.7 C 9.68 g/m*3 12.7 C 0 km/h
604 26-05-2017 02:15:00 12.6 C 9.74 g/m*3 12.6 C 0 km/h
605 26-05-2017 02:20:00 12.6 C 9.74 g/m*3 12.6 C 0 km/h
606 26-05-2017 02:25:00 12.5 C 9.68 g/m*3 12.5 C 0 km/h
607 26-05-2017 02:30:00 12.5 C 9.68 g/m*3 12.5 C 0 km/h
608 26-05-2017 02:35:00 12.4 C 9.62 g/m*3 12.4 C 0 km/h
609 26-05-2017 02:40:00 12.3 C 9.56 g/m*3 12.3 C 0 km/h
610 26-05-2017 02:45:00 12.3 C 9.66 g/m*3 12.3 C 0 km/h
611 26-05-2017 02:50:00 12.2 C 9.6 g/m*3 12.2 C 0 km/h
612 26-05-2017 02:55:00 12.1 C 9.54 g/m*3 12.1 C 0 km/h
613 26-05-2017 03:00:00 12 C 9.48 g/m*3 12 C 0 km/h
614 26-05-2017 03:05:00 11.9 C 9.53 g/m*3 11.9 C 0 km/h
615 26-05-2017 03:10:00 11.9 C 9.53 g/m*3 11.9 C 0 km/h
616 26-05-2017 03:15:00 11.8 C 9.47 g/m*3 11.8 C 0 km/h
617 26-05-2017 03:20:00 11.8 C 9.47 g/m*3 11.8 C 0 km/h
618 26-05-2017 03:25:00 11.7 C 9.41 g/m*3 11.7 C 0 km/h
619 26-05-2017 03:30:00 11.7 C 9.41 g/m*3 11.7 C 0 km/h
620 26-05-2017 03:35:00 11.6 C 9.35 g/m*3 11.6 C 0 km/h
621 26-05-2017 03:40:00 11.6 C 9.46 g/m*3 11.6 C 0 km/h
622 26-05-2017 03:45:00 11.6 C 9.46 g/m*3 11.6 C 0 km/h
623 26-05-2017 03:50:00 11.6 C 9.46 g/m*3 11.6 C 0 km/h
624 26-05-2017 03:55:00 11.4 C 9.34 g/m*3 11.4 C 0 km/h
625 26-05-2017 04:00:00 11.4 C 9.34 g/m*3 11.4 C 0 km/h
Sensor: Nr:Datum:Temp:Abs-Feuchte:Windchill:Wind:
Aussen-T/F 626 26-05-2017 04:05:00 11.4 C 9.44 g/m*3 11.4 C 0 km/h
627 26-05-2017 04:10:00 11.3 C 9.28 g/m*3 11.3 C 0 km/h
628 26-05-2017 04:15:00 11.3 C 9.38 g/m*3 11.3 C 0 km/h
629 26-05-2017 04:20:00 11.2 C 9.33 g/m*3 11.2 C 0 km/h
630 26-05-2017 04:25:00 11.2 C 9.33 g/m*3 11.2 C 0 km/h
631 26-05-2017 04:30:00 11.1 C 9.27 g/m*3 11.1 C 0 km/h
632 26-05-2017 04:35:00 11.1 C 9.27 g/m*3 11.1 C 0 km/h
633 26-05-2017 04:40:00 11.1 C 9.27 g/m*3 11.1 C 0 km/h
634 26-05-2017 04:45:00 11 C 9.21 g/m*3 11 C 0 km/h
635 26-05-2017 04:50:00 10.9 C 9.15 g/m*3 10.9 C 0 km/h
636 26-05-2017 04:55:00 10.9 C 9.15 g/m*3 10.9 C 0 km/h
637 26-05-2017 05:00:00 10.8 C 9.09 g/m*3 10.8 C 0 km/h
638 26-05-2017 05:05:00 10.8 C 9.19 g/m*3 10.8 C 0 km/h
639 26-05-2017 05:10:00 10.8 C 9.19 g/m*3 10.8 C 0 km/h
640 26-05-2017 05:15:00 10.8 C 9.19 g/m*3 10.8 C 0 km/h
641 26-05-2017 05:20:00 10.8 C 9.19 g/m*3 10.8 C 0 km/h
642 26-05-2017 05:25:00 10.8 C 9.19 g/m*3 10.8 C 0 km/h
643 26-05-2017 05:30:00 10.8 C 9.29 g/m*3 10.8 C 0 km/h
644 26-05-2017 05:35:00 10.8 C 9.19 g/m*3 10.8 C 0 km/h
645 26-05-2017 05:40:00 10.8 C 9.19 g/m*3 10.8 C 0 km/h
646 26-05-2017 05:45:00 10.7 C 9.13 g/m*3 10.7 C 0 km/h
647 26-05-2017 05:50:00 10.7 C 9.13 g/m*3 10.7 C 0 km/h
648 26-05-2017 05:55:00 10.6 C 9.08 g/m*3 10.6 C 0 km/h
649 26-05-2017 06:00:00 10.6 C 9.08 g/m*3 10.6 C 0 km/h
650 26-05-2017 06:05:00 10.6 C 9.17 g/m*3 10.6 C 0 km/h
Sensor: Nr:Datum:Temp:Abs-Feuchte:Windchill:Wind:
Aussen-T/F 651 26-05-2017 06:10:00 10.6 C 9.17 g/m*3 10.6 C 0 km/h
652 26-05-2017 06:15:00 10.6 C 9.17 g/m*3 10.6 C 0 km/h
653 26-05-2017 06:20:00 10.6 C 9.17 g/m*3 10.6 C 0 km/h
654 26-05-2017 06:25:00 10.7 C 9.23 g/m*3 10.7 C 0 km/h
655 26-05-2017 06:30:00 10.7 C 9.23 g/m*3 10.7 C 0 km/h
656 26-05-2017 06:35:00 10.7 C 9.23 g/m*3 10.7 C 0 km/h
657 26-05-2017 06:40:00 10.7 C 9.23 g/m*3 10.7 C 0 km/h
658 26-05-2017 06:45:00 10.7 C 9.23 g/m*3 10.7 C 0 km/h
659 26-05-2017 06:50:00 10.8 C 9.29 g/m*3 10.8 C 0 km/h
660 26-05-2017 06:55:00 10.8 C 9.29 g/m*3 10.8 C 0 km/h
661 26-05-2017 07:00:00 10.8 C 9.29 g/m*3 10.8 C 0 km/h
662 26-05-2017 07:05:00 10.8 C 9.29 g/m*3 10.8 C 0 km/h
663 26-05-2017 07:10:00 10.8 C 9.29 g/m*3 10.8 C 0 km/h
664 26-05-2017 07:15:00 10.9 C 9.35 g/m*3 10.9 C 0 km/h
665 26-05-2017 07:20:00 10.9 C 9.35 g/m*3 10.9 C 0 km/h
666 26-05-2017 07:25:00 11 C 9.41 g/m*3 11 C 0 km/h
667 26-05-2017 07:30:00 11.1 C 9.57 g/m*3 11.1 C 0 km/h
668 26-05-2017 07:35:00 11.2 C 9.63 g/m*3 11.2 C 0 km/h
669 26-05-2017 07:40:00 11.3 C 9.69 g/m*3 11.3 C 0 km/h
670 26-05-2017 07:45:00 11.4 C 9.75 g/m*3 11.4 C 0 km/h
671 26-05-2017 07:50:00 11.4 C 9.75 g/m*3 11.4 C 0 km/h
672 26-05-2017 07:55:00 11.6 C 9.87 g/m*3 11.6 C 0 km/h
673 26-05-2017 08:00:00 11.7 C 9.94 g/m*3 11.7 C 0 km/h
674 26-05-2017 08:05:00 11.8 C 10 g/m*3 11.8 C 0 km/h
675 26-05-2017 08:10:00 11.9 C 10.06 g/m*3 11.9 C 4.8 km/h
Sensor: Nr:Datum:Temp:Abs-Feuchte:Windchill:Wind:
Aussen-T/F 676 26-05-2017 08:15:00 12.1 C 10.19 g/m*3 12.1 C 0 km/h
677 26-05-2017 08:20:00 12.2 C 10.25 g/m*3 12.2 C 0 km/h
678 26-05-2017 08:25:00 12.3 C 10.32 g/m*3 12.3 C 0 km/h
679 26-05-2017 08:30:00 12.4 C 10.38 g/m*3 12.4 C 0 km/h
680 26-05-2017 08:35:00 12.6 C 10.51 g/m*3 12.6 C 0 km/h
681 26-05-2017 08:40:00 12.7 C 10.58 g/m*3 12.7 C 0 km/h
682 26-05-2017 08:45:00 12.9 C 10.71 g/m*3 12.9 C 1.6 km/h
683 26-05-2017 08:50:00 13.1 C 10.84 g/m*3 13.1 C 6.4 km/h
684 26-05-2017 08:55:00 13.4 C 11.16 g/m*3 13.4 C 6.4 km/h
685 26-05-2017 09:00:00 13.8 C 11.32 g/m*3 13.8 C 8.1 km/h
686 26-05-2017 09:05:00 14.2 C 11.48 g/m*3 14.2 C 8.1 km/h
687 26-05-2017 09:10:00 14.6 C 11.51 g/m*3 14.6 C 6.4 km/h
688 26-05-2017 09:15:00 14.9 C 11.47 g/m*3 14.9 C 11.3 km/h
689 26-05-2017 09:20:00 15.4 C 11.56 g/m*3 15.4 C 9.7 km/h
690 26-05-2017 09:25:00 15.7 C 11.64 g/m*3 15.7 C 4.8 km/h
691 26-05-2017 09:30:00 15.9 C 11.51 g/m*3 15.9 C 11.3 km/h
692 26-05-2017 09:35:00 16.2 C 11.58 g/m*3 16.2 C 4.8 km/h
693 26-05-2017 09:40:00 16.5 C 11.65 g/m*3 16.5 C 8.1 km/h
694 26-05-2017 09:45:00 16.7 C 11.65 g/m*3 16.7 C 9.7 km/h
695 26-05-2017 09:50:00 16.9 C 11.65 g/m*3 16.9 C 8.1 km/h
696 26-05-2017 09:55:00 17.2 C 11.72 g/m*3 17.2 C 11.3 km/h
697 26-05-2017 10:00:00 17.3 C 11.64 g/m*3 17.3 C 8.1 km/h
698 26-05-2017 10:05:00 17.5 C 11.63 g/m*3 17.5 C 12.9 km/h
699 26-05-2017 10:10:00 17.7 C 11.77 g/m*3 17.7 C 8.1 km/h
700 26-05-2017 10:15:00 17.8 C 11.84 g/m*3 17.8 C 6.4 km/h
Sensor: Nr:Datum:Temp:Abs-Feuchte:Windchill:Wind:
Aussen-T/F 701 26-05-2017 10:20:00 18.1 C 11.9 g/m*3 18.1 C 8.1 km/h
702 26-05-2017 10:25:00 18.3 C 11.88 g/m*3 18.3 C 8.1 km/h
703 26-05-2017 10:30:00 18.6 C 11.78 g/m*3 18.6 C 12.9 km/h
704 26-05-2017 10:35:00 18.8 C 11.92 g/m*3 18.8 C 8.1 km/h
705 26-05-2017 10:40:00 19 C 11.73 g/m*3 19 C 11.3 km/h
706 26-05-2017 10:45:00 19.1 C 11.8 g/m*3 19.1 C 9.7 km/h
707 26-05-2017 10:50:00 19.2 C 12.04 g/m*3 19.2 C 9.7 km/h
708 26-05-2017 10:55:00 19.2 C 11.87 g/m*3 19.2 C 9.7 km/h
709 26-05-2017 11:00:00 19.3 C 11.94 g/m*3 19.3 C 6.4 km/h
710 26-05-2017 11:05:00 19.3 C 11.78 g/m*3 19.3 C 9.7 km/h
711 26-05-2017 11:10:00 19.4 C 12.01 g/m*3 19.4 C 4.8 km/h
712 26-05-2017 11:15:00 19.4 C 11.85 g/m*3 19.4 C 11.3 km/h
713 26-05-2017 11:20:00 19.6 C 11.99 g/m*3 19.6 C 11.3 km/h
714 26-05-2017 11:25:00 19.8 C 11.96 g/m*3 19.8 C 9.7 km/h
715 26-05-2017 11:30:00 19.9 C 11.68 g/m*3 19.9 C 11.3 km/h
716 26-05-2017 11:35:00 20.1 C 11.82 g/m*3 20.1 C 9.7 km/h
717 26-05-2017 11:40:00 20.2 C 11.71 g/m*3 20.2 C 14.5 km/h
718 26-05-2017 11:45:00 20.3 C 11.61 g/m*3 20.3 C 11.3 km/h
719 26-05-2017 11:50:00 20.4 C 11.5 g/m*3 20.4 C 9.7 km/h
720 26-05-2017 11:55:00 20.6 C 11.81 g/m*3 20.6 C 9.7 km/h
721 26-05-2017 12:00:00 20.6 C 11.81 g/m*3 20.6 C 9.7 km/h
722 26-05-2017 12:05:00 20.7 C 11.52 g/m*3 20.7 C 8.1 km/h
723 26-05-2017 12:10:00 20.9 C 11.84 g/m*3 20.9 C 16.1 km/h
724 26-05-2017 12:15:00 21.2 C 11.68 g/m*3 21.2 C 16.1 km/h
725 26-05-2017 12:20:00 21.3 C 11.74 g/m*3 21.3 C 14.5 km/h
Sensor: Nr:Datum:Temp:Abs-Feuchte:Windchill:Wind:
Aussen-T/F 726 26-05-2017 12:25:00 21.3 C 11.74 g/m*3 21.3 C 8.1 km/h
727 26-05-2017 12:30:00 21.4 C 11.81 g/m*3 21.4 C 12.9 km/h
728 26-05-2017 12:35:00 21.6 C 11.76 g/m*3 21.6 C 11.3 km/h
729 26-05-2017 12:40:00 21.8 C 11.51 g/m*3 21.8 C 12.9 km/h
730 26-05-2017 12:45:00 21.9 C 11.77 g/m*3 21.9 C 16.1 km/h
731 26-05-2017 12:50:00 21.9 C 11.58 g/m*3 21.9 C 12.9 km/h
732 26-05-2017 12:55:00 22.1 C 11.71 g/m*3 22.1 C 8.1 km/h
733 26-05-2017 13:00:00 22.2 C 11.58 g/m*3 22.2 C 11.3 km/h
734 26-05-2017 13:05:00 22.4 C 11.52 g/m*3 22.4 C 12.9 km/h
735 26-05-2017 13:10:00 22.4 C 11.52 g/m*3 22.4 C 8.1 km/h
736 26-05-2017 13:15:00 22.6 C 11.45 g/m*3 22.6 C 9.7 km/h
737 26-05-2017 13:20:00 22.6 C 11.65 g/m*3 22.6 C 11.3 km/h
738 26-05-2017 13:25:00 22.7 C 11.52 g/m*3 22.7 C 11.3 km/h
739 26-05-2017 13:30:00 22.8 C 11.58 g/m*3 22.8 C 9.7 km/h
740 26-05-2017 13:35:00 22.9 C 11.65 g/m*3 22.9 C 11.3 km/h
741 26-05-2017 13:40:00 23.1 C 11.78 g/m*3 23.1 C 11.3 km/h
742 26-05-2017 13:45:00 23.3 C 11.71 g/m*3 23.3 C 11.3 km/h
743 26-05-2017 13:50:00 23.4 C 11.35 g/m*3 23.4 C 16.1 km/h
744 26-05-2017 13:55:00 23.6 C 11.27 g/m*3 23.6 C 12.9 km/h
745 26-05-2017 14:00:00 23.8 C 11.62 g/m*3 23.8 C 8.1 km/h
746 26-05-2017 14:05:00 23.8 C 11.4 g/m*3 23.8 C 12.9 km/h
747 26-05-2017 14:10:00 23.9 C 11.47 g/m*3 23.9 C 8.1 km/h
748 26-05-2017 14:15:00 24.1 C 11.82 g/m*3 24.1 C 12.9 km/h
749 26-05-2017 14:20:00 24.2 C 11.66 g/m*3 24.2 C 9.7 km/h
750 26-05-2017 14:25:00 24.4 C 11.79 g/m*3 24.4 C 11.3 km/h
Sensor: Nr:Datum:Temp:Abs-Feuchte:Windchill:Wind:
Aussen-T/F 751 26-05-2017 14:30:00 24.4 C 11.57 g/m*3 24.4 C 11.3 km/h
752 26-05-2017 14:35:00 24.4 C 11.35 g/m*3 24.4 C 14.5 km/h
753 26-05-2017 14:40:00 24.5 C 11.64 g/m*3 24.5 C 14.5 km/h
754 26-05-2017 14:45:00 24.5 C 11.86 g/m*3 24.5 C 16.1 km/h
755 26-05-2017 14:50:00 24.5 C 11.86 g/m*3 24.5 C 11.3 km/h
756 26-05-2017 14:55:00 24.7 C 11.77 g/m*3 24.7 C 11.3 km/h
757 26-05-2017 15:00:00 24.7 C 11.54 g/m*3 24.7 C 8.1 km/h
758 26-05-2017 15:05:00 24.8 C 11.38 g/m*3 24.8 C 12.9 km/h
759 26-05-2017 15:10:00 25 C 12.43 g/m*3 25 C 11.3 km/h
760 26-05-2017 15:15:00 25.1 C 11.81 g/m*3 25.1 C 4.8 km/h
761 26-05-2017 15:20:00 25.2 C 12.11 g/m*3 25.2 C 11.3 km/h
762 26-05-2017 15:25:00 25.7 C 11.97 g/m*3 25.7 C 19.3 km/h
763 26-05-2017 15:30:00 25.9 C 11.62 g/m*3 25.9 C 11.3 km/h
764 26-05-2017 15:35:00 26.3 C 12.13 g/m*3 26.3 C 12.9 km/h
765 26-05-2017 15:40:00 26.3 C 11.39 g/m*3 26.3 C 17.7 km/h
766 26-05-2017 15:45:00 26.3 C 11.64 g/m*3 26.3 C 9.7 km/h
767 26-05-2017 15:50:00 26.5 C 11.51 g/m*3 26.5 C 14.5 km/h
768 26-05-2017 15:55:00 26.8 C 11.45 g/m*3 26.8 C 14.5 km/h
769 26-05-2017 16:00:00 27 C 11.07 g/m*3 27 C 9.7 km/h
770 26-05-2017 16:05:00 27.1 C 11.65 g/m*3 27.1 C 14.5 km/h
771 26-05-2017 16:10:00 27.1 C 11.13 g/m*3 27.1 C 11.3 km/h
772 26-05-2017 16:15:00 27.1 C 11.39 g/m*3 27.1 C 11.3 km/h
773 26-05-2017 16:20:00 27.1 C 11.39 g/m*3 27.1 C 14.5 km/h
774 26-05-2017 16:25:00 27 C 11.07 g/m*3 27 C 9.7 km/h
775 26-05-2017 16:30:00 27.3 C 11.25 g/m*3 27.3 C 8.1 km/h
Sensor: Nr:Datum:Temp:Abs-Feuchte:Windchill:Wind:
Aussen-T/F 776 26-05-2017 16:35:00 27.7 C 11.23 g/m*3 27.7 C 11.3 km/h
777 26-05-2017 16:40:00 27.6 C 10.91 g/m*3 27.6 C 12.9 km/h
778 26-05-2017 16:45:00 27.5 C 11.11 g/m*3 27.5 C 11.3 km/h
779 26-05-2017 16:50:00 27.6 C 10.91 g/m*3 27.6 C 11.3 km/h
780 26-05-2017 16:55:00 27.6 C 10.64 g/m*3 27.6 C 16.1 km/h
781 26-05-2017 17:00:00 27.4 C 10.79 g/m*3 27.4 C 14.5 km/h
782 26-05-2017 17:05:00 27.4 C 10.52 g/m*3 27.4 C 9.7 km/h
783 26-05-2017 17:10:00 27.6 C 10.64 g/m*3 27.6 C 14.5 km/h
784 26-05-2017 17:15:00 27.5 C 10.85 g/m*3 27.5 C 17.7 km/h
785 26-05-2017 17:20:00 27.7 C 10.97 g/m*3 27.7 C 4.8 km/h
786 26-05-2017 17:25:00 27.9 C 10.55 g/m*3 27.9 C 9.7 km/h
787 26-05-2017 17:30:00 28.1 C 10.94 g/m*3 28.1 C 14.5 km/h
788 26-05-2017 17:35:00 27.8 C 10.76 g/m*3 27.8 C 11.3 km/h
789 26-05-2017 17:40:00 27.7 C 10.7 g/m*3 27.7 C 11.3 km/h
790 26-05-2017 17:45:00 27.8 C 10.76 g/m*3 27.8 C 8.1 km/h
791 26-05-2017 17:50:00 27.8 C 10.76 g/m*3 27.8 C 14.5 km/h
792 26-05-2017 17:55:00 27.7 C 10.7 g/m*3 27.7 C 16.1 km/h
793 26-05-2017 18:00:00 27.7 C 11.23 g/m*3 27.7 C 12.9 km/h
794 26-05-2017 18:05:00 27.6 C 10.64 g/m*3 27.6 C 19.3 km/h
795 26-05-2017 18:10:00 27.3 C 10.99 g/m*3 27.3 C 16.1 km/h
796 26-05-2017 18:15:00 27.2 C 10.93 g/m*3 27.2 C 17.7 km/h
797 26-05-2017 18:20:00 27.1 C 10.87 g/m*3 27.1 C 12.9 km/h
798 26-05-2017 18:25:00 27.2 C 11.19 g/m*3 27.2 C 16.1 km/h
799 26-05-2017 18:30:00 27.3 C 11.25 g/m*3 27.3 C 14.5 km/h
800 26-05-2017 18:35:00 27.6 C 11.44 g/m*3 27.6 C 8.1 km/h
Sensor: Nr:Datum:Temp:Abs-Feuchte:Windchill:Wind:
Aussen-T/F 801 26-05-2017 18:40:00 27.7 C 11.23 g/m*3 27.7 C 11.3 km/h
802 26-05-2017 18:45:00 27.8 C 11.83 g/m*3 27.8 C 9.7 km/h
803 26-05-2017 18:50:00 27.8 C 11.3 g/m*3 27.8 C 9.7 km/h
804 26-05-2017 18:55:00 27.8 C 11.57 g/m*3 27.8 C 9.7 km/h
805 26-05-2017 19:00:00 27.8 C 11.3 g/m*3 27.8 C 12.9 km/h
806 26-05-2017 19:05:00 27.6 C 11.17 g/m*3 27.6 C 11.3 km/h
807 26-05-2017 19:10:00 27.4 C 11.31 g/m*3 27.4 C 11.3 km/h
808 26-05-2017 19:15:00 27.1 C 11.13 g/m*3 27.1 C 9.7 km/h
809 26-05-2017 19:20:00 26.9 C 11.77 g/m*3 26.9 C 8.1 km/h
810 26-05-2017 19:25:00 26.8 C 11.45 g/m*3 26.8 C 3.2 km/h
811 26-05-2017 19:30:00 26.8 C 11.45 g/m*3 26.8 C 4.8 km/h
812 26-05-2017 19:35:00 26.7 C 11.39 g/m*3 26.7 C 8.1 km/h
813 26-05-2017 19:40:00 26.6 C 11.33 g/m*3 26.6 C 6.4 km/h
814 26-05-2017 19:45:00 26.3 C 11.39 g/m*3 26.3 C 8.1 km/h
815 26-05-2017 19:50:00 26.1 C 11.26 g/m*3 26.1 C 8.1 km/h
816 26-05-2017 19:55:00 26 C 11.2 g/m*3 26 C 8.1 km/h
817 26-05-2017 20:00:00 26 C 11.69 g/m*3 26 C 6.4 km/h
818 26-05-2017 20:05:00 25.9 C 11.62 g/m*3 25.9 C 6.4 km/h
819 26-05-2017 20:10:00 25.9 C 11.62 g/m*3 25.9 C 8.1 km/h
820 26-05-2017 20:15:00 25.8 C 11.8 g/m*3 25.8 C 9.7 km/h
821 26-05-2017 20:20:00 25.7 C 11.49 g/m*3 25.7 C 8.1 km/h
822 26-05-2017 20:25:00 25.5 C 11.6 g/m*3 25.5 C 8.1 km/h
823 26-05-2017 20:30:00 25.5 C 12.55 g/m*3 25.5 C 3.2 km/h
824 26-05-2017 20:35:00 25.3 C 12.17 g/m*3 25.3 C 6.4 km/h
825 26-05-2017 20:40:00 25.1 C 12.96 g/m*3 25.1 C 1.6 km/h
Sensor: Nr:Datum:Temp:Abs-Feuchte:Windchill:Wind:
Aussen-T/F 826 26-05-2017 20:45:00 24.7 C 12.22 g/m*3 24.7 C 0 km/h
827 26-05-2017 20:50:00 24.3 C 12.83 g/m*3 24.3 C 1.6 km/h
828 26-05-2017 20:55:00 23.8 C 12.69 g/m*3 23.8 C 0 km/h
829 26-05-2017 21:00:00 23.4 C 12.62 g/m*3 23.4 C 0 km/h
830 26-05-2017 21:05:00 22.9 C 12.47 g/m*3 22.9 C 0 km/h
831 26-05-2017 21:10:00 22.4 C 12.31 g/m*3 22.4 C 0 km/h
832 26-05-2017 21:15:00 21.9 C 12.16 g/m*3 21.9 C 1.6 km/h
833 26-05-2017 21:20:00 21.5 C 12.07 g/m*3 21.5 C 1.6 km/h
834 26-05-2017 21:25:00 21.2 C 12.05 g/m*3 21.2 C 1.6 km/h
835 26-05-2017 21:30:00 20.9 C 12.02 g/m*3 20.9 C 1.6 km/h
836 26-05-2017 21:35:00 20.6 C 11.99 g/m*3 20.6 C 1.6 km/h
837 26-05-2017 21:40:00 20.4 C 11.85 g/m*3 20.4 C 1.6 km/h
838 26-05-2017 21:45:00 20.2 C 11.89 g/m*3 20.2 C 1.6 km/h
839 26-05-2017 21:50:00 20.1 C 11.82 g/m*3 20.1 C 1.6 km/h
840 26-05-2017 21:55:00 19.9 C 11.68 g/m*3 19.9 C 1.6 km/h
841 26-05-2017 22:00:00 19.8 C 11.79 g/m*3 19.8 C 1.6 km/h
842 26-05-2017 22:05:00 19.7 C 11.72 g/m*3 19.7 C 1.6 km/h
843 26-05-2017 22:10:00 19.6 C 11.82 g/m*3 19.6 C 1.6 km/h
844 26-05-2017 22:15:00 19.4 C 11.68 g/m*3 19.4 C 1.6 km/h
845 26-05-2017 22:20:00 19.3 C 11.78 g/m*3 19.3 C 1.6 km/h
846 26-05-2017 22:25:00 19.2 C 11.71 g/m*3 19.2 C 1.6 km/h
847 26-05-2017 22:30:00 19.1 C 11.64 g/m*3 19.1 C 1.6 km/h
848 26-05-2017 22:35:00 18.9 C 11.66 g/m*3 18.9 C 0 km/h
849 26-05-2017 22:40:00 18.8 C 11.76 g/m*3 18.8 C 1.6 km/h
850 26-05-2017 22:45:00 18.7 C 11.69 g/m*3 18.7 C 0 km/h
Sensor: Nr:Datum:Temp:Abs-Feuchte:Windchill:Wind:
Aussen-T/F 851 26-05-2017 22:50:00 18.6 C 11.78 g/m*3 18.6 C 0 km/h
852 26-05-2017 22:55:00 18.4 C 11.64 g/m*3 18.4 C 0 km/h
853 26-05-2017 23:00:00 18.2 C 11.66 g/m*3 18.2 C 0 km/h
854 26-05-2017 23:05:00 18 C 11.67 g/m*3 18 C 0 km/h
855 26-05-2017 23:10:00 17.8 C 11.69 g/m*3 17.8 C 0 km/h
856 26-05-2017 23:15:00 17.6 C 11.7 g/m*3 17.6 C 0 km/h
857 26-05-2017 23:20:00 17.4 C 11.56 g/m*3 17.4 C 0 km/h
858 26-05-2017 23:25:00 17.2 C 11.57 g/m*3 17.2 C 0 km/h
859 26-05-2017 23:30:00 17 C 11.58 g/m*3 17 C 0 km/h
860 26-05-2017 23:35:00 16.8 C 11.44 g/m*3 16.8 C 0 km/h
861 26-05-2017 23:40:00 16.7 C 11.51 g/m*3 16.7 C 0 km/h
862 26-05-2017 23:45:00 16.6 C 11.58 g/m*3 16.6 C 0 km/h
863 26-05-2017 23:50:00 16.4 C 11.58 g/m*3 16.4 C 0 km/h
864 26-05-2017 23:55:00 16.3 C 11.52 g/m*3 16.3 C 0 km/h
865 27-05-2017 00:00:00 16.2 C 11.45 g/m*3 16.2 C 0 km/h
866 27-05-2017 00:05:00 16.2 C 11.45 g/m*3 16.2 C 0 km/h
867 27-05-2017 00:10:00 16.1 C 11.51 g/m*3 16.1 C 0 km/h
868 27-05-2017 00:15:00 16.1 C 11.51 g/m*3 16.1 C 0 km/h
869 27-05-2017 00:20:00 15.9 C 11.38 g/m*3 15.9 C 0 km/h
870 27-05-2017 00:25:00 15.8 C 11.31 g/m*3 15.8 C 0 km/h
871 27-05-2017 00:30:00 15.7 C 11.24 g/m*3 15.7 C 0 km/h
872 27-05-2017 00:35:00 15.7 C 11.37 g/m*3 15.7 C 0 km/h
873 27-05-2017 00:40:00 15.7 C 11.37 g/m*3 15.7 C 0 km/h
874 27-05-2017 00:45:00 15.6 C 11.3 g/m*3 15.6 C 0 km/h
875 27-05-2017 00:50:00 15.6 C 11.3 g/m*3 15.6 C 0 km/h
Sensor: Nr:Datum:Temp:Abs-Feuchte:Windchill:Wind:
Aussen-T/F 876 27-05-2017 00:55:00 15.4 C 11.17 g/m*3 15.4 C 0 km/h
877 27-05-2017 01:00:00 15.3 C 11.23 g/m*3 15.3 C 0 km/h
878 27-05-2017 01:05:00 15.2 C 11.16 g/m*3 15.2 C 0 km/h
879 27-05-2017 01:10:00 15.1 C 11.22 g/m*3 15.1 C 0 km/h
880 27-05-2017 01:15:00 14.9 C 11.09 g/m*3 14.9 C 0 km/h
881 27-05-2017 01:20:00 14.8 C 11.02 g/m*3 14.8 C 0 km/h
882 27-05-2017 01:25:00 14.7 C 10.95 g/m*3 14.7 C 0 km/h
883 27-05-2017 01:30:00 14.6 C 10.89 g/m*3 14.6 C 0 km/h
884 27-05-2017 01:35:00 14.6 C 11.14 g/m*3 14.6 C 0 km/h
885 27-05-2017 01:40:00 14.6 C 11.14 g/m*3 14.6 C 0 km/h
886 27-05-2017 01:45:00 14.6 C 11.14 g/m*3 14.6 C 0 km/h
887 27-05-2017 01:50:00 14.5 C 11.07 g/m*3 14.5 C 0 km/h
888 27-05-2017 01:55:00 14.3 C 10.81 g/m*3 14.3 C 0 km/h
889 27-05-2017 02:00:00 14.2 C 10.75 g/m*3 14.2 C 0 km/h
890 27-05-2017 02:05:00 14.2 C 10.87 g/m*3 14.2 C 0 km/h
891 27-05-2017 02:10:00 14.2 C 10.87 g/m*3 14.2 C 0 km/h
892 27-05-2017 02:15:00 14.1 C 10.8 g/m*3 14.1 C 0 km/h
893 27-05-2017 02:20:00 14.1 C 10.8 g/m*3 14.1 C 0 km/h
894 27-05-2017 02:25:00 14.1 C 10.92 g/m*3 14.1 C 0 km/h
895 27-05-2017 02:30:00 14 C 10.74 g/m*3 14 C 0 km/h
896 27-05-2017 02:35:00 13.9 C 10.67 g/m*3 13.9 C 0 km/h
897 27-05-2017 02:40:00 13.8 C 10.72 g/m*3 13.8 C 0 km/h
898 27-05-2017 02:45:00 13.8 C 10.72 g/m*3 13.8 C 0 km/h
899 27-05-2017 02:50:00 13.8 C 10.72 g/m*3 13.8 C 0 km/h
900 27-05-2017 02:55:00 13.7 C 10.66 g/m*3 13.7 C 0 km/h
Sensor: Nr:Datum:Temp:Abs-Feuchte:Windchill:Wind:
Aussen-T/F 901 27-05-2017 03:00:00 13.7 C 10.78 g/m*3 13.7 C 0 km/h
902 27-05-2017 03:05:00 13.6 C 10.59 g/m*3 13.6 C 0 km/h
903 27-05-2017 03:10:00 13.6 C 10.59 g/m*3 13.6 C 0 km/h
904 27-05-2017 03:15:00 13.4 C 10.46 g/m*3 13.4 C 0 km/h
905 27-05-2017 03:20:00 13.3 C 10.4 g/m*3 13.3 C 0 km/h
906 27-05-2017 03:25:00 13.2 C 10.45 g/m*3 13.2 C 0 km/h
907 27-05-2017 03:30:00 13.1 C 10.38 g/m*3 13.1 C 0 km/h
908 27-05-2017 03:35:00 13 C 10.32 g/m*3 13 C 0 km/h
909 27-05-2017 03:40:00 13 C 10.43 g/m*3 13 C 0 km/h
910 27-05-2017 03:45:00 13 C 10.43 g/m*3 13 C 0 km/h
911 27-05-2017 03:50:00 12.9 C 10.26 g/m*3 12.9 C 0 km/h
912 27-05-2017 03:55:00 12.9 C 10.37 g/m*3 12.9 C 0 km/h
913 27-05-2017 04:00:00 12.8 C 10.3 g/m*3 12.8 C 0 km/h
914 27-05-2017 04:05:00 12.8 C 10.3 g/m*3 12.8 C 0 km/h
915 27-05-2017 04:10:00 12.7 C 10.24 g/m*3 12.7 C 0 km/h
916 27-05-2017 04:15:00 12.8 C 10.42 g/m*3 12.8 C 0 km/h
917 27-05-2017 04:20:00 12.8 C 10.3 g/m*3 12.8 C 0 km/h
918 27-05-2017 04:25:00 12.7 C 10.24 g/m*3 12.7 C 0 km/h
919 27-05-2017 04:30:00 12.7 C 10.24 g/m*3 12.7 C 0 km/h
920 27-05-2017 04:35:00 12.7 C 10.35 g/m*3 12.7 C 0 km/h
921 27-05-2017 04:40:00 12.7 C 10.35 g/m*3 12.7 C 0 km/h
922 27-05-2017 04:45:00 12.6 C 10.18 g/m*3 12.6 C 0 km/h
923 27-05-2017 04:50:00 12.5 C 10.11 g/m*3 12.5 C 0 km/h
924 27-05-2017 04:55:00 12.5 C 10.22 g/m*3 12.5 C 0 km/h
925 27-05-2017 05:00:00 12.4 C 10.05 g/m*3 12.4 C 0 km/h
Sensor: Nr:Datum:Temp:Abs-Feuchte:Windchill:Wind:
Aussen-T/F 926 27-05-2017 05:05:00 12.4 C 10.16 g/m*3 12.4 C 0 km/h
927 27-05-2017 05:10:00 12.4 C 10.16 g/m*3 12.4 C 0 km/h
928 27-05-2017 05:15:00 12.4 C 10.16 g/m*3 12.4 C 0 km/h
929 27-05-2017 05:20:00 12.3 C 10.1 g/m*3 12.3 C 0 km/h
930 27-05-2017 05:25:00 12.2 C 10.04 g/m*3 12.2 C 0 km/h
931 27-05-2017 05:30:00 12.1 C 9.97 g/m*3 12.1 C 0 km/h
932 27-05-2017 05:35:00 12.1 C 9.97 g/m*3 12.1 C 0 km/h
933 27-05-2017 05:40:00 11.9 C 9.85 g/m*3 11.9 C 0 km/h
934 27-05-2017 05:45:00 11.9 C 9.85 g/m*3 11.9 C 0 km/h
935 27-05-2017 05:50:00 11.8 C 9.79 g/m*3 11.8 C 0 km/h
936 27-05-2017 05:55:00 11.8 C 9.79 g/m*3 11.8 C 0 km/h
937 27-05-2017 06:00:00 11.8 C 9.79 g/m*3 11.8 C 0 km/h
938 27-05-2017 06:05:00 11.8 C 9.89 g/m*3 11.8 C 0 km/h
939 27-05-2017 06:10:00 11.9 C 9.96 g/m*3 11.9 C 0 km/h
940 27-05-2017 06:15:00 12.1 C 10.08 g/m*3 12.1 C 0 km/h
941 27-05-2017 06:20:00 12 C 10.02 g/m*3 12 C 0 km/h
942 27-05-2017 06:25:00 11.9 C 9.96 g/m*3 11.9 C 0 km/h
943 27-05-2017 06:30:00 11.9 C 9.96 g/m*3 11.9 C 0 km/h
944 27-05-2017 06:35:00 11.9 C 9.96 g/m*3 11.9 C 0 km/h
945 27-05-2017 06:40:00 11.9 C 9.96 g/m*3 11.9 C 0 km/h
946 27-05-2017 06:45:00 12 C 10.02 g/m*3 12 C 0 km/h
947 27-05-2017 06:50:00 12.1 C 10.08 g/m*3 12.1 C 0 km/h
948 27-05-2017 06:55:00 12.2 C 10.14 g/m*3 12.2 C 0 km/h
949 27-05-2017 07:00:00 12.2 C 10.14 g/m*3 12.2 C 0 km/h
950 27-05-2017 07:05:00 12.3 C 10.21 g/m*3 12.3 C 0 km/h
Sensor: Nr:Datum:Temp:Abs-Feuchte:Windchill:Wind:
Aussen-T/F 951 27-05-2017 07:10:00 12.3 C 10.21 g/m*3 12.3 C 0 km/h
952 27-05-2017 07:15:00 12.4 C 10.27 g/m*3 12.4 C 0 km/h
953 27-05-2017 07:20:00 12.4 C 10.38 g/m*3 12.4 C 0 km/h
954 27-05-2017 07:25:00 12.4 C 10.38 g/m*3 12.4 C 0 km/h
955 27-05-2017 07:30:00 12.6 C 10.51 g/m*3 12.6 C 0 km/h
956 27-05-2017 07:35:00 12.6 C 10.51 g/m*3 12.6 C 0 km/h
957 27-05-2017 07:40:00 12.7 C 10.58 g/m*3 12.7 C 0 km/h
958 27-05-2017 07:45:00 12.8 C 10.64 g/m*3 12.8 C 0 km/h
959 27-05-2017 07:50:00 12.9 C 10.71 g/m*3 12.9 C 0 km/h
960 27-05-2017 07:55:00 13.1 C 10.84 g/m*3 13.1 C 0 km/h
961 27-05-2017 08:00:00 13.2 C 10.91 g/m*3 13.2 C 0 km/h
962 27-05-2017 08:05:00 13.3 C 10.98 g/m*3 13.3 C 0 km/h
963 27-05-2017 08:10:00 13.3 C 10.98 g/m*3 13.3 C 0 km/h
964 27-05-2017 08:15:00 13.4 C 11.04 g/m*3 13.4 C 0 km/h
965 27-05-2017 08:20:00 13.6 C 11.18 g/m*3 13.6 C 0 km/h
966 27-05-2017 08:25:00 13.7 C 11.25 g/m*3 13.7 C 0 km/h
967 27-05-2017 08:30:00 13.8 C 11.32 g/m*3 13.8 C 0 km/h
968 27-05-2017 08:35:00 14 C 11.46 g/m*3 14 C 0 km/h
969 27-05-2017 08:40:00 14.2 C 11.6 g/m*3 14.2 C 0 km/h
970 27-05-2017 08:45:00 14.3 C 11.67 g/m*3 14.3 C 0 km/h
971 27-05-2017 08:50:00 14.4 C 11.74 g/m*3 14.4 C 0 km/h
972 27-05-2017 08:55:00 14.5 C 11.82 g/m*3 14.5 C 0 km/h
973 27-05-2017 09:00:00 14.7 C 11.96 g/m*3 14.7 C 0 km/h
974 27-05-2017 09:05:00 14.8 C 12.03 g/m*3 14.8 C 0 km/h
975 27-05-2017 09:10:00 15 C 12.18 g/m*3 15 C 0 km/h
Sensor: Nr:Datum:Temp:Abs-Feuchte:Windchill:Wind:
Aussen-T/F 976 27-05-2017 09:15:00 15.2 C 12.33 g/m*3 15.2 C 0 km/h
977 27-05-2017 09:20:00 15.6 C 12.5 g/m*3 15.6 C 1.6 km/h
978 27-05-2017 09:25:00 15.8 C 12.65 g/m*3 15.8 C 0 km/h
979 27-05-2017 09:30:00 16 C 12.67 g/m*3 16 C 1.6 km/h
980 27-05-2017 09:35:00 16.2 C 12.69 g/m*3 16.2 C 0 km/h
981 27-05-2017 09:40:00 16.6 C 13 g/m*3 16.6 C 4.8 km/h
982 27-05-2017 09:45:00 16.8 C 12.87 g/m*3 16.8 C 0 km/h
983 27-05-2017 09:50:00 17.1 C 12.96 g/m*3 17.1 C 3.2 km/h
984 27-05-2017 09:55:00 17.4 C 12.89 g/m*3 17.4 C 4.8 km/h
985 27-05-2017 10:00:00 18 C 12.9 g/m*3 18 C 0 km/h
986 27-05-2017 10:05:00 18.4 C 13.21 g/m*3 18.4 C 3.2 km/h
987 27-05-2017 10:10:00 18.9 C 12.96 g/m*3 18.9 C 6.4 km/h
988 27-05-2017 10:15:00 19.3 C 13.27 g/m*3 19.3 C 1.6 km/h
989 27-05-2017 10:20:00 19.9 C 13.57 g/m*3 19.9 C 3.2 km/h
990 27-05-2017 10:25:00 20.4 C 13.09 g/m*3 20.4 C 6.4 km/h
991 27-05-2017 10:30:00 20.8 C 13.04 g/m*3 20.8 C 3.2 km/h
992 27-05-2017 10:35:00 21.4 C 13.5 g/m*3 21.4 C 4.8 km/h
993 27-05-2017 10:40:00 21.9 C 13.51 g/m*3 21.9 C 6.4 km/h
994 27-05-2017 10:45:00 22.3 C 13.62 g/m*3 22.3 C 6.4 km/h
995 27-05-2017 10:50:00 22.4 C 12.91 g/m*3 22.4 C 6.4 km/h
996 27-05-2017 10:55:00 22.7 C 13.13 g/m*3 22.7 C 4.8 km/h
997 27-05-2017 11:00:00 22.9 C 12.47 g/m*3 22.9 C 9.7 km/h
998 27-05-2017 11:05:00 23.1 C 13.02 g/m*3 23.1 C 9.7 km/h
999 27-05-2017 11:10:00 23.3 C 12.55 g/m*3 23.3 C 8.1 km/h
1000 27-05-2017 11:15:00 23.4 C 13.25 g/m*3 23.4 C 9.7 km/h
Sensor: Nr:Datum:Temp:Abs-Feuchte:Windchill:Wind:
Aussen-T/F 1001 27-05-2017 11:20:00 23.6 C 12.55 g/m*3 23.6 C 6.4 km/h
1002 27-05-2017 11:25:00 23.8 C 12.26 g/m*3 23.8 C 8.1 km/h
1003 27-05-2017 11:30:00 24.2 C 12.76 g/m*3 24.2 C 8.1 km/h
1004 27-05-2017 11:35:00 24.3 C 12.17 g/m*3 24.3 C 4.8 km/h
1005 27-05-2017 11:40:00 24.5 C 11.41 g/m*3 24.5 C 11.3 km/h
1006 27-05-2017 11:45:00 24.7 C 11.77 g/m*3 24.7 C 12.9 km/h
1007 27-05-2017 11:50:00 24.8 C 12.75 g/m*3 24.8 C 9.7 km/h
1008 27-05-2017 11:55:00 24.7 C 12.45 g/m*3 24.7 C 4.8 km/h
1009 27-05-2017 12:00:00 24.7 C 11.77 g/m*3 24.7 C 9.7 km/h
1010 27-05-2017 12:05:00 24.8 C 11.61 g/m*3 24.8 C 4.8 km/h
1011 27-05-2017 12:10:00 24.9 C 11.22 g/m*3 24.9 C 9.7 km/h
1012 27-05-2017 12:15:00 25.1 C 11.57 g/m*3 25.1 C 4.8 km/h
1013 27-05-2017 12:20:00 25.3 C 11.24 g/m*3 25.3 C 8.1 km/h
1014 27-05-2017 12:25:00 25.4 C 11.3 g/m*3 25.4 C 6.4 km/h
1015 27-05-2017 12:30:00 25.6 C 10.95 g/m*3 25.6 C 11.3 km/h
1016 27-05-2017 12:35:00 25.8 C 11.32 g/m*3 25.8 C 4.8 km/h
1017 27-05-2017 12:40:00 25.8 C 11.8 g/m*3 25.8 C 6.4 km/h
1018 27-05-2017 12:45:00 25.7 C 12.21 g/m*3 25.7 C 4.8 km/h
1019 27-05-2017 12:50:00 25.7 C 11.49 g/m*3 25.7 C 6.4 km/h
1020 27-05-2017 12:55:00 25.9 C 11.62 g/m*3 25.9 C 12.9 km/h
1021 27-05-2017 13:00:00 26.1 C 11.51 g/m*3 26.1 C 8.1 km/h
1022 27-05-2017 13:05:00 26.3 C 11.14 g/m*3 26.3 C 9.7 km/h
1023 27-05-2017 13:10:00 26.3 C 11.64 g/m*3 26.3 C 6.4 km/h
1024 27-05-2017 13:15:00 26.2 C 11.57 g/m*3 26.2 C 11.3 km/h
1025 27-05-2017 13:20:00 26.3 C 10.89 g/m*3 26.3 C 8.1 km/h
Sensor: Nr:Datum:Temp:Abs-Feuchte:Windchill:Wind:
Aussen-T/F 1026 27-05-2017 13:25:00 26.4 C 11.2 g/m*3 26.4 C 8.1 km/h
1027 27-05-2017 13:30:00 26.5 C 11.51 g/m*3 26.5 C 8.1 km/h
1028 27-05-2017 13:35:00 26.6 C 11.58 g/m*3 26.6 C 4.8 km/h
1029 27-05-2017 13:40:00 26.6 C 11.58 g/m*3 26.6 C 9.7 km/h
1030 27-05-2017 13:45:00 26.6 C 11.33 g/m*3 26.6 C 8.1 km/h
1031 27-05-2017 13:50:00 26.7 C 11.64 g/m*3 26.7 C 6.4 km/h
1032 27-05-2017 13:55:00 26.8 C 11.45 g/m*3 26.8 C 8.1 km/h
1033 27-05-2017 14:00:00 26.9 C 11.26 g/m*3 26.9 C 8.1 km/h
1034 27-05-2017 14:05:00 27.1 C 12.16 g/m*3 27.1 C 8.1 km/h
1035 27-05-2017 14:10:00 27.2 C 11.45 g/m*3 27.2 C 6.4 km/h
1036 27-05-2017 14:15:00 27.3 C 11.77 g/m*3 27.3 C 9.7 km/h
1037 27-05-2017 14:20:00 27.6 C 11.97 g/m*3 27.6 C 11.3 km/h
1038 27-05-2017 14:25:00 27.8 C 11.3 g/m*3 27.8 C 12.9 km/h
1039 27-05-2017 14:30:00 27.8 C 11.83 g/m*3 27.8 C 8.1 km/h
1040 27-05-2017 14:35:00 27.8 C 11.57 g/m*3 27.8 C 12.9 km/h
1041 27-05-2017 14:40:00 27.8 C 11.57 g/m*3 27.8 C 6.4 km/h
1042 27-05-2017 14:45:00 27.8 C 11.57 g/m*3 27.8 C 8.1 km/h
1043 27-05-2017 14:50:00 28.1 C 12.3 g/m*3 28.1 C 8.1 km/h
1044 27-05-2017 14:55:00 28.3 C 11.61 g/m*3 28.3 C 8.1 km/h
1045 27-05-2017 15:00:00 28.3 C 11.06 g/m*3 28.3 C 8.1 km/h
1046 27-05-2017 15:05:00 28.6 C 11.52 g/m*3 28.6 C 8.1 km/h
1047 27-05-2017 15:10:00 28.7 C 12.43 g/m*3 28.7 C 6.4 km/h
1048 27-05-2017 15:15:00 29.1 C 11.26 g/m*3 29.1 C 8.1 km/h
1049 27-05-2017 15:20:00 29.3 C 12.26 g/m*3 29.3 C 9.7 km/h
1050 27-05-2017 15:25:00 29.9 C 12.37 g/m*3 29.9 C 8.1 km/h
Sensor: Nr:Datum:Temp:Abs-Feuchte:Windchill:Wind:
Aussen-T/F 1051 27-05-2017 15:30:00 29.9 C 12.06 g/m*3 29.9 C 9.7 km/h
1052 27-05-2017 15:35:00 30.3 C 11.71 g/m*3 30.3 C 9.7 km/h
1053 27-05-2017 15:40:00 30.7 C 11.34 g/m*3 30.7 C 8.1 km/h
1054 27-05-2017 15:45:00 30.8 C 11.08 g/m*3 30.8 C 14.5 km/h
1055 27-05-2017 15:50:00 31.1 C 11.58 g/m*3 31.1 C 4.8 km/h
1056 27-05-2017 15:55:00 31.3 C 11.71 g/m*3 31.3 C 6.4 km/h
1057 27-05-2017 16:00:00 31.4 C 12.75 g/m*3 31.4 C 9.7 km/h
1058 27-05-2017 16:05:00 31.5 C 11.83 g/m*3 31.5 C 8.1 km/h
1059 27-05-2017 16:10:00 31.6 C 12.23 g/m*3 31.6 C 3.2 km/h
1060 27-05-2017 16:15:00 31.8 C 10.69 g/m*3 31.8 C 6.4 km/h
1061 27-05-2017 16:20:00 31.6 C 11.24 g/m*3 31.6 C 8.1 km/h
1062 27-05-2017 16:25:00 31.7 C 11.63 g/m*3 31.7 C 8.1 km/h
1063 27-05-2017 16:30:00 31.7 C 10.96 g/m*3 31.7 C 9.7 km/h
1064 27-05-2017 16:35:00 31.5 C 11.5 g/m*3 31.5 C 6.4 km/h
1065 27-05-2017 16:40:00 31.7 C 12.29 g/m*3 31.7 C 4.8 km/h
1066 27-05-2017 16:45:00 32.1 C 10.52 g/m*3 32.1 C 8.1 km/h
1067 27-05-2017 16:50:00 32.2 C 11.26 g/m*3 32.2 C 8.1 km/h
1068 27-05-2017 16:55:00 31.9 C 10.75 g/m*3 31.9 C 9.7 km/h
1069 27-05-2017 17:00:00 32.1 C 10.86 g/m*3 32.1 C 9.7 km/h
1070 27-05-2017 17:05:00 32.4 C 11.38 g/m*3 32.4 C 6.4 km/h
1071 27-05-2017 17:10:00 32.4 C 10 g/m*3 32.4 C 9.7 km/h
1072 27-05-2017 17:15:00 32.3 C 10.98 g/m*3 32.3 C 3.2 km/h
1073 27-05-2017 17:20:00 32.5 C 10.4 g/m*3 32.5 C 6.4 km/h
1074 27-05-2017 17:25:00 32.6 C 10.46 g/m*3 32.6 C 8.1 km/h
1075 27-05-2017 17:30:00 32.6 C 11.15 g/m*3 32.6 C 9.7 km/h
Sensor: Nr:Datum:Temp:Abs-Feuchte:Windchill:Wind:
Aussen-T/F 1076 27-05-2017 17:35:00 32.4 C 11.04 g/m*3 32.4 C 9.7 km/h
1077 27-05-2017 17:40:00 32.4 C 10.69 g/m*3 32.4 C 11.3 km/h
1078 27-05-2017 17:45:00 32.3 C 12.35 g/m*3 32.3 C 12.9 km/h
1079 27-05-2017 17:50:00 31.8 C 11.02 g/m*3 31.8 C 6.4 km/h
1080 27-05-2017 17:55:00 32 C 10.47 g/m*3 32 C 4.8 km/h
1081 27-05-2017 18:00:00 32.3 C 10.63 g/m*3 32.3 C 6.4 km/h
1082 27-05-2017 18:05:00 32.4 C 10.69 g/m*3 32.4 C 8.1 km/h
1083 27-05-2017 18:10:00 32.4 C 10.35 g/m*3 32.4 C 11.3 km/h
1084 27-05-2017 18:15:00 32.3 C 10.63 g/m*3 32.3 C 8.1 km/h
1085 27-05-2017 18:20:00 32.1 C 10.52 g/m*3 32.1 C 8.1 km/h
1086 27-05-2017 18:25:00 32.2 C 10.58 g/m*3 32.2 C 4.8 km/h
1087 27-05-2017 18:30:00 32.4 C 10.69 g/m*3 32.4 C 4.8 km/h
1088 27-05-2017 18:35:00 32.6 C 10.8 g/m*3 32.6 C 8.1 km/h
1089 27-05-2017 18:40:00 32.3 C 10.63 g/m*3 32.3 C 8.1 km/h
1090 27-05-2017 18:45:00 32.1 C 10.52 g/m*3 32.1 C 8.1 km/h
1091 27-05-2017 18:50:00 31.9 C 10.41 g/m*3 31.9 C 4.8 km/h
1092 27-05-2017 18:55:00 31.7 C 10.3 g/m*3 31.7 C 8.1 km/h
1093 27-05-2017 19:00:00 31.7 C 10.63 g/m*3 31.7 C 4.8 km/h
1094 27-05-2017 19:05:00 31.7 C 10.63 g/m*3 31.7 C 3.2 km/h
1095 27-05-2017 19:10:00 31.6 C 10.57 g/m*3 31.6 C 6.4 km/h
1096 27-05-2017 19:15:00 31.3 C 11.71 g/m*3 31.3 C 6.4 km/h
1097 27-05-2017 19:20:00 31.1 C 10.94 g/m*3 31.1 C 8.1 km/h
1098 27-05-2017 19:25:00 30.8 C 11.71 g/m*3 30.8 C 4.8 km/h
1099 27-05-2017 19:30:00 30.6 C 13.47 g/m*3 30.6 C 3.2 km/h
1100 27-05-2017 19:35:00 30.2 C 11.04 g/m*3 30.2 C 9.7 km/h
Sensor: Nr:Datum:Temp:Abs-Feuchte:Windchill:Wind:
Aussen-T/F 1101 27-05-2017 19:40:00 29.9 C 13.27 g/m*3 29.9 C 3.2 km/h
1102 27-05-2017 19:45:00 29.6 C 13.35 g/m*3 29.6 C 1.6 km/h
1103 27-05-2017 19:50:00 29.2 C 13.36 g/m*3 29.2 C 1.6 km/h
1104 27-05-2017 19:55:00 28.8 C 12.5 g/m*3 28.8 C 1.6 km/h
1105 27-05-2017 20:00:00 28.4 C 13.06 g/m*3 28.4 C 3.2 km/h
1106 27-05-2017 20:05:00 28.1 C 13.4 g/m*3 28.1 C 1.6 km/h
1107 27-05-2017 20:10:00 27.7 C 11.77 g/m*3 27.7 C 1.6 km/h
1108 27-05-2017 20:15:00 27.6 C 13.04 g/m*3 27.6 C 1.6 km/h
1109 27-05-2017 20:20:00 27.3 C 12.82 g/m*3 27.3 C 0 km/h
1110 27-05-2017 20:25:00 26.9 C 12.54 g/m*3 26.9 C 1.6 km/h
1111 27-05-2017 20:30:00 26.7 C 12.66 g/m*3 26.7 C 1.6 km/h
1112 27-05-2017 20:35:00 26.3 C 12.63 g/m*3 26.3 C 1.6 km/h
1113 27-05-2017 20:40:00 25.9 C 12.59 g/m*3 25.9 C 0 km/h
1114 27-05-2017 20:45:00 25.5 C 12.31 g/m*3 25.5 C 0 km/h
1115 27-05-2017 20:50:00 25.1 C 12.04 g/m*3 25.1 C 1.6 km/h
1116 27-05-2017 20:55:00 24.7 C 11.77 g/m*3 24.7 C 0 km/h
1117 27-05-2017 21:00:00 24.4 C 11.79 g/m*3 24.4 C 1.6 km/h
1118 27-05-2017 21:05:00 24.1 C 11.82 g/m*3 24.1 C 1.6 km/h
1119 27-05-2017 21:10:00 23.7 C 11.76 g/m*3 23.7 C 1.6 km/h
1120 27-05-2017 21:15:00 23.4 C 11.57 g/m*3 23.4 C 1.6 km/h
1121 27-05-2017 21:20:00 23.1 C 11.58 g/m*3 23.1 C 1.6 km/h
1122 27-05-2017 21:25:00 22.9 C 11.44 g/m*3 22.9 C 1.6 km/h
1123 27-05-2017 21:30:00 22.7 C 11.52 g/m*3 22.7 C 1.6 km/h
1124 27-05-2017 21:35:00 22.5 C 11.39 g/m*3 22.5 C 1.6 km/h
1125 27-05-2017 21:40:00 22.3 C 11.26 g/m*3 22.3 C 1.6 km/h
Sensor: Nr:Datum:Temp:Abs-Feuchte:Windchill:Wind:
Aussen-T/F 1126 27-05-2017 21:45:00 22.2 C 11.39 g/m*3 22.2 C 1.6 km/h
1127 27-05-2017 21:50:00 22.1 C 11.32 g/m*3 22.1 C 1.6 km/h
1128 27-05-2017 21:55:00 22 C 11.45 g/m*3 22 C 1.6 km/h
1129 27-05-2017 22:00:00 21.9 C 11.39 g/m*3 21.9 C 1.6 km/h
1130 27-05-2017 22:05:00 21.7 C 11.64 g/m*3 21.7 C 1.6 km/h
1131 27-05-2017 22:10:00 21.6 C 11.38 g/m*3 21.6 C 1.6 km/h
1132 27-05-2017 22:15:00 21.4 C 11.44 g/m*3 21.4 C 1.6 km/h
1133 27-05-2017 22:20:00 21.3 C 11.56 g/m*3 21.3 C 1.6 km/h
1134 27-05-2017 22:25:00 21.2 C 11.3 g/m*3 21.2 C 0 km/h
1135 27-05-2017 22:30:00 21.1 C 11.79 g/m*3 21.1 C 0 km/h
1136 27-05-2017 22:35:00 20.9 C 11.84 g/m*3 20.9 C 0 km/h
1137 27-05-2017 22:40:00 20.7 C 11.7 g/m*3 20.7 C 0 km/h
1138 27-05-2017 22:45:00 20.6 C 11.81 g/m*3 20.6 C 0 km/h
1139 27-05-2017 22:50:00 20.4 C 11.85 g/m*3 20.4 C 0 km/h
1140 27-05-2017 22:55:00 20.3 C 11.96 g/m*3 20.3 C 0 km/h
1141 27-05-2017 23:00:00 20.2 C 12.06 g/m*3 20.2 C 0 km/h
1142 27-05-2017 23:05:00 20.1 C 11.99 g/m*3 20.1 C 1.6 km/h
1143 27-05-2017 23:10:00 20.1 C 12.17 g/m*3 20.1 C 1.6 km/h
1144 27-05-2017 23:15:00 20 C 12.1 g/m*3 20 C 1.6 km/h
1145 27-05-2017 23:20:00 19.9 C 12.2 g/m*3 19.9 C 1.6 km/h
1146 27-05-2017 23:25:00 19.9 C 12.2 g/m*3 19.9 C 1.6 km/h
1147 27-05-2017 23:30:00 19.9 C 12.37 g/m*3 19.9 C 1.6 km/h
1148 27-05-2017 23:35:00 19.8 C 12.3 g/m*3 19.8 C 0 km/h
1149 27-05-2017 23:40:00 19.8 C 12.3 g/m*3 19.8 C 0 km/h
1150 27-05-2017 23:45:00 19.7 C 12.23 g/m*3 19.7 C 0 km/h
Sensor: Nr:Datum:Temp:Abs-Feuchte:Windchill:Wind:
Aussen-T/F 1151 27-05-2017 23:50:00 19.6 C 12.32 g/m*3 19.6 C 0 km/h
1152 27-05-2017 23:55:00 19.5 C 12.42 g/m*3 19.5 C 0 km/h
1153 28-05-2017 00:00:00 19.3 C 12.27 g/m*3 19.3 C 0 km/h
1154 28-05-2017 00:05:00 19.2 C 12.2 g/m*3 19.2 C 0 km/h
1155 28-05-2017 00:10:00 19.1 C 12.29 g/m*3 19.1 C 0 km/h
1156 28-05-2017 00:15:00 18.9 C 12.15 g/m*3 18.9 C 0 km/h
1157 28-05-2017 00:20:00 18.9 C 12.31 g/m*3 18.9 C 0 km/h
1158 28-05-2017 00:25:00 18.8 C 12.4 g/m*3 18.8 C 0 km/h
1159 28-05-2017 00:30:00 18.8 C 12.4 g/m*3 18.8 C 0 km/h
1160 28-05-2017 00:35:00 18.7 C 12.33 g/m*3 18.7 C 0 km/h
1161 28-05-2017 00:40:00 18.6 C 12.1 g/m*3 18.6 C 0 km/h
1162 28-05-2017 00:45:00 18.6 C 12.26 g/m*3 18.6 C 0 km/h
1163 28-05-2017 00:50:00 18.4 C 12.11 g/m*3 18.4 C 0 km/h
1164 28-05-2017 00:55:00 18.4 C 12.27 g/m*3 18.4 C 0 km/h
1165 28-05-2017 01:00:00 18.3 C 12.2 g/m*3 18.3 C 0 km/h
1166 28-05-2017 01:05:00 18.1 C 12.05 g/m*3 18.1 C 0 km/h
1167 28-05-2017 01:10:00 17.9 C 12.06 g/m*3 17.9 C 0 km/h
1168 28-05-2017 01:15:00 17.8 C 11.99 g/m*3 17.8 C 0 km/h
1169 28-05-2017 01:20:00 17.7 C 12.07 g/m*3 17.7 C 0 km/h
1170 28-05-2017 01:25:00 17.6 C 12 g/m*3 17.6 C 0 km/h
1171 28-05-2017 01:30:00 17.4 C 12 g/m*3 17.4 C 0 km/h
1172 28-05-2017 01:35:00 17.3 C 11.93 g/m*3 17.3 C 0 km/h
1173 28-05-2017 01:40:00 17.2 C 11.86 g/m*3 17.2 C 0 km/h
1174 28-05-2017 01:45:00 17.1 C 11.94 g/m*3 17.1 C 0 km/h
1175 28-05-2017 01:50:00 16.9 C 11.79 g/m*3 16.9 C 0 km/h
Sensor: Nr:Datum:Temp:Abs-Feuchte:Windchill:Wind:
Aussen-T/F 1176 28-05-2017 01:55:00 16.8 C 11.87 g/m*3 16.8 C 0 km/h
1177 28-05-2017 02:00:00 16.8 C 11.87 g/m*3 16.8 C 0 km/h
1178 28-05-2017 02:05:00 16.7 C 11.8 g/m*3 16.7 C 0 km/h
1179 28-05-2017 02:10:00 16.6 C 11.72 g/m*3 16.6 C 0 km/h
1180 28-05-2017 02:15:00 16.6 C 11.87 g/m*3 16.6 C 0 km/h
1181 28-05-2017 02:20:00 16.5 C 11.8 g/m*3 16.5 C 0 km/h
1182 28-05-2017 02:25:00 16.4 C 11.72 g/m*3 16.4 C 0 km/h
1183 28-05-2017 02:30:00 16.4 C 11.86 g/m*3 16.4 C 0 km/h
1184 28-05-2017 02:35:00 16.3 C 11.79 g/m*3 16.3 C 0 km/h
1185 28-05-2017 02:40:00 16.3 C 11.79 g/m*3 16.3 C 0 km/h
1186 28-05-2017 02:45:00 16.3 C 11.79 g/m*3 16.3 C 0 km/h
1187 28-05-2017 02:50:00 16.2 C 11.72 g/m*3 16.2 C 0 km/h
1188 28-05-2017 02:55:00 16.2 C 11.86 g/m*3 16.2 C 0 km/h
1189 28-05-2017 03:00:00 16.1 C 11.79 g/m*3 16.1 C 0 km/h
1190 28-05-2017 03:05:00 15.9 C 11.65 g/m*3 15.9 C 0 km/h
1191 28-05-2017 03:10:00 15.9 C 11.65 g/m*3 15.9 C 0 km/h
1192 28-05-2017 03:15:00 15.8 C 11.58 g/m*3 15.8 C 0 km/h
1193 28-05-2017 03:20:00 15.8 C 11.71 g/m*3 15.8 C 0 km/h
1194 28-05-2017 03:25:00 15.8 C 11.58 g/m*3 15.8 C 0 km/h
1195 28-05-2017 03:30:00 15.7 C 11.51 g/m*3 15.7 C 0 km/h
1196 28-05-2017 03:35:00 15.7 C 11.51 g/m*3 15.7 C 0 km/h
1197 28-05-2017 03:40:00 15.6 C 11.44 g/m*3 15.6 C 0 km/h
1198 28-05-2017 03:45:00 15.5 C 11.5 g/m*3 15.5 C 0 km/h
1199 28-05-2017 03:50:00 15.4 C 11.43 g/m*3 15.4 C 0 km/h
1200 28-05-2017 03:55:00 15.4 C 11.43 g/m*3 15.4 C 0 km/h
Sensor: Nr:Datum:Temp:Abs-Feuchte:Windchill:Wind:
Aussen-T/F 1201 28-05-2017 04:00:00 15.4 C 11.56 g/m*3 15.4 C 0 km/h
1202 28-05-2017 04:05:00 15.3 C 11.36 g/m*3 15.3 C 0 km/h
1203 28-05-2017 04:10:00 15.2 C 11.42 g/m*3 15.2 C 0 km/h
1204 28-05-2017 04:15:00 15.2 C 11.42 g/m*3 15.2 C 0 km/h
1205 28-05-2017 04:20:00 15.3 C 11.49 g/m*3 15.3 C 0 km/h
1206 28-05-2017 04:25:00 15.3 C 11.49 g/m*3 15.3 C 0 km/h
1207 28-05-2017 04:30:00 15.3 C 11.36 g/m*3 15.3 C 0 km/h
1208 28-05-2017 04:35:00 15.3 C 11.36 g/m*3 15.3 C 0 km/h
1209 28-05-2017 04:40:00 15.2 C 11.29 g/m*3 15.2 C 0 km/h
1210 28-05-2017 04:45:00 15.2 C 11.42 g/m*3 15.2 C 0 km/h
1211 28-05-2017 04:50:00 15.1 C 11.35 g/m*3 15.1 C 1.6 km/h
1212 28-05-2017 04:55:00 15 C 11.28 g/m*3 15 C 0 km/h
1213 28-05-2017 05:00:00 14.9 C 11.22 g/m*3 14.9 C 0 km/h
1214 28-05-2017 05:05:00 14.9 C 11.34 g/m*3 14.9 C 0 km/h
1215 28-05-2017 05:10:00 14.8 C 11.27 g/m*3 14.8 C 0 km/h
1216 28-05-2017 05:15:00 14.7 C 11.21 g/m*3 14.7 C 0 km/h
1217 28-05-2017 05:20:00 14.7 C 11.21 g/m*3 14.7 C 0 km/h
1218 28-05-2017 05:25:00 14.6 C 11.14 g/m*3 14.6 C 0 km/h
1219 28-05-2017 05:30:00 14.6 C 11.14 g/m*3 14.6 C 0 km/h
1220 28-05-2017 05:35:00 14.6 C 11.26 g/m*3 14.6 C 0 km/h
1221 28-05-2017 05:40:00 14.5 C 11.19 g/m*3 14.5 C 0 km/h
1222 28-05-2017 05:45:00 14.5 C 11.19 g/m*3 14.5 C 0 km/h
1223 28-05-2017 05:50:00 14.6 C 11.26 g/m*3 14.6 C 0 km/h
1224 28-05-2017 05:55:00 14.6 C 11.26 g/m*3 14.6 C 1.6 km/h
1225 28-05-2017 06:00:00 14.6 C 11.26 g/m*3 14.6 C 0 km/h
Sensor: Nr:Datum:Temp:Abs-Feuchte:Windchill:Wind:
Aussen-T/F 1226 28-05-2017 06:05:00 14.6 C 11.26 g/m*3 14.6 C 0 km/h
1227 28-05-2017 06:10:00 14.7 C 11.46 g/m*3 14.7 C 0 km/h
1228 28-05-2017 06:15:00 14.7 C 11.46 g/m*3 14.7 C 0 km/h
1229 28-05-2017 06:20:00 14.8 C 11.53 g/m*3 14.8 C 0 km/h
1230 28-05-2017 06:25:00 14.8 C 11.4 g/m*3 14.8 C 0 km/h
1231 28-05-2017 06:30:00 14.9 C 11.6 g/m*3 14.9 C 1.6 km/h
1232 28-05-2017 06:35:00 14.9 C 11.6 g/m*3 14.9 C 0 km/h
1233 28-05-2017 06:40:00 14.9 C 11.6 g/m*3 14.9 C 0 km/h
1234 28-05-2017 06:45:00 15 C 11.67 g/m*3 15 C 0 km/h
1235 28-05-2017 06:50:00 15.1 C 11.74 g/m*3 15.1 C 0 km/h
1236 28-05-2017 06:55:00 15.1 C 11.74 g/m*3 15.1 C 0 km/h
1237 28-05-2017 07:00:00 15.2 C 11.81 g/m*3 15.2 C 0 km/h
1238 28-05-2017 07:05:00 15.3 C 11.88 g/m*3 15.3 C 0 km/h
1239 28-05-2017 07:10:00 15.4 C 11.96 g/m*3 15.4 C 0 km/h
1240 28-05-2017 07:15:00 15.5 C 12.03 g/m*3 15.5 C 0 km/h
1241 28-05-2017 07:20:00 15.6 C 12.1 g/m*3 15.6 C 0 km/h
1242 28-05-2017 07:25:00 15.7 C 12.31 g/m*3 15.7 C 0 km/h
1243 28-05-2017 07:30:00 15.8 C 12.38 g/m*3 15.8 C 0 km/h
1244 28-05-2017 07:35:00 15.9 C 12.32 g/m*3 15.9 C 0 km/h
1245 28-05-2017 07:40:00 16 C 12.4 g/m*3 16 C 0 km/h
1246 28-05-2017 07:45:00 16.1 C 12.47 g/m*3 16.1 C 0 km/h
1247 28-05-2017 07:50:00 16.2 C 12.55 g/m*3 16.2 C 0 km/h
1248 28-05-2017 07:55:00 16.4 C 12.7 g/m*3 16.4 C 0 km/h
1249 28-05-2017 08:00:00 16.5 C 12.64 g/m*3 16.5 C 0 km/h
1250 28-05-2017 08:05:00 16.7 C 12.93 g/m*3 16.7 C 0 km/h
Sensor: Nr:Datum:Temp:Abs-Feuchte:Windchill:Wind:
Aussen-T/F 1251 28-05-2017 08:10:00 16.8 C 12.87 g/m*3 16.8 C 0 km/h
1252 28-05-2017 08:15:00 16.9 C 12.94 g/m*3 16.9 C 0 km/h
1253 28-05-2017 08:20:00 17.1 C 13.1 g/m*3 17.1 C 0 km/h
1254 28-05-2017 08:25:00 17.2 C 13.18 g/m*3 17.2 C 0 km/h
1255 28-05-2017 08:30:00 17.3 C 13.26 g/m*3 17.3 C 0 km/h
1256 28-05-2017 08:35:00 17.6 C 13.5 g/m*3 17.6 C 0 km/h
1257 28-05-2017 08:40:00 17.8 C 13.51 g/m*3 17.8 C 0 km/h
1258 28-05-2017 08:45:00 17.9 C 13.44 g/m*3 17.9 C 0 km/h
1259 28-05-2017 08:50:00 18.1 C 13.6 g/m*3 18.1 C 0 km/h
1260 28-05-2017 08:55:00 18.2 C 13.68 g/m*3 18.2 C 0 km/h
1261 28-05-2017 09:00:00 18.3 C 13.6 g/m*3 18.3 C 0 km/h
1262 28-05-2017 09:05:00 18.4 C 13.68 g/m*3 18.4 C 0 km/h
1263 28-05-2017 09:10:00 18.5 C 13.77 g/m*3 18.5 C 0 km/h
1264 28-05-2017 09:15:00 18.6 C 13.69 g/m*3 18.6 C 0 km/h
1265 28-05-2017 09:20:00 18.7 C 13.93 g/m*3 18.7 C 0 km/h
1266 28-05-2017 09:25:00 18.8 C 14.01 g/m*3 18.8 C 0 km/h
1267 28-05-2017 09:30:00 18.8 C 14.01 g/m*3 18.8 C 0 km/h
1268 28-05-2017 09:35:00 18.9 C 13.93 g/m*3 18.9 C 0 km/h
1269 28-05-2017 09:40:00 19.1 C 14.1 g/m*3 19.1 C 0 km/h
1270 28-05-2017 09:45:00 19.2 C 14.18 g/m*3 19.2 C 0 km/h
1271 28-05-2017 09:50:00 19.3 C 14.1 g/m*3 19.3 C 0 km/h
1272 28-05-2017 09:55:00 19.4 C 14.18 g/m*3 19.4 C 0 km/h
1273 28-05-2017 10:00:00 19.6 C 14.35 g/m*3 19.6 C 0 km/h
1274 28-05-2017 10:05:00 19.8 C 14.52 g/m*3 19.8 C 0 km/h
1275 28-05-2017 10:10:00 20 C 14.52 g/m*3 20 C 0 km/h
Sensor: Nr:Datum:Temp:Abs-Feuchte:Windchill:Wind:
Aussen-T/F 1276 28-05-2017 10:15:00 20.3 C 14.42 g/m*3 20.3 C 0 km/h
1277 28-05-2017 10:20:00 20.8 C 14.49 g/m*3 20.8 C 1.6 km/h
1278 28-05-2017 10:25:00 21.3 C 14.73 g/m*3 21.3 C 1.6 km/h
1279 28-05-2017 10:30:00 21.8 C 14.77 g/m*3 21.8 C 1.6 km/h
1280 28-05-2017 10:35:00 22.2 C 14.53 g/m*3 22.2 C 3.2 km/h
1281 28-05-2017 10:40:00 22.8 C 15.24 g/m*3 22.8 C 1.6 km/h
1282 28-05-2017 10:45:00 23.2 C 15.38 g/m*3 23.2 C 0 km/h
1283 28-05-2017 10:50:00 23.5 C 14.8 g/m*3 23.5 C 1.6 km/h
1284 28-05-2017 10:55:00 23.7 C 14.97 g/m*3 23.7 C 0 km/h
1285 28-05-2017 11:00:00 23.8 C 15.27 g/m*3 23.8 C 3.2 km/h
1286 28-05-2017 11:05:00 23.8 C 15.49 g/m*3 23.8 C 1.6 km/h
1287 28-05-2017 11:10:00 23.8 C 14.63 g/m*3 23.8 C 1.6 km/h
1288 28-05-2017 11:15:00 23.9 C 15.58 g/m*3 23.9 C 0 km/h
1289 28-05-2017 11:20:00 23.8 C 15.7 g/m*3 23.8 C 0 km/h
1290 28-05-2017 11:25:00 23.8 C 15.49 g/m*3 23.8 C 1.6 km/h
1291 28-05-2017 11:30:00 24 C 14.36 g/m*3 24 C 1.6 km/h
1292 28-05-2017 11:35:00 24.4 C 15.58 g/m*3 24.4 C 3.2 km/h
1293 28-05-2017 11:40:00 24.6 C 14.85 g/m*3 24.6 C 0 km/h
1294 28-05-2017 11:45:00 24.9 C 14.88 g/m*3 24.9 C 1.6 km/h
1295 28-05-2017 11:50:00 25.1 C 15.28 g/m*3 25.1 C 3.2 km/h
1296 28-05-2017 11:55:00 25.3 C 14.28 g/m*3 25.3 C 3.2 km/h
1297 28-05-2017 12:00:00 25.6 C 15 g/m*3 25.6 C 4.8 km/h
1298 28-05-2017 12:05:00 25.8 C 14.69 g/m*3 25.8 C 6.4 km/h
1299 28-05-2017 12:10:00 26.1 C 14.2 g/m*3 26.1 C 3.2 km/h
1300 28-05-2017 12:15:00 26.2 C 15.51 g/m*3 26.2 C 4.8 km/h
Sensor: Nr:Datum:Temp:Abs-Feuchte:Windchill:Wind:
Aussen-T/F 1301 28-05-2017 12:20:00 26.4 C 14.19 g/m*3 26.4 C 4.8 km/h
1302 28-05-2017 12:25:00 26.7 C 14.43 g/m*3 26.7 C 3.2 km/h
1303 28-05-2017 12:30:00 26.9 C 14.33 g/m*3 26.9 C 3.2 km/h
1304 28-05-2017 12:35:00 27.2 C 14.57 g/m*3 27.2 C 1.6 km/h
1305 28-05-2017 12:40:00 27.4 C 15.26 g/m*3 27.4 C 3.2 km/h
1306 28-05-2017 12:45:00 27.6 C 15.43 g/m*3 27.6 C 3.2 km/h
1307 28-05-2017 12:50:00 27.7 C 16.32 g/m*3 27.7 C 3.2 km/h
1308 28-05-2017 12:55:00 27.8 C 14.26 g/m*3 27.8 C 1.6 km/h
1309 28-05-2017 13:00:00 28.1 C 14.49 g/m*3 28.1 C 8.1 km/h
1310 28-05-2017 13:05:00 28.4 C 15.01 g/m*3 28.4 C 8.1 km/h
1311 28-05-2017 13:10:00 28.7 C 14.98 g/m*3 28.7 C 8.1 km/h
1312 28-05-2017 13:15:00 29 C 14.94 g/m*3 29 C 6.4 km/h
1313 28-05-2017 13:20:00 29.2 C 14.52 g/m*3 29.2 C 6.4 km/h
1314 28-05-2017 13:25:00 29.2 C 14.81 g/m*3 29.2 C 9.7 km/h
1315 28-05-2017 13:30:00 29.2 C 15.1 g/m*3 29.2 C 9.7 km/h
1316 28-05-2017 13:35:00 29.2 C 15.1 g/m*3 29.2 C 6.4 km/h
1317 28-05-2017 13:40:00 29.1 C 14.73 g/m*3 29.1 C 8.1 km/h
1318 28-05-2017 13:45:00 29.1 C 15.02 g/m*3 29.1 C 6.4 km/h
1319 28-05-2017 13:50:00 28.9 C 14.85 g/m*3 28.9 C 8.1 km/h
1320 28-05-2017 13:55:00 28.8 C 15.06 g/m*3 28.8 C 8.1 km/h
1321 28-05-2017 14:00:00 29 C 14.94 g/m*3 29 C 9.7 km/h
1322 28-05-2017 14:05:00 29.1 C 14.73 g/m*3 29.1 C 9.7 km/h
1323 28-05-2017 14:10:00 29.2 C 14.81 g/m*3 29.2 C 6.4 km/h
1324 28-05-2017 14:15:00 29.2 C 15.97 g/m*3 29.2 C 1.6 km/h
1325 28-05-2017 14:20:00 29.1 C 14.73 g/m*3 29.1 C 4.8 km/h
Sensor: Nr:Datum:Temp:Abs-Feuchte:Windchill:Wind:
Aussen-T/F 1326 28-05-2017 14:25:00 29.1 C 15.02 g/m*3 29.1 C 4.8 km/h
1327 28-05-2017 14:30:00 29.1 C 15.02 g/m*3 29.1 C 6.4 km/h
1328 28-05-2017 14:35:00 29.2 C 15.39 g/m*3 29.2 C 6.4 km/h
1329 28-05-2017 14:40:00 29.4 C 14.68 g/m*3 29.4 C 6.4 km/h
1330 28-05-2017 14:45:00 29.6 C 14.84 g/m*3 29.6 C 4.8 km/h
1331 28-05-2017 14:50:00 29.7 C 17.01 g/m*3 29.7 C 4.8 km/h
1332 28-05-2017 14:55:00 29.7 C 14.62 g/m*3 29.7 C 4.8 km/h
1333 28-05-2017 15:00:00 29.8 C 15 g/m*3 29.8 C 3.2 km/h
1334 28-05-2017 15:05:00 30.1 C 14.63 g/m*3 30.1 C 4.8 km/h
1335 28-05-2017 15:10:00 30.3 C 14.79 g/m*3 30.3 C 1.6 km/h
1336 28-05-2017 15:15:00 30.6 C 15.03 g/m*3 30.6 C 4.8 km/h
1337 28-05-2017 15:20:00 30.9 C 14.64 g/m*3 30.9 C 6.4 km/h
1338 28-05-2017 15:25:00 31.3 C 15.28 g/m*3 31.3 C 11.3 km/h
1339 28-05-2017 15:30:00 31.8 C 15.36 g/m*3 31.8 C 6.4 km/h
1340 28-05-2017 15:35:00 32.1 C 16.63 g/m*3 32.1 C 9.7 km/h
1341 28-05-2017 15:40:00 32.2 C 15.35 g/m*3 32.2 C 3.2 km/h
1342 28-05-2017 15:45:00 32.4 C 15.17 g/m*3 32.4 C 4.8 km/h
1343 28-05-2017 15:50:00 32.8 C 14.79 g/m*3 32.8 C 12.9 km/h
1344 28-05-2017 15:55:00 32.8 C 16.2 g/m*3 32.8 C 1.6 km/h
1345 28-05-2017 16:00:00 32.4 C 16.9 g/m*3 32.4 C 1.6 km/h
1346 28-05-2017 16:05:00 31.9 C 16.12 g/m*3 31.9 C 4.8 km/h
1347 28-05-2017 16:10:00 31.4 C 18.31 g/m*3 31.4 C 0 km/h
1348 28-05-2017 16:15:00 30.7 C 17.63 g/m*3 30.7 C 0 km/h
1349 28-05-2017 16:20:00 29.9 C 17.49 g/m*3 29.9 C 0 km/h
1350 28-05-2017 16:25:00 29.2 C 17.42 g/m*3 29.2 C 0 km/h
Sensor: Nr:Datum:Temp:Abs-Feuchte:Windchill:Wind:
Aussen-T/F 1351 28-05-2017 16:30:00 28.6 C 17.42 g/m*3 28.6 C 1.6 km/h
1352 28-05-2017 16:35:00 27.9 C 17.58 g/m*3 27.9 C 1.6 km/h
1353 28-05-2017 16:40:00 27.5 C 17.46 g/m*3 27.5 C 1.6 km/h
1354 28-05-2017 16:45:00 27.1 C 17.34 g/m*3 27.1 C 1.6 km/h
1355 28-05-2017 16:50:00 26.8 C 17.05 g/m*3 26.8 C 1.6 km/h
1356 28-05-2017 16:55:00 26.6 C 16.87 g/m*3 26.6 C 1.6 km/h
1357 28-05-2017 17:00:00 26.3 C 16.83 g/m*3 26.3 C 1.6 km/h
1358 28-05-2017 17:05:00 26 C 16.8 g/m*3 26 C 1.6 km/h
1359 28-05-2017 17:10:00 25.8 C 16.61 g/m*3 25.8 C 1.6 km/h
1360 28-05-2017 17:15:00 25.7 C 17 g/m*3 25.7 C 1.6 km/h
1361 28-05-2017 17:20:00 25.5 C 16.81 g/m*3 25.5 C 1.6 km/h
1362 28-05-2017 17:25:00 25.3 C 16.62 g/m*3 25.3 C 0 km/h
1363 28-05-2017 17:30:00 25.2 C 16.53 g/m*3 25.2 C 0 km/h
1364 28-05-2017 17:35:00 25 C 16.34 g/m*3 25 C 0 km/h
1365 28-05-2017 17:40:00 24.8 C 16.62 g/m*3 24.8 C 1.6 km/h
1366 28-05-2017 17:45:00 24.7 C 16.52 g/m*3 24.7 C 3.2 km/h
1367 28-05-2017 17:50:00 24.4 C 16.69 g/m*3 24.4 C 6.4 km/h
1368 28-05-2017 17:55:00 24.5 C 17.23 g/m*3 24.5 C 9.7 km/h
1369 28-05-2017 18:00:00 24.8 C 17.53 g/m*3 24.8 C 9.7 km/h
1370 28-05-2017 18:05:00 24.8 C 17.53 g/m*3 24.8 C 16.1 km/h
1371 28-05-2017 18:10:00 24.9 C 17.63 g/m*3 24.9 C 16.1 km/h
1372 28-05-2017 18:15:00 24.8 C 17.98 g/m*3 24.8 C 0 km/h
1373 28-05-2017 18:20:00 24.6 C 18.01 g/m*3 24.6 C 1.6 km/h
1374 28-05-2017 18:25:00 24.3 C 17.7 g/m*3 24.3 C 3.2 km/h
1375 28-05-2017 18:30:00 24.1 C 17.94 g/m*3 24.1 C 0 km/h
Sensor: Nr:Datum:Temp:Abs-Feuchte:Windchill:Wind:
Aussen-T/F 1376 28-05-2017 18:35:00 24 C 17.84 g/m*3 24 C 0 km/h
1377 28-05-2017 18:40:00 23.9 C 17.74 g/m*3 23.9 C 0 km/h
1378 28-05-2017 18:45:00 23.8 C 17.85 g/m*3 23.8 C 0 km/h
1379 28-05-2017 18:50:00 23.8 C 17.85 g/m*3 23.8 C 0 km/h
1380 28-05-2017 18:55:00 23.8 C 17.85 g/m*3 23.8 C 0 km/h
1381 28-05-2017 19:00:00 23.8 C 18.07 g/m*3 23.8 C 0 km/h
1382 28-05-2017 19:05:00 23.7 C 17.75 g/m*3 23.7 C 0 km/h
1383 28-05-2017 19:10:00 23.7 C 17.75 g/m*3 23.7 C 0 km/h
1384 28-05-2017 19:15:00 23.6 C 17.65 g/m*3 23.6 C 0 km/h
1385 28-05-2017 19:20:00 23.5 C 17.55 g/m*3 23.5 C 0 km/h
1386 28-05-2017 19:25:00 23.4 C 17.45 g/m*3 23.4 C 17.7 km/h
1387 28-05-2017 19:30:00 23.3 C 17.14 g/m*3 23.3 C 17.7 km/h
1388 28-05-2017 19:35:00 23.4 C 17.45 g/m*3 23.4 C 1.6 km/h
1389 28-05-2017 19:40:00 23.3 C 17.14 g/m*3 23.3 C 11.3 km/h
1390 28-05-2017 19:45:00 23.1 C 16.95 g/m*3 23.1 C 4.8 km/h
1391 28-05-2017 19:50:00 22.8 C 16.87 g/m*3 22.8 C 3.2 km/h
1392 28-05-2017 19:55:00 22.4 C 16.28 g/m*3 22.4 C 3.2 km/h
1393 28-05-2017 20:00:00 22.1 C 16.2 g/m*3 22.1 C 4.8 km/h
1394 28-05-2017 20:05:00 21.8 C 16.31 g/m*3 21.8 C 4.8 km/h
1395 28-05-2017 20:10:00 21.7 C 16.6 g/m*3 21.7 C 1.6 km/h
1396 28-05-2017 20:15:00 21.5 C 16.59 g/m*3 21.5 C 0 km/h
1397 28-05-2017 20:20:00 21.3 C 16.59 g/m*3 21.3 C 0 km/h
1398 28-05-2017 20:25:00 21.2 C 16.68 g/m*3 21.2 C 0 km/h
1399 28-05-2017 20:30:00 21.1 C 16.77 g/m*3 21.1 C 0 km/h
1400 28-05-2017 20:35:00 21.2 C 16.86 g/m*3 21.2 C 0 km/h
Sensor: Nr:Datum:Temp:Abs-Feuchte:Windchill:Wind:
Aussen-T/F 1401 28-05-2017 20:40:00 21.1 C 16.95 g/m*3 21.1 C 0 km/h
1402 28-05-2017 20:45:00 21.1 C 16.95 g/m*3 21.1 C 0 km/h
1403 28-05-2017 20:50:00 20.9 C 16.76 g/m*3 20.9 C 0 km/h
1404 28-05-2017 20:55:00 20.9 C 16.76 g/m*3 20.9 C 1.6 km/h
1405 28-05-2017 21:00:00 20.8 C 16.66 g/m*3 20.8 C 1.6 km/h
1406 28-05-2017 21:05:00 20.6 C 16.47 g/m*3 20.6 C 4.8 km/h
1407 28-05-2017 21:10:00 20.5 C 16.37 g/m*3 20.5 C 3.2 km/h
1408 28-05-2017 21:15:00 20.4 C 16.28 g/m*3 20.4 C 0 km/h
1409 28-05-2017 21:20:00 20.4 C 16.45 g/m*3 20.4 C 0 km/h
1410 28-05-2017 21:25:00 20.3 C 16.36 g/m*3 20.3 C 0 km/h
1411 28-05-2017 21:30:00 20.2 C 16.26 g/m*3 20.2 C 0 km/h
1412 28-05-2017 21:35:00 20.2 C 16.26 g/m*3 20.2 C 0 km/h
1413 28-05-2017 21:40:00 20.1 C 16.17 g/m*3 20.1 C 0 km/h
1414 28-05-2017 21:45:00 20.1 C 16.17 g/m*3 20.1 C 0 km/h
1415 28-05-2017 21:50:00 20 C 16.07 g/m*3 20 C 0 km/h
1416 28-05-2017 21:55:00 19.9 C 15.98 g/m*3 19.9 C 0 km/h
1417 28-05-2017 22:00:00 19.8 C 15.89 g/m*3 19.8 C 0 km/h
1418 28-05-2017 22:05:00 19.8 C 15.89 g/m*3 19.8 C 0 km/h
1419 28-05-2017 22:10:00 19.7 C 15.79 g/m*3 19.7 C 0 km/h
1420 28-05-2017 22:15:00 19.7 C 15.79 g/m*3 19.7 C 1.6 km/h
1421 28-05-2017 22:20:00 19.6 C 15.7 g/m*3 19.6 C 0 km/h
1422 28-05-2017 22:25:00 19.4 C 15.52 g/m*3 19.4 C 0 km/h
1423 28-05-2017 22:30:00 19.3 C 15.43 g/m*3 19.3 C 0 km/h
1424 28-05-2017 22:35:00 19.3 C 15.59 g/m*3 19.3 C 0 km/h
1425 28-05-2017 22:40:00 19.2 C 15.5 g/m*3 19.2 C 0 km/h
Sensor: Nr:Datum:Temp:Abs-Feuchte:Windchill:Wind:
Aussen-T/F 1426 28-05-2017 22:45:00 19.1 C 15.41 g/m*3 19.1 C 0 km/h
1427 28-05-2017 22:50:00 19.1 C 15.41 g/m*3 19.1 C 0 km/h
1428 28-05-2017 22:55:00 18.9 C 15.23 g/m*3 18.9 C 0 km/h
1429 28-05-2017 23:00:00 18.9 C 15.23 g/m*3 18.9 C 0 km/h
1430 28-05-2017 23:05:00 18.8 C 15.14 g/m*3 18.8 C 0 km/h
1431 28-05-2017 23:10:00 18.8 C 15.14 g/m*3 18.8 C 0 km/h
1432 28-05-2017 23:15:00 18.8 C 15.14 g/m*3 18.8 C 0 km/h
1433 28-05-2017 23:20:00 18.8 C 15.14 g/m*3 18.8 C 0 km/h
1434 28-05-2017 23:25:00 18.7 C 15.05 g/m*3 18.7 C 0 km/h
1435 28-05-2017 23:30:00 18.7 C 15.05 g/m*3 18.7 C 0 km/h
1436 28-05-2017 23:35:00 18.6 C 14.96 g/m*3 18.6 C 0 km/h
1437 28-05-2017 23:40:00 18.6 C 14.96 g/m*3 18.6 C 0 km/h
1438 28-05-2017 23:45:00 18.5 C 14.87 g/m*3 18.5 C 0 km/h
1439 28-05-2017 23:50:00 18.4 C 14.78 g/m*3 18.4 C 0 km/h
1440 28-05-2017 23:55:00 18.4 C 14.94 g/m*3 18.4 C 0 km/h
1441 29-05-2017 00:00:00 18.4 C 14.78 g/m*3 18.4 C 0 km/h
1442 29-05-2017 00:05:00 18.3 C 14.85 g/m*3 18.3 C 0 km/h
1443 29-05-2017 00:10:00 18.3 C 14.85 g/m*3 18.3 C 0 km/h
1444 29-05-2017 00:15:00 18.2 C 14.77 g/m*3 18.2 C 0 km/h
1445 29-05-2017 00:20:00 18.2 C 14.77 g/m*3 18.2 C 0 km/h
1446 29-05-2017 00:25:00 18.2 C 14.77 g/m*3 18.2 C 0 km/h
1447 29-05-2017 00:30:00 18.1 C 14.68 g/m*3 18.1 C 0 km/h
1448 29-05-2017 00:35:00 18.1 C 14.68 g/m*3 18.1 C 0 km/h
1449 29-05-2017 00:40:00 18 C 14.59 g/m*3 18 C 0 km/h
1450 29-05-2017 00:45:00 17.9 C 14.5 g/m*3 17.9 C 0 km/h
Sensor: Nr:Datum:Temp:Abs-Feuchte:Windchill:Wind:
Aussen-T/F 1451 29-05-2017 00:50:00 17.8 C 14.42 g/m*3 17.8 C 0 km/h
1452 29-05-2017 00:55:00 17.8 C 14.42 g/m*3 17.8 C 0 km/h
1453 29-05-2017 01:00:00 17.8 C 14.42 g/m*3 17.8 C 0 km/h
1454 29-05-2017 01:05:00 17.7 C 14.33 g/m*3 17.7 C 0 km/h
1455 29-05-2017 01:10:00 17.6 C 14.25 g/m*3 17.6 C 0 km/h
1456 29-05-2017 01:15:00 17.6 C 14.25 g/m*3 17.6 C 0 km/h
1457 29-05-2017 01:20:00 17.6 C 14.25 g/m*3 17.6 C 0 km/h
1458 29-05-2017 01:25:00 17.6 C 14.25 g/m*3 17.6 C 0 km/h
1459 29-05-2017 01:30:00 17.5 C 14.16 g/m*3 17.5 C 0 km/h
1460 29-05-2017 01:35:00 17.5 C 14.16 g/m*3 17.5 C 0 km/h
1461 29-05-2017 01:40:00 17.4 C 14.08 g/m*3 17.4 C 0 km/h
1462 29-05-2017 01:45:00 17.3 C 14 g/m*3 17.3 C 0 km/h
1463 29-05-2017 01:50:00 17.3 C 14 g/m*3 17.3 C 0 km/h
1464 29-05-2017 01:55:00 17.3 C 14 g/m*3 17.3 C 0 km/h
1465 29-05-2017 02:00:00 17.3 C 14 g/m*3 17.3 C 0 km/h
1466 29-05-2017 02:05:00 17.2 C 13.91 g/m*3 17.2 C 0 km/h
1467 29-05-2017 02:10:00 17.1 C 13.83 g/m*3 17.1 C 0 km/h
1468 29-05-2017 02:15:00 17.1 C 13.83 g/m*3 17.1 C 0 km/h
1469 29-05-2017 02:20:00 16.9 C 13.66 g/m*3 16.9 C 0 km/h
1470 29-05-2017 02:25:00 16.9 C 13.66 g/m*3 16.9 C 0 km/h
1471 29-05-2017 02:30:00 16.9 C 13.81 g/m*3 16.9 C 0 km/h
1472 29-05-2017 02:35:00 17 C 13.89 g/m*3 17 C 0 km/h
1473 29-05-2017 02:40:00 16.9 C 13.81 g/m*3 16.9 C 0 km/h
1474 29-05-2017 02:45:00 16.8 C 13.73 g/m*3 16.8 C 0 km/h
1475 29-05-2017 02:50:00 16.8 C 13.58 g/m*3 16.8 C 0 km/h
Sensor: Nr:Datum:Temp:Abs-Feuchte:Windchill:Wind:
Aussen-T/F 1476 29-05-2017 02:55:00 16.7 C 13.5 g/m*3 16.7 C 0 km/h
1477 29-05-2017 03:00:00 16.7 C 13.64 g/m*3 16.7 C 0 km/h
1478 29-05-2017 03:05:00 16.7 C 13.64 g/m*3 16.7 C 0 km/h
1479 29-05-2017 03:10:00 16.7 C 13.64 g/m*3 16.7 C 0 km/h
1480 29-05-2017 03:15:00 16.6 C 13.56 g/m*3 16.6 C 0 km/h
1481 29-05-2017 03:20:00 16.4 C 13.4 g/m*3 16.4 C 0 km/h
1482 29-05-2017 03:25:00 16.4 C 13.4 g/m*3 16.4 C 0 km/h
1483 29-05-2017 03:30:00 16.4 C 13.4 g/m*3 16.4 C 0 km/h
1484 29-05-2017 03:35:00 16.4 C 13.4 g/m*3 16.4 C 0 km/h
1485 29-05-2017 03:40:00 16.5 C 13.48 g/m*3 16.5 C 0 km/h
1486 29-05-2017 03:45:00 16.5 C 13.48 g/m*3 16.5 C 0 km/h
1487 29-05-2017 03:50:00 16.5 C 13.48 g/m*3 16.5 C 0 km/h
1488 29-05-2017 03:55:00 16.5 C 13.48 g/m*3 16.5 C 0 km/h
1489 29-05-2017 04:00:00 16.5 C 13.48 g/m*3 16.5 C 0 km/h
1490 29-05-2017 04:05:00 16.6 C 13.56 g/m*3 16.6 C 0 km/h
1491 29-05-2017 04:10:00 16.6 C 13.56 g/m*3 16.6 C 0 km/h
1492 29-05-2017 04:15:00 16.7 C 13.64 g/m*3 16.7 C 0 km/h
1493 29-05-2017 04:20:00 16.7 C 13.64 g/m*3 16.7 C 0 km/h
1494 29-05-2017 04:25:00 16.8 C 13.73 g/m*3 16.8 C 0 km/h
1495 29-05-2017 04:30:00 16.8 C 13.73 g/m*3 16.8 C 0 km/h
1496 29-05-2017 04:35:00 16.9 C 13.81 g/m*3 16.9 C 0 km/h
1497 29-05-2017 04:40:00 17 C 14.04 g/m*3 17 C 0 km/h
1498 29-05-2017 04:45:00 17.1 C 14.12 g/m*3 17.1 C 0 km/h
1499 29-05-2017 04:50:00 17.1 C 13.97 g/m*3 17.1 C 0 km/h
1500 29-05-2017 04:55:00 17 C 13.89 g/m*3 17 C 0 km/h
Sensor: Nr:Datum:Temp:Abs-Feuchte:Windchill:Wind:
Aussen-T/F 1501 29-05-2017 05:00:00 17 C 13.89 g/m*3 17 C 0 km/h
1502 29-05-2017 05:05:00 17 C 13.89 g/m*3 17 C 0 km/h
1503 29-05-2017 05:10:00 16.9 C 13.81 g/m*3 16.9 C 0 km/h
1504 29-05-2017 05:15:00 17 C 14.04 g/m*3 17 C 0 km/h
1505 29-05-2017 05:20:00 17 C 14.04 g/m*3 17 C 0 km/h
1506 29-05-2017 05:25:00 17.1 C 14.12 g/m*3 17.1 C 0 km/h
1507 29-05-2017 05:30:00 17.1 C 14.12 g/m*3 17.1 C 0 km/h
1508 29-05-2017 05:35:00 17.1 C 14.12 g/m*3 17.1 C 0 km/h
1509 29-05-2017 05:40:00 17.1 C 13.97 g/m*3 17.1 C 0 km/h
1510 29-05-2017 05:45:00 17 C 13.89 g/m*3 17 C 0 km/h
1511 29-05-2017 05:50:00 17 C 14.04 g/m*3 17 C 0 km/h
1512 29-05-2017 05:55:00 17.1 C 14.12 g/m*3 17.1 C 0 km/h
1513 29-05-2017 06:00:00 17.1 C 14.12 g/m*3 17.1 C 0 km/h
1514 29-05-2017 06:05:00 17.1 C 14.12 g/m*3 17.1 C 0 km/h
1515 29-05-2017 06:10:00 17.1 C 14.12 g/m*3 17.1 C 0 km/h
1516 29-05-2017 06:15:00 17.1 C 14.12 g/m*3 17.1 C 0 km/h
1517 29-05-2017 06:20:00 17 C 14.04 g/m*3 17 C 0 km/h
1518 29-05-2017 06:25:00 17.1 C 14.12 g/m*3 17.1 C 0 km/h
1519 29-05-2017 06:30:00 17.2 C 14.2 g/m*3 17.2 C 0 km/h
1520 29-05-2017 06:35:00 17.2 C 14.2 g/m*3 17.2 C 0 km/h
1521 29-05-2017 06:40:00 17.3 C 14.29 g/m*3 17.3 C 3.2 km/h
1522 29-05-2017 06:45:00 17.4 C 14.38 g/m*3 17.4 C 3.2 km/h
1523 29-05-2017 06:50:00 17.4 C 14.38 g/m*3 17.4 C 0 km/h
1524 29-05-2017 06:55:00 17.4 C 14.38 g/m*3 17.4 C 0 km/h
1525 29-05-2017 07:00:00 17.4 C 14.38 g/m*3 17.4 C 0 km/h
Sensor: Nr:Datum:Temp:Abs-Feuchte:Windchill:Wind:
Aussen-T/F 1526 29-05-2017 07:05:00 17.4 C 14.38 g/m*3 17.4 C 0 km/h
1527 29-05-2017 07:10:00 17.4 C 14.38 g/m*3 17.4 C 0 km/h
1528 29-05-2017 07:15:00 17.4 C 14.38 g/m*3 17.4 C 0 km/h
1529 29-05-2017 07:20:00 17.4 C 14.38 g/m*3 17.4 C 0 km/h
1530 29-05-2017 07:25:00 17.4 C 14.38 g/m*3 17.4 C 0 km/h
1531 29-05-2017 07:30:00 17.4 C 14.38 g/m*3 17.4 C 0 km/h
1532 29-05-2017 07:35:00 17.3 C 14.29 g/m*3 17.3 C 0 km/h
1533 29-05-2017 07:40:00 17.3 C 14.29 g/m*3 17.3 C 0 km/h
1534 29-05-2017 07:45:00 17.3 C 14.29 g/m*3 17.3 C 0 km/h
1535 29-05-2017 07:50:00 17.4 C 14.38 g/m*3 17.4 C 0 km/h
1536 29-05-2017 07:55:00 17.4 C 14.38 g/m*3 17.4 C 0 km/h
1537 29-05-2017 08:00:00 17.4 C 14.38 g/m*3 17.4 C 0 km/h
1538 29-05-2017 08:05:00 17.4 C 14.38 g/m*3 17.4 C 0 km/h
1539 29-05-2017 08:10:00 17.5 C 14.46 g/m*3 17.5 C 0 km/h
1540 29-05-2017 08:15:00 17.6 C 14.55 g/m*3 17.6 C 3.2 km/h
1541 29-05-2017 08:20:00 17.7 C 14.64 g/m*3 17.7 C 0 km/h
1542 29-05-2017 08:25:00 17.7 C 14.64 g/m*3 17.7 C 0 km/h
1543 29-05-2017 08:30:00 17.7 C 14.64 g/m*3 17.7 C 0 km/h
1544 29-05-2017 08:35:00 17.8 C 14.72 g/m*3 17.8 C 0 km/h
1545 29-05-2017 08:40:00 17.8 C 14.72 g/m*3 17.8 C 0 km/h
1546 29-05-2017 08:45:00 17.9 C 14.81 g/m*3 17.9 C 0 km/h
1547 29-05-2017 08:50:00 18 C 14.9 g/m*3 18 C 0 km/h
1548 29-05-2017 08:55:00 18.1 C 14.99 g/m*3 18.1 C 0 km/h
1549 29-05-2017 09:00:00 18.2 C 15.08 g/m*3 18.2 C 0 km/h
1550 29-05-2017 09:05:00 18.3 C 15.17 g/m*3 18.3 C 0 km/h
Sensor: Nr:Datum:Temp:Abs-Feuchte:Windchill:Wind:
Aussen-T/F 1551 29-05-2017 09:10:00 18.4 C 15.26 g/m*3 18.4 C 0 km/h
1552 29-05-2017 09:15:00 18.5 C 15.35 g/m*3 18.5 C 0 km/h
1553 29-05-2017 09:20:00 18.6 C 15.44 g/m*3 18.6 C 0 km/h
1554 29-05-2017 09:25:00 18.7 C 15.53 g/m*3 18.7 C 0 km/h
1555 29-05-2017 09:30:00 18.9 C 15.71 g/m*3 18.9 C 0 km/h
1556 29-05-2017 09:35:00 19 C 15.81 g/m*3 19 C 0 km/h
1557 29-05-2017 09:40:00 19.2 C 15.99 g/m*3 19.2 C 0 km/h
1558 29-05-2017 09:45:00 19.3 C 16.09 g/m*3 19.3 C 0 km/h
1559 29-05-2017 09:50:00 19.5 C 16.28 g/m*3 19.5 C 0 km/h
1560 29-05-2017 09:55:00 19.7 C 16.47 g/m*3 19.7 C 0 km/h
1561 29-05-2017 10:00:00 19.7 C 16.47 g/m*3 19.7 C 0 km/h
1562 29-05-2017 10:05:00 19.9 C 16.67 g/m*3 19.9 C 0 km/h
1563 29-05-2017 10:10:00 19.9 C 16.67 g/m*3 19.9 C 0 km/h
1564 29-05-2017 10:15:00 20.1 C 16.86 g/m*3 20.1 C 0 km/h
1565 29-05-2017 10:20:00 20.3 C 17.06 g/m*3 20.3 C 0 km/h
1566 29-05-2017 10:25:00 20.6 C 17.36 g/m*3 20.6 C 0 km/h
1567 29-05-2017 10:30:00 20.8 C 17.56 g/m*3 20.8 C 0 km/h
1568 29-05-2017 10:35:00 21.1 C 17.87 g/m*3 21.1 C 0 km/h
1569 29-05-2017 10:40:00 21.2 C 17.98 g/m*3 21.2 C 0 km/h
1570 29-05-2017 10:45:00 21.3 C 18.08 g/m*3 21.3 C 0 km/h
1571 29-05-2017 10:50:00 21.3 C 18.08 g/m*3 21.3 C 0 km/h
1572 29-05-2017 10:55:00 21.6 C 18.21 g/m*3 21.6 C 0 km/h
1573 29-05-2017 11:00:00 21.7 C 18.31 g/m*3 21.7 C 0 km/h
1574 29-05-2017 11:05:00 21.8 C 18.42 g/m*3 21.8 C 0 km/h
1575 29-05-2017 11:10:00 22.1 C 18.74 g/m*3 22.1 C 0 km/h
Sensor: Nr:Datum:Temp:Abs-Feuchte:Windchill:Wind:
Aussen-T/F 1576 29-05-2017 11:15:00 22.3 C 18.96 g/m*3 22.3 C 0 km/h
1577 29-05-2017 11:20:00 22.4 C 19.07 g/m*3 22.4 C 0 km/h
1578 29-05-2017 11:25:00 22.7 C 19.19 g/m*3 22.7 C 0 km/h
1579 29-05-2017 11:30:00 22.8 C 19.3 g/m*3 22.8 C 0 km/h
1580 29-05-2017 11:35:00 23 C 19.11 g/m*3 23 C 4.8 km/h
1581 29-05-2017 11:40:00 23.2 C 19.13 g/m*3 23.2 C 4.8 km/h
1582 29-05-2017 11:45:00 23.4 C 18.71 g/m*3 23.4 C 3.2 km/h
1583 29-05-2017 11:50:00 23.8 C 18.71 g/m*3 23.8 C 4.8 km/h
1584 29-05-2017 11:55:00 24.1 C 19.04 g/m*3 24.1 C 8.1 km/h
1585 29-05-2017 12:00:00 24.6 C 18.46 g/m*3 24.6 C 8.1 km/h
1586 29-05-2017 12:05:00 25.1 C 18.98 g/m*3 25.1 C 8.1 km/h
1587 29-05-2017 12:10:00 25.4 C 18.13 g/m*3 25.4 C 1.6 km/h
1588 29-05-2017 12:15:00 25.6 C 18.09 g/m*3 25.6 C 1.6 km/h
1589 29-05-2017 12:20:00 25.8 C 19.26 g/m*3 25.8 C 3.2 km/h
1590 29-05-2017 12:25:00 25.9 C 17.43 g/m*3 25.9 C 4.8 km/h
1591 29-05-2017 12:30:00 26.2 C 16.99 g/m*3 26.2 C 9.7 km/h
1592 29-05-2017 12:35:00 26.6 C 17.62 g/m*3 26.6 C 9.7 km/h
1593 29-05-2017 12:40:00 26.7 C 17.97 g/m*3 26.7 C 3.2 km/h
1594 29-05-2017 12:45:00 26.9 C 17.4 g/m*3 26.9 C 4.8 km/h
1595 29-05-2017 12:50:00 27.2 C 17.96 g/m*3 27.2 C 4.8 km/h
1596 29-05-2017 12:55:00 27.3 C 17.27 g/m*3 27.3 C 9.7 km/h
1597 29-05-2017 13:00:00 27.6 C 15.96 g/m*3 27.6 C 3.2 km/h
1598 29-05-2017 13:05:00 27.8 C 17.21 g/m*3 27.8 C 8.1 km/h
1599 29-05-2017 13:10:00 27.9 C 15.69 g/m*3 27.9 C 4.8 km/h
1600 29-05-2017 13:15:00 28.1 C 18.32 g/m*3 28.1 C 3.2 km/h
Sensor: Nr:Datum:Temp:Abs-Feuchte:Windchill:Wind:
Aussen-T/F 1601 29-05-2017 13:20:00 27.9 C 15.15 g/m*3 27.9 C 11.3 km/h
1602 29-05-2017 13:25:00 28.1 C 14.22 g/m*3 28.1 C 6.4 km/h
1603 29-05-2017 13:30:00 28.3 C 16.59 g/m*3 28.3 C 3.2 km/h
1604 29-05-2017 13:35:00 28.3 C 14.93 g/m*3 28.3 C 6.4 km/h
1605 29-05-2017 13:40:00 28.3 C 14.1 g/m*3 28.3 C 4.8 km/h
1606 29-05-2017 13:45:00 28.5 C 13.97 g/m*3 28.5 C 8.1 km/h
1607 29-05-2017 13:50:00 28.8 C 13.64 g/m*3 28.8 C 4.8 km/h
1608 29-05-2017 13:55:00 29.1 C 15.31 g/m*3 29.1 C 6.4 km/h
1609 29-05-2017 14:00:00 29.3 C 14.89 g/m*3 29.3 C 8.1 km/h
1610 29-05-2017 14:05:00 29.6 C 15.13 g/m*3 29.6 C 8.1 km/h
1611 29-05-2017 14:10:00 29.7 C 14.62 g/m*3 29.7 C 14.5 km/h
1612 29-05-2017 14:15:00 29.7 C 13.72 g/m*3 29.7 C 3.2 km/h
1613 29-05-2017 14:20:00 29.8 C 15 g/m*3 29.8 C 6.4 km/h
1614 29-05-2017 14:25:00 29.8 C 14.4 g/m*3 29.8 C 8.1 km/h
1615 29-05-2017 14:30:00 30 C 14.25 g/m*3 30 C 11.3 km/h
1616 29-05-2017 14:35:00 30.2 C 14.41 g/m*3 30.2 C 9.7 km/h
1617 29-05-2017 14:40:00 30.2 C 15.02 g/m*3 30.2 C 4.8 km/h
1618 29-05-2017 14:45:00 30.2 C 13.49 g/m*3 30.2 C 6.4 km/h
1619 29-05-2017 14:50:00 30.3 C 13.87 g/m*3 30.3 C 14.5 km/h
1620 29-05-2017 14:55:00 30.7 C 14.17 g/m*3 30.7 C 4.8 km/h
1621 29-05-2017 15:00:00 30.7 C 13.86 g/m*3 30.7 C 3.2 km/h
1622 29-05-2017 15:05:00 30.8 C 14.56 g/m*3 30.8 C 6.4 km/h
1623 29-05-2017 15:10:00 31 C 14.4 g/m*3 31 C 12.9 km/h
1624 29-05-2017 15:15:00 31.3 C 15.61 g/m*3 31.3 C 4.8 km/h
1625 29-05-2017 15:20:00 31.6 C 14.54 g/m*3 31.6 C 12.9 km/h
Sensor: Nr:Datum:Temp:Abs-Feuchte:Windchill:Wind:
Aussen-T/F 1626 29-05-2017 15:25:00 31.9 C 15.78 g/m*3 31.9 C 9.7 km/h
1627 29-05-2017 15:30:00 32.1 C 14.93 g/m*3 32.1 C 3.2 km/h
1628 29-05-2017 15:35:00 32.3 C 17.84 g/m*3 32.3 C 1.6 km/h
1629 29-05-2017 15:40:00 32.8 C 16.2 g/m*3 32.8 C 4.8 km/h
1630 29-05-2017 15:45:00 33.2 C 16.19 g/m*3 33.2 C 9.7 km/h
1631 29-05-2017 15:50:00 33.4 C 12.72 g/m*3 33.4 C 4.8 km/h
1632 29-05-2017 15:55:00 33.6 C 13.23 g/m*3 33.6 C 6.4 km/h
1633 29-05-2017 16:00:00 33.8 C 13.37 g/m*3 33.8 C 11.3 km/h
1634 29-05-2017 16:05:00 34.1 C 14.71 g/m*3 34.1 C 4.8 km/h
1635 29-05-2017 16:10:00 34.1 C 14.33 g/m*3 34.1 C 12.9 km/h
1636 29-05-2017 16:15:00 34.1 C 12.82 g/m*3 34.1 C 11.3 km/h
1637 29-05-2017 16:20:00 34 C 13.51 g/m*3 34 C 3.2 km/h
1638 29-05-2017 16:25:00 34.2 C 17.06 g/m*3 34.2 C 1.6 km/h
1639 29-05-2017 16:30:00 34.4 C 15.71 g/m*3 34.4 C 11.3 km/h
1640 29-05-2017 16:35:00 34.6 C 13.55 g/m*3 34.6 C 4.8 km/h
1641 29-05-2017 16:40:00 34.8 C 12.91 g/m*3 34.8 C 6.4 km/h
1642 29-05-2017 16:45:00 34.9 C 15.73 g/m*3 34.9 C 6.4 km/h
1643 29-05-2017 16:50:00 35 C 14.63 g/m*3 35 C 12.9 km/h
1644 29-05-2017 16:55:00 35 C 13.05 g/m*3 35 C 3.2 km/h
1645 29-05-2017 17:00:00 35.1 C 12.72 g/m*3 35.1 C 11.3 km/h
1646 29-05-2017 17:05:00 35.2 C 11.58 g/m*3 35.2 C 14.5 km/h
1647 29-05-2017 17:10:00 35.2 C 13.18 g/m*3 35.2 C 11.3 km/h
1648 29-05-2017 17:15:00 35.2 C 15.58 g/m*3 35.2 C 6.4 km/h
1649 29-05-2017 17:20:00 35.3 C 14.86 g/m*3 35.3 C 9.7 km/h
1650 29-05-2017 17:25:00 35.5 C 14.61 g/m*3 35.5 C 4.8 km/h
Sensor: Nr:Datum:Temp:Abs-Feuchte:Windchill:Wind:
Aussen-T/F 1651 29-05-2017 17:30:00 35.6 C 13.46 g/m*3 35.6 C 11.3 km/h
1652 29-05-2017 17:35:00 35.5 C 15.82 g/m*3 35.5 C 8.1 km/h
1653 29-05-2017 17:40:00 35.6 C 15.09 g/m*3 35.6 C 6.4 km/h
1654 29-05-2017 17:45:00 35.6 C 13.46 g/m*3 35.6 C 4.8 km/h
1655 29-05-2017 17:50:00 35.6 C 13.05 g/m*3 35.6 C 16.1 km/h
1656 29-05-2017 17:55:00 35.3 C 13.25 g/m*3 35.3 C 16.1 km/h
1657 29-05-2017 18:00:00 35.3 C 15.66 g/m*3 35.3 C 0 km/h
1658 29-05-2017 18:05:00 35.4 C 14.93 g/m*3 35.4 C 3.2 km/h
1659 29-05-2017 18:10:00 35.4 C 16.14 g/m*3 35.4 C 8.1 km/h
1660 29-05-2017 18:15:00 34.9 C 16.52 g/m*3 34.9 C 4.8 km/h
1661 29-05-2017 18:20:00 34.6 C 15.1 g/m*3 34.6 C 3.2 km/h
1662 29-05-2017 18:25:00 34.4 C 14.94 g/m*3 34.4 C 1.6 km/h
1663 29-05-2017 18:30:00 34.4 C 17.24 g/m*3 34.4 C 3.2 km/h
1664 29-05-2017 18:35:00 34.4 C 16.86 g/m*3 34.4 C 0 km/h
1665 29-05-2017 18:40:00 34.3 C 16.77 g/m*3 34.3 C 4.8 km/h
1666 29-05-2017 18:45:00 33.8 C 15.97 g/m*3 33.8 C 9.7 km/h
1667 29-05-2017 18:50:00 33.7 C 16.99 g/m*3 33.7 C 0 km/h
1668 29-05-2017 18:55:00 33.8 C 17.82 g/m*3 33.8 C 0 km/h
1669 29-05-2017 19:00:00 33.8 C 17.08 g/m*3 33.8 C 1.6 km/h
1670 29-05-2017 19:05:00 33.8 C 15.59 g/m*3 33.8 C 6.4 km/h
1671 29-05-2017 19:10:00 33.7 C 16.99 g/m*3 33.7 C 9.7 km/h
1672 29-05-2017 19:15:00 33.4 C 15.63 g/m*3 33.4 C 3.2 km/h
1673 29-05-2017 19:20:00 33.1 C 16.82 g/m*3 33.1 C 1.6 km/h
1674 29-05-2017 19:25:00 32.5 C 15.95 g/m*3 32.5 C 1.6 km/h
1675 29-05-2017 19:30:00 31.9 C 15.78 g/m*3 31.9 C 0 km/h
Sensor: Nr:Datum:Temp:Abs-Feuchte:Windchill:Wind:
Aussen-T/F 1676 29-05-2017 19:35:00 31.3 C 15.61 g/m*3 31.3 C 1.6 km/h
1677 29-05-2017 19:40:00 30.7 C 15.43 g/m*3 30.7 C 1.6 km/h
1678 29-05-2017 19:45:00 29.9 C 15.08 g/m*3 29.9 C 0 km/h
1679 29-05-2017 19:50:00 29.3 C 15.47 g/m*3 29.3 C 1.6 km/h
1680 29-05-2017 19:55:00 28.7 C 15.26 g/m*3 28.7 C 1.6 km/h
1681 29-05-2017 20:00:00 28.2 C 15.4 g/m*3 28.2 C 1.6 km/h
1682 29-05-2017 20:05:00 27.7 C 15.25 g/m*3 27.7 C 1.6 km/h
1683 29-05-2017 20:10:00 27.3 C 15.18 g/m*3 27.3 C 1.6 km/h
1684 29-05-2017 20:15:00 27 C 14.93 g/m*3 27 C 0 km/h
1685 29-05-2017 20:20:00 26.8 C 15.27 g/m*3 26.8 C 0 km/h
1686 29-05-2017 20:25:00 26.5 C 15.02 g/m*3 26.5 C 1.6 km/h
1687 29-05-2017 20:30:00 26.2 C 15.02 g/m*3 26.2 C 1.6 km/h
1688 29-05-2017 20:35:00 26 C 14.85 g/m*3 26 C 0 km/h
1689 29-05-2017 20:40:00 25.8 C 14.93 g/m*3 25.8 C 0 km/h
1690 29-05-2017 20:45:00 25.6 C 15 g/m*3 25.6 C 0 km/h
1691 29-05-2017 20:50:00 25.3 C 14.98 g/m*3 25.3 C 0 km/h
1692 29-05-2017 20:55:00 25.2 C 15.13 g/m*3 25.2 C 0 km/h
1693 29-05-2017 21:00:00 24.9 C 14.88 g/m*3 24.9 C 1.6 km/h
1694 29-05-2017 21:05:00 24.8 C 15.02 g/m*3 24.8 C 1.6 km/h
1695 29-05-2017 21:10:00 24.7 C 15.16 g/m*3 24.7 C 0 km/h
1696 29-05-2017 21:15:00 24.5 C 14.99 g/m*3 24.5 C 0 km/h
1697 29-05-2017 21:20:00 24.3 C 15.05 g/m*3 24.3 C 0 km/h
1698 29-05-2017 21:25:00 24.2 C 14.96 g/m*3 24.2 C 0 km/h
1699 29-05-2017 21:30:00 24.1 C 15.1 g/m*3 24.1 C 0 km/h
1700 29-05-2017 21:35:00 23.9 C 14.93 g/m*3 23.9 C 0 km/h
Sensor: Nr:Datum:Temp:Abs-Feuchte:Windchill:Wind:
Aussen-T/F 1701 29-05-2017 21:40:00 23.8 C 15.06 g/m*3 23.8 C 0 km/h
1702 29-05-2017 21:45:00 23.7 C 14.97 g/m*3 23.7 C 0 km/h
1703 29-05-2017 21:50:00 23.5 C 15.01 g/m*3 23.5 C 1.6 km/h
1704 29-05-2017 21:55:00 23.4 C 14.93 g/m*3 23.4 C 0 km/h
1705 29-05-2017 22:00:00 23.2 C 14.76 g/m*3 23.2 C 0 km/h
1706 29-05-2017 22:05:00 23.1 C 14.88 g/m*3 23.1 C 0 km/h
1707 29-05-2017 22:10:00 23 C 14.8 g/m*3 23 C 0 km/h
1708 29-05-2017 22:15:00 22.9 C 14.92 g/m*3 22.9 C 0 km/h
1709 29-05-2017 22:20:00 22.7 C 14.75 g/m*3 22.7 C 0 km/h
1710 29-05-2017 22:25:00 22.6 C 14.66 g/m*3 22.6 C 0 km/h
1711 29-05-2017 22:30:00 22.6 C 14.87 g/m*3 22.6 C 1.6 km/h
1712 29-05-2017 22:35:00 22.5 C 14.78 g/m*3 22.5 C 0 km/h
1713 29-05-2017 22:40:00 22.4 C 14.7 g/m*3 22.4 C 0 km/h
1714 29-05-2017 22:45:00 22.3 C 14.61 g/m*3 22.3 C 0 km/h
1715 29-05-2017 22:50:00 22.3 C 14.61 g/m*3 22.3 C 1.6 km/h
1716 29-05-2017 22:55:00 22.4 C 14.7 g/m*3 22.4 C 4.8 km/h
1717 29-05-2017 23:00:00 22.4 C 14.5 g/m*3 22.4 C 1.6 km/h
1718 29-05-2017 23:05:00 22.4 C 14.89 g/m*3 22.4 C 0 km/h
1719 29-05-2017 23:10:00 22.3 C 14.61 g/m*3 22.3 C 0 km/h
1720 29-05-2017 23:15:00 22.2 C 14.72 g/m*3 22.2 C 0 km/h
1721 29-05-2017 23:20:00 22 C 14.75 g/m*3 22 C 0 km/h
1722 29-05-2017 23:25:00 21.8 C 14.58 g/m*3 21.8 C 0 km/h
1723 29-05-2017 23:30:00 21.6 C 14.6 g/m*3 21.6 C 0 km/h
1724 29-05-2017 23:35:00 21.4 C 14.44 g/m*3 21.4 C 0 km/h
1725 29-05-2017 23:40:00 21.3 C 14.54 g/m*3 21.3 C 0 km/h
Sensor: Nr:Datum:Temp:Abs-Feuchte:Windchill:Wind:
Aussen-T/F 1726 29-05-2017 23:45:00 21.1 C 14.37 g/m*3 21.1 C 0 km/h
1727 29-05-2017 23:50:00 20.8 C 14.3 g/m*3 20.8 C 0 km/h
1728 29-05-2017 23:55:00 20.7 C 14.4 g/m*3 20.7 C 0 km/h
1729 30-05-2017 00:00:00 20.6 C 14.32 g/m*3 20.6 C 0 km/h
1730 30-05-2017 00:05:00 20.6 C 14.32 g/m*3 20.6 C 0 km/h
1731 30-05-2017 00:10:00 20.5 C 14.23 g/m*3 20.5 C 0 km/h
1732 30-05-2017 00:15:00 20.4 C 14.33 g/m*3 20.4 C 0 km/h
1733 30-05-2017 00:20:00 20.3 C 14.25 g/m*3 20.3 C 0 km/h
1734 30-05-2017 00:25:00 20.3 C 14.07 g/m*3 20.3 C 0 km/h
1735 30-05-2017 00:30:00 20.2 C 14.16 g/m*3 20.2 C 0 km/h
1736 30-05-2017 00:35:00 20.1 C 14.08 g/m*3 20.1 C 0 km/h
1737 30-05-2017 00:40:00 19.9 C 13.92 g/m*3 19.9 C 0 km/h
1738 30-05-2017 00:45:00 19.8 C 14.01 g/m*3 19.8 C 0 km/h
1739 30-05-2017 00:50:00 19.8 C 14.01 g/m*3 19.8 C 0 km/h
1740 30-05-2017 00:55:00 19.8 C 14.01 g/m*3 19.8 C 0 km/h
1741 30-05-2017 01:00:00 19.7 C 13.92 g/m*3 19.7 C 0 km/h
1742 30-05-2017 01:05:00 19.6 C 13.84 g/m*3 19.6 C 0 km/h
1743 30-05-2017 01:10:00 19.4 C 13.85 g/m*3 19.4 C 0 km/h
1744 30-05-2017 01:15:00 19.3 C 13.77 g/m*3 19.3 C 0 km/h
1745 30-05-2017 01:20:00 19.2 C 13.85 g/m*3 19.2 C 0 km/h
1746 30-05-2017 01:25:00 19.2 C 13.69 g/m*3 19.2 C 0 km/h
1747 30-05-2017 01:30:00 19.1 C 13.61 g/m*3 19.1 C 0 km/h
1748 30-05-2017 01:35:00 18.9 C 13.61 g/m*3 18.9 C 0 km/h
1749 30-05-2017 01:40:00 18.8 C 13.53 g/m*3 18.8 C 0 km/h
1750 30-05-2017 01:45:00 18.7 C 13.29 g/m*3 18.7 C 0 km/h
Sensor: Nr:Datum:Temp:Abs-Feuchte:Windchill:Wind:
Aussen-T/F 1751 30-05-2017 01:50:00 18.6 C 13.53 g/m*3 18.6 C 1.6 km/h
1752 30-05-2017 01:55:00 18.7 C 13.61 g/m*3 18.7 C 0 km/h
1753 30-05-2017 02:00:00 18.7 C 13.61 g/m*3 18.7 C 0 km/h
1754 30-05-2017 02:05:00 18.8 C 13.69 g/m*3 18.8 C 0 km/h
1755 30-05-2017 02:10:00 18.8 C 13.85 g/m*3 18.8 C 4.8 km/h
1756 30-05-2017 02:15:00 18.7 C 13.77 g/m*3 18.7 C 0 km/h
1757 30-05-2017 02:20:00 18.7 C 13.77 g/m*3 18.7 C 0 km/h
1758 30-05-2017 02:25:00 18.6 C 13.53 g/m*3 18.6 C 0 km/h
1759 30-05-2017 02:30:00 18.4 C 13.37 g/m*3 18.4 C 0 km/h
1760 30-05-2017 02:35:00 18.4 C 13.53 g/m*3 18.4 C 6.4 km/h
1761 30-05-2017 02:40:00 18.5 C 13.77 g/m*3 18.5 C 6.4 km/h
1762 30-05-2017 02:45:00 18.5 C 13.61 g/m*3 18.5 C 0 km/h
1763 30-05-2017 02:50:00 18.5 C 13.77 g/m*3 18.5 C 0 km/h
1764 30-05-2017 02:55:00 18.4 C 13.68 g/m*3 18.4 C 0 km/h
1765 30-05-2017 03:00:00 18.3 C 13.6 g/m*3 18.3 C 3.2 km/h
1766 30-05-2017 03:05:00 18.3 C 13.6 g/m*3 18.3 C 3.2 km/h
1767 30-05-2017 03:10:00 18.3 C 13.6 g/m*3 18.3 C 0 km/h
1768 30-05-2017 03:15:00 18.3 C 13.6 g/m*3 18.3 C 0 km/h
1769 30-05-2017 03:20:00 18.2 C 13.68 g/m*3 18.2 C 0 km/h
1770 30-05-2017 03:25:00 18.2 C 13.68 g/m*3 18.2 C 0 km/h
1771 30-05-2017 03:30:00 18.2 C 13.68 g/m*3 18.2 C 1.6 km/h
1772 30-05-2017 03:35:00 18.1 C 13.6 g/m*3 18.1 C 0 km/h
1773 30-05-2017 03:40:00 18.1 C 13.6 g/m*3 18.1 C 0 km/h
1774 30-05-2017 03:45:00 18 C 13.52 g/m*3 18 C 1.6 km/h
1775 30-05-2017 03:50:00 18 C 13.52 g/m*3 18 C 1.6 km/h
Sensor: Nr:Datum:Temp:Abs-Feuchte:Windchill:Wind:
Aussen-T/F 1776 30-05-2017 03:55:00 17.9 C 13.59 g/m*3 17.9 C 0 km/h
1777 30-05-2017 04:00:00 17.9 C 13.59 g/m*3 17.9 C 0 km/h
1778 30-05-2017 04:05:00 18 C 13.67 g/m*3 18 C 0 km/h
1779 30-05-2017 04:10:00 18 C 13.67 g/m*3 18 C 0 km/h
1780 30-05-2017 04:15:00 18.1 C 13.75 g/m*3 18.1 C 0 km/h
1781 30-05-2017 04:20:00 18.1 C 13.75 g/m*3 18.1 C 0 km/h
1782 30-05-2017 04:25:00 18.1 C 13.75 g/m*3 18.1 C 0 km/h
1783 30-05-2017 04:30:00 18.1 C 13.75 g/m*3 18.1 C 3.2 km/h
1784 30-05-2017 04:35:00 18.1 C 13.75 g/m*3 18.1 C 1.6 km/h
1785 30-05-2017 04:40:00 18.1 C 13.75 g/m*3 18.1 C 0 km/h
1786 30-05-2017 04:45:00 18.2 C 13.83 g/m*3 18.2 C 0 km/h
1787 30-05-2017 04:50:00 18.2 C 13.83 g/m*3 18.2 C 3.2 km/h
1788 30-05-2017 04:55:00 18.2 C 13.68 g/m*3 18.2 C 1.6 km/h
1789 30-05-2017 05:00:00 18.2 C 13.68 g/m*3 18.2 C 0 km/h
1790 30-05-2017 05:05:00 18.2 C 13.68 g/m*3 18.2 C 0 km/h
1791 30-05-2017 05:10:00 18.2 C 13.68 g/m*3 18.2 C 0 km/h
1792 30-05-2017 05:15:00 18.2 C 13.83 g/m*3 18.2 C 0 km/h
1793 30-05-2017 05:20:00 18.2 C 13.83 g/m*3 18.2 C 0 km/h
1794 30-05-2017 05:25:00 18.2 C 13.83 g/m*3 18.2 C 0 km/h
1795 30-05-2017 05:30:00 18.2 C 13.83 g/m*3 18.2 C 0 km/h
1796 30-05-2017 05:35:00 18.2 C 13.83 g/m*3 18.2 C 0 km/h
1797 30-05-2017 05:40:00 18.2 C 13.99 g/m*3 18.2 C 0 km/h
1798 30-05-2017 05:45:00 18.2 C 13.99 g/m*3 18.2 C 0 km/h
1799 30-05-2017 05:50:00 18.2 C 13.99 g/m*3 18.2 C 0 km/h
1800 30-05-2017 05:55:00 18.2 C 13.99 g/m*3 18.2 C 0 km/h
Sensor: Nr:Datum:Temp:Abs-Feuchte:Windchill:Wind:
Aussen-T/F 1801 30-05-2017 06:00:00 18.2 C 13.99 g/m*3 18.2 C 0 km/h
1802 30-05-2017 06:05:00 18.1 C 13.91 g/m*3 18.1 C 0 km/h
1803 30-05-2017 06:10:00 18.1 C 13.91 g/m*3 18.1 C 0 km/h
1804 30-05-2017 06:15:00 18.1 C 13.91 g/m*3 18.1 C 0 km/h
1805 30-05-2017 06:20:00 18.1 C 13.91 g/m*3 18.1 C 0 km/h
1806 30-05-2017 06:25:00 18 C 13.82 g/m*3 18 C 0 km/h
1807 30-05-2017 06:30:00 17.9 C 13.74 g/m*3 17.9 C 0 km/h
1808 30-05-2017 06:35:00 17.9 C 13.74 g/m*3 17.9 C 0 km/h
1809 30-05-2017 06:40:00 17.8 C 13.81 g/m*3 17.8 C 0 km/h
1810 30-05-2017 06:45:00 17.8 C 13.81 g/m*3 17.8 C 0 km/h
1811 30-05-2017 06:50:00 17.7 C 13.73 g/m*3 17.7 C 0 km/h
1812 30-05-2017 06:55:00 17.7 C 13.73 g/m*3 17.7 C 0 km/h
1813 30-05-2017 07:00:00 17.8 C 13.96 g/m*3 17.8 C 0 km/h
1814 30-05-2017 07:05:00 17.9 C 14.05 g/m*3 17.9 C 0 km/h
1815 30-05-2017 07:10:00 18.1 C 14.21 g/m*3 18.1 C 0 km/h
1816 30-05-2017 07:15:00 18.2 C 14.3 g/m*3 18.2 C 0 km/h
1817 30-05-2017 07:20:00 18.2 C 14.3 g/m*3 18.2 C 0 km/h
1818 30-05-2017 07:25:00 18.3 C 14.38 g/m*3 18.3 C 0 km/h
1819 30-05-2017 07:30:00 18.4 C 14.31 g/m*3 18.4 C 0 km/h
1820 30-05-2017 07:35:00 18.6 C 14.48 g/m*3 18.6 C 0 km/h
1821 30-05-2017 07:40:00 18.7 C 14.57 g/m*3 18.7 C 0 km/h
1822 30-05-2017 07:45:00 18.8 C 14.82 g/m*3 18.8 C 0 km/h
1823 30-05-2017 07:50:00 18.9 C 14.74 g/m*3 18.9 C 0 km/h
1824 30-05-2017 07:55:00 19.1 C 14.92 g/m*3 19.1 C 0 km/h
1825 30-05-2017 08:00:00 19.2 C 14.84 g/m*3 19.2 C 0 km/h
Sensor: Nr:Datum:Temp:Abs-Feuchte:Windchill:Wind:
Aussen-T/F 1826 30-05-2017 08:05:00 19.3 C 14.93 g/m*3 19.3 C 0 km/h
1827 30-05-2017 08:10:00 19.6 C 15.19 g/m*3 19.6 C 0 km/h
1828 30-05-2017 08:15:00 19.7 C 15.11 g/m*3 19.7 C 0 km/h
1829 30-05-2017 08:20:00 19.8 C 15.37 g/m*3 19.8 C 0 km/h
1830 30-05-2017 08:25:00 19.9 C 15.46 g/m*3 19.9 C 0 km/h
1831 30-05-2017 08:30:00 20.1 C 15.47 g/m*3 20.1 C 0 km/h
1832 30-05-2017 08:35:00 20.1 C 15.47 g/m*3 20.1 C 0 km/h
1833 30-05-2017 08:40:00 20.2 C 15.56 g/m*3 20.2 C 0 km/h
1834 30-05-2017 08:45:00 20.2 C 15.56 g/m*3 20.2 C 0 km/h
1835 30-05-2017 08:50:00 20.2 C 15.39 g/m*3 20.2 C 0 km/h
1836 30-05-2017 08:55:00 20.3 C 15.3 g/m*3 20.3 C 0 km/h
1837 30-05-2017 09:00:00 20.4 C 15.57 g/m*3 20.4 C 0 km/h
1838 30-05-2017 09:05:00 20.6 C 15.75 g/m*3 20.6 C 0 km/h
1839 30-05-2017 09:10:00 20.6 C 15.75 g/m*3 20.6 C 0 km/h
1840 30-05-2017 09:15:00 20.7 C 15.48 g/m*3 20.7 C 0 km/h
1841 30-05-2017 09:20:00 20.8 C 15.75 g/m*3 20.8 C 1.6 km/h
1842 30-05-2017 09:25:00 21 C 15.94 g/m*3 21 C 0 km/h
1843 30-05-2017 09:30:00 21.1 C 15.85 g/m*3 21.1 C 0 km/h
1844 30-05-2017 09:35:00 21.2 C 15.94 g/m*3 21.2 C 0 km/h
1845 30-05-2017 09:40:00 21.1 C 15.85 g/m*3 21.1 C 0 km/h
1846 30-05-2017 09:45:00 21.1 C 15.85 g/m*3 21.1 C 0 km/h
1847 30-05-2017 09:50:00 21.1 C 15.66 g/m*3 21.1 C 0 km/h
1848 30-05-2017 09:55:00 21.2 C 15.57 g/m*3 21.2 C 1.6 km/h
1849 30-05-2017 10:00:00 21.4 C 15.75 g/m*3 21.4 C 0 km/h
1850 30-05-2017 10:05:00 21.6 C 15.55 g/m*3 21.6 C 0 km/h
Sensor: Nr:Datum:Temp:Abs-Feuchte:Windchill:Wind:
Aussen-T/F 1851 30-05-2017 10:10:00 21.7 C 15.45 g/m*3 21.7 C 0 km/h
1852 30-05-2017 10:15:00 22 C 15.33 g/m*3 22 C 8.1 km/h
1853 30-05-2017 10:20:00 22.4 C 15.69 g/m*3 22.4 C 4.8 km/h
1854 30-05-2017 10:25:00 22.9 C 15.33 g/m*3 22.9 C 4.8 km/h
1855 30-05-2017 10:30:00 23.4 C 15.14 g/m*3 23.4 C 3.2 km/h
1856 30-05-2017 10:35:00 23.8 C 15.27 g/m*3 23.8 C 1.6 km/h
1857 30-05-2017 10:40:00 24.2 C 15.4 g/m*3 24.2 C 1.6 km/h
1858 30-05-2017 10:45:00 24.4 C 14.91 g/m*3 24.4 C 3.2 km/h
1859 30-05-2017 10:50:00 24.6 C 15.53 g/m*3 24.6 C 4.8 km/h
1860 30-05-2017 10:55:00 24.7 C 15.84 g/m*3 24.7 C 3.2 km/h
1861 30-05-2017 11:00:00 24.7 C 15.84 g/m*3 24.7 C 0 km/h
1862 30-05-2017 11:05:00 24.6 C 15.75 g/m*3 24.6 C 3.2 km/h
1863 30-05-2017 11:10:00 24.6 C 14.85 g/m*3 24.6 C 1.6 km/h
1864 30-05-2017 11:15:00 24.5 C 15.44 g/m*3 24.5 C 1.6 km/h
1865 30-05-2017 11:20:00 24.4 C 15.58 g/m*3 24.4 C 0 km/h
1866 30-05-2017 11:25:00 24.5 C 15.89 g/m*3 24.5 C 0 km/h
1867 30-05-2017 11:30:00 24.4 C 15.36 g/m*3 24.4 C 3.2 km/h
1868 30-05-2017 11:35:00 24.5 C 14.99 g/m*3 24.5 C 3.2 km/h
1869 30-05-2017 11:40:00 24.6 C 14.18 g/m*3 24.6 C 4.8 km/h
1870 30-05-2017 11:45:00 24.8 C 15.71 g/m*3 24.8 C 1.6 km/h
1871 30-05-2017 11:50:00 24.9 C 15.34 g/m*3 24.9 C 3.2 km/h
1872 30-05-2017 11:55:00 25.1 C 14.82 g/m*3 25.1 C 4.8 km/h
1873 30-05-2017 12:00:00 25.2 C 15.36 g/m*3 25.2 C 1.6 km/h
1874 30-05-2017 12:05:00 25.3 C 14.75 g/m*3 25.3 C 8.1 km/h
1875 30-05-2017 12:10:00 25.5 C 14.91 g/m*3 25.5 C 6.4 km/h
Sensor: Nr:Datum:Temp:Abs-Feuchte:Windchill:Wind:
Aussen-T/F 1876 30-05-2017 12:15:00 25.7 C 14.84 g/m*3 25.7 C 3.2 km/h
1877 30-05-2017 12:20:00 25.9 C 15.25 g/m*3 25.9 C 8.1 km/h
1878 30-05-2017 12:25:00 26 C 15.34 g/m*3 26 C 8.1 km/h
1879 30-05-2017 12:30:00 26.1 C 15.18 g/m*3 26.1 C 4.8 km/h
1880 30-05-2017 12:35:00 26.2 C 15.02 g/m*3 26.2 C 3.2 km/h
1881 30-05-2017 12:40:00 26.3 C 14.85 g/m*3 26.3 C 6.4 km/h
1882 30-05-2017 12:45:00 26.4 C 15.43 g/m*3 26.4 C 9.7 km/h
1883 30-05-2017 12:50:00 26.4 C 15.43 g/m*3 26.4 C 9.7 km/h
1884 30-05-2017 12:55:00 26.4 C 15.19 g/m*3 26.4 C 3.2 km/h
1885 30-05-2017 13:00:00 26.5 C 16.77 g/m*3 26.5 C 0 km/h
1886 30-05-2017 13:05:00 26.6 C 14.85 g/m*3 26.6 C 8.1 km/h
1887 30-05-2017 13:10:00 26.8 C 15.53 g/m*3 26.8 C 4.8 km/h
1888 30-05-2017 13:15:00 27.1 C 15.01 g/m*3 27.1 C 11.3 km/h
1889 30-05-2017 13:20:00 27.2 C 15.61 g/m*3 27.2 C 8.1 km/h
1890 30-05-2017 13:25:00 27.3 C 15.18 g/m*3 27.3 C 6.4 km/h
1891 30-05-2017 13:30:00 27.3 C 14.91 g/m*3 27.3 C 4.8 km/h
1892 30-05-2017 13:35:00 27.2 C 15.09 g/m*3 27.2 C 9.7 km/h
1893 30-05-2017 13:40:00 27.2 C 15.35 g/m*3 27.2 C 4.8 km/h
1894 30-05-2017 13:45:00 27.3 C 15.7 g/m*3 27.3 C 6.4 km/h
1895 30-05-2017 13:50:00 27.4 C 15 g/m*3 27.4 C 6.4 km/h
1896 30-05-2017 13:55:00 27.6 C 14.1 g/m*3 27.6 C 8.1 km/h
1897 30-05-2017 14:00:00 27.8 C 13.72 g/m*3 27.8 C 12.9 km/h
1898 30-05-2017 14:05:00 27.9 C 14.6 g/m*3 27.9 C 14.5 km/h
1899 30-05-2017 14:10:00 27.8 C 14.79 g/m*3 27.8 C 8.1 km/h
1900 30-05-2017 14:15:00 27.7 C 14.44 g/m*3 27.7 C 12.9 km/h
Sensor: Nr:Datum:Temp:Abs-Feuchte:Windchill:Wind:
Aussen-T/F 1901 30-05-2017 14:20:00 27.6 C 14.1 g/m*3 27.6 C 9.7 km/h
1902 30-05-2017 14:25:00 27.4 C 15 g/m*3 27.4 C 4.8 km/h
1903 30-05-2017 14:30:00 27.3 C 14.39 g/m*3 27.3 C 6.4 km/h
1904 30-05-2017 14:35:00 27.3 C 14.39 g/m*3 27.3 C 9.7 km/h
1905 30-05-2017 14:40:00 27.3 C 14.39 g/m*3 27.3 C 9.7 km/h
1906 30-05-2017 14:45:00 27.2 C 14.31 g/m*3 27.2 C 9.7 km/h
1907 30-05-2017 14:50:00 27.2 C 14.31 g/m*3 27.2 C 12.9 km/h
1908 30-05-2017 14:55:00 27.1 C 14.49 g/m*3 27.1 C 8.1 km/h
1909 30-05-2017 15:00:00 27.1 C 14.75 g/m*3 27.1 C 19.3 km/h
1910 30-05-2017 15:05:00 27 C 15.18 g/m*3 27 C 19.3 km/h
1911 30-05-2017 15:10:00 26.8 C 15.27 g/m*3 26.8 C 14.5 km/h
1912 30-05-2017 15:15:00 26.6 C 15.1 g/m*3 26.6 C 14.5 km/h
1913 30-05-2017 15:20:00 26.3 C 14.85 g/m*3 26.3 C 8.1 km/h
1914 30-05-2017 15:25:00 26.1 C 14.93 g/m*3 26.1 C 6.4 km/h
1915 30-05-2017 15:30:00 25.9 C 16.46 g/m*3 25.9 C 4.8 km/h
1916 30-05-2017 15:35:00 25.7 C 17 g/m*3 25.7 C 0 km/h
1917 30-05-2017 15:40:00 25.2 C 16.99 g/m*3 25.2 C 1.6 km/h
1918 30-05-2017 15:45:00 24.5 C 15.44 g/m*3 24.5 C 8.1 km/h
1919 30-05-2017 15:50:00 24.1 C 17.07 g/m*3 24.1 C 0 km/h
1920 30-05-2017 15:55:00 23.8 C 17.21 g/m*3 23.8 C 0 km/h
1921 30-05-2017 16:00:00 23.7 C 17.54 g/m*3 23.7 C 0 km/h
1922 30-05-2017 16:05:00 23.6 C 16.38 g/m*3 23.6 C 3.2 km/h
1923 30-05-2017 16:10:00 23.6 C 16.59 g/m*3 23.6 C 4.8 km/h
1924 30-05-2017 16:15:00 23.7 C 16.47 g/m*3 23.7 C 3.2 km/h
1925 30-05-2017 16:20:00 23.9 C 16.23 g/m*3 23.9 C 8.1 km/h
Sensor: Nr:Datum:Temp:Abs-Feuchte:Windchill:Wind:
Aussen-T/F 1926 30-05-2017 16:25:00 24.3 C 15.27 g/m*3 24.3 C 12.9 km/h
1927 30-05-2017 16:30:00 24.8 C 15.25 g/m*3 24.8 C 8.1 km/h
1928 30-05-2017 16:35:00 25.1 C 15.05 g/m*3 25.1 C 14.5 km/h
1929 30-05-2017 16:40:00 25.1 C 14.82 g/m*3 25.1 C 11.3 km/h
1930 30-05-2017 16:45:00 24.9 C 14.65 g/m*3 24.9 C 9.7 km/h
1931 30-05-2017 16:50:00 25 C 14.73 g/m*3 25 C 8.1 km/h
1932 30-05-2017 16:55:00 25 C 14.5 g/m*3 25 C 9.7 km/h
1933 30-05-2017 17:00:00 25 C 14.27 g/m*3 25 C 12.9 km/h
1934 30-05-2017 17:05:00 24.9 C 14.19 g/m*3 24.9 C 12.9 km/h
1935 30-05-2017 17:10:00 24.8 C 14.34 g/m*3 24.8 C 9.7 km/h
1936 30-05-2017 17:15:00 24.7 C 14.26 g/m*3 24.7 C 9.7 km/h
1937 30-05-2017 17:20:00 24.6 C 14.18 g/m*3 24.6 C 11.3 km/h
1938 30-05-2017 17:25:00 24.6 C 14.18 g/m*3 24.6 C 6.4 km/h
1939 30-05-2017 17:30:00 24.7 C 14.03 g/m*3 24.7 C 4.8 km/h
1940 30-05-2017 17:35:00 24.5 C 14.32 g/m*3 24.5 C 3.2 km/h
1941 30-05-2017 17:40:00 24.3 C 14.16 g/m*3 24.3 C 0 km/h
1942 30-05-2017 17:45:00 24.1 C 14 g/m*3 24.1 C 9.7 km/h
1943 30-05-2017 17:50:00 23.7 C 13.69 g/m*3 23.7 C 12.9 km/h
1944 30-05-2017 17:55:00 23.3 C 13.59 g/m*3 23.3 C 16.1 km/h
1945 30-05-2017 18:00:00 23.2 C 13.72 g/m*3 23.2 C 4.8 km/h
1946 30-05-2017 18:05:00 23.2 C 14.34 g/m*3 23.2 C 0 km/h
1947 30-05-2017 18:10:00 23.2 C 14.34 g/m*3 23.2 C 1.6 km/h
1948 30-05-2017 18:15:00 23.2 C 14.76 g/m*3 23.2 C 0 km/h
1949 30-05-2017 18:20:00 23.2 C 14.55 g/m*3 23.2 C 1.6 km/h
1950 30-05-2017 18:25:00 23.6 C 14.89 g/m*3 23.6 C 4.8 km/h
Sensor: Nr:Datum:Temp:Abs-Feuchte:Windchill:Wind:
Aussen-T/F 1951 30-05-2017 18:30:00 24.3 C 15.05 g/m*3 24.3 C 8.1 km/h
1952 30-05-2017 18:35:00 24.9 C 14.65 g/m*3 24.9 C 4.8 km/h
1953 30-05-2017 18:40:00 25.2 C 15.36 g/m*3 25.2 C 1.6 km/h
1954 30-05-2017 18:45:00 25.3 C 15.45 g/m*3 25.3 C 0 km/h
1955 30-05-2017 18:50:00 25.6 C 16.19 g/m*3 25.6 C 1.6 km/h
1956 30-05-2017 18:55:00 25.7 C 16.04 g/m*3 25.7 C 1.6 km/h
1957 30-05-2017 19:00:00 25.9 C 15.25 g/m*3 25.9 C 3.2 km/h
1958 30-05-2017 19:05:00 25.9 C 15.49 g/m*3 25.9 C 3.2 km/h
1959 30-05-2017 19:10:00 25.8 C 16.13 g/m*3 25.8 C 0 km/h
1960 30-05-2017 19:15:00 25.5 C 16.1 g/m*3 25.5 C 0 km/h
1961 30-05-2017 19:20:00 25.4 C 15.07 g/m*3 25.4 C 3.2 km/h
1962 30-05-2017 19:25:00 25.4 C 15.07 g/m*3 25.4 C 3.2 km/h
1963 30-05-2017 19:30:00 25.4 C 15.07 g/m*3 25.4 C 8.1 km/h
1964 30-05-2017 19:35:00 25.3 C 15.22 g/m*3 25.3 C 1.6 km/h
1965 30-05-2017 19:40:00 25.1 C 14.82 g/m*3 25.1 C 3.2 km/h
1966 30-05-2017 19:45:00 24.9 C 15.34 g/m*3 24.9 C 4.8 km/h
1967 30-05-2017 19:50:00 24.5 C 15.44 g/m*3 24.5 C 6.4 km/h
1968 30-05-2017 19:55:00 24.3 C 15.49 g/m*3 24.3 C 3.2 km/h
1969 30-05-2017 20:00:00 24 C 14.79 g/m*3 24 C 4.8 km/h
1970 30-05-2017 20:05:00 23.8 C 14.63 g/m*3 23.8 C 6.4 km/h
1971 30-05-2017 20:10:00 23.7 C 14.76 g/m*3 23.7 C 4.8 km/h
1972 30-05-2017 20:15:00 23.7 C 15.19 g/m*3 23.7 C 0 km/h
1973 30-05-2017 20:20:00 23.6 C 15.31 g/m*3 23.6 C 0 km/h
1974 30-05-2017 20:25:00 23.4 C 15.56 g/m*3 23.4 C 0 km/h
1975 30-05-2017 20:30:00 23.2 C 14.55 g/m*3 23.2 C 4.8 km/h
Sensor: Nr:Datum:Temp:Abs-Feuchte:Windchill:Wind:
Aussen-T/F 1976 30-05-2017 20:35:00 23.1 C 14.26 g/m*3 23.1 C 8.1 km/h
1977 30-05-2017 20:40:00 23.1 C 14.26 g/m*3 23.1 C 4.8 km/h
1978 30-05-2017 20:45:00 23 C 13.98 g/m*3 23 C 8.1 km/h
1979 30-05-2017 20:50:00 22.9 C 13.69 g/m*3 22.9 C 6.4 km/h
1980 30-05-2017 20:55:00 22.9 C 13.49 g/m*3 22.9 C 11.3 km/h
1981 30-05-2017 21:00:00 22.8 C 13.41 g/m*3 22.8 C 6.4 km/h
1982 30-05-2017 21:05:00 22.8 C 13.61 g/m*3 22.8 C 4.8 km/h
1983 30-05-2017 21:10:00 22.7 C 13.54 g/m*3 22.7 C 12.9 km/h
1984 30-05-2017 21:15:00 22.6 C 13.26 g/m*3 22.6 C 8.1 km/h
1985 30-05-2017 21:20:00 22.4 C 13.11 g/m*3 22.4 C 3.2 km/h
1986 30-05-2017 21:25:00 22.3 C 13.03 g/m*3 22.3 C 8.1 km/h
1987 30-05-2017 21:30:00 22.3 C 13.03 g/m*3 22.3 C 9.7 km/h
1988 30-05-2017 21:35:00 22.2 C 12.96 g/m*3 22.2 C 6.4 km/h
1989 30-05-2017 21:40:00 22.1 C 13.08 g/m*3 22.1 C 4.8 km/h
1990 30-05-2017 21:45:00 21.9 C 12.74 g/m*3 21.9 C 8.1 km/h
1991 30-05-2017 21:50:00 21.8 C 12.66 g/m*3 21.8 C 8.1 km/h
1992 30-05-2017 21:55:00 21.6 C 12.52 g/m*3 21.6 C 8.1 km/h
1993 30-05-2017 22:00:00 21.5 C 12.45 g/m*3 21.5 C 9.7 km/h
1994 30-05-2017 22:05:00 21.3 C 12.49 g/m*3 21.3 C 6.4 km/h
1995 30-05-2017 22:10:00 21.2 C 12.42 g/m*3 21.2 C 12.9 km/h
1996 30-05-2017 22:15:00 21 C 12.27 g/m*3 21 C 11.3 km/h
1997 30-05-2017 22:20:00 20.8 C 12.13 g/m*3 20.8 C 11.3 km/h
1998 30-05-2017 22:25:00 20.7 C 12.24 g/m*3 20.7 C 11.3 km/h
1999 30-05-2017 22:30:00 20.6 C 12.17 g/m*3 20.6 C 14.5 km/h
2000 30-05-2017 22:35:00 20.4 C 12.03 g/m*3 20.4 C 11.3 km/h
Sensor: Nr:Datum:Temp:Abs-Feuchte:Windchill:Wind:
Aussen-T/F 2001 30-05-2017 22:40:00 20.3 C 11.96 g/m*3 20.3 C 12.9 km/h
2002 30-05-2017 22:45:00 20.2 C 12.06 g/m*3 20.2 C 8.1 km/h
2003 30-05-2017 22:50:00 20.1 C 11.99 g/m*3 20.1 C 6.4 km/h
2004 30-05-2017 22:55:00 20 C 11.92 g/m*3 20 C 8.1 km/h
2005 30-05-2017 23:00:00 19.9 C 11.85 g/m*3 19.9 C 9.7 km/h
2006 30-05-2017 23:05:00 19.8 C 11.79 g/m*3 19.8 C 8.1 km/h
2007 30-05-2017 23:10:00 19.7 C 11.89 g/m*3 19.7 C 6.4 km/h
2008 30-05-2017 23:15:00 19.6 C 11.82 g/m*3 19.6 C 6.4 km/h
2009 30-05-2017 23:20:00 19.5 C 11.75 g/m*3 19.5 C 4.8 km/h
2010 30-05-2017 23:25:00 19.4 C 11.51 g/m*3 19.4 C 12.9 km/h
2011 30-05-2017 23:30:00 19.3 C 11.61 g/m*3 19.3 C 4.8 km/h
2012 30-05-2017 23:35:00 19.2 C 11.38 g/m*3 19.2 C 4.8 km/h
2013 30-05-2017 23:40:00 19.1 C 11.47 g/m*3 19.1 C 1.6 km/h
2014 30-05-2017 23:45:00 18.9 C 11.34 g/m*3 18.9 C 1.6 km/h
2015 30-05-2017 23:50:00 18.8 C 11.6 g/m*3 18.8 C 4.8 km/h
2016 30-05-2017 23:55:00 18.6 C 11.3 g/m*3 18.6 C 4.8 km/h
2017 31-05-2017 00:00:00 18.4 C 11.17 g/m*3 18.4 C 4.8 km/h
2018 31-05-2017 00:05:00 18.2 C 11.04 g/m*3 18.2 C 6.4 km/h
2019 31-05-2017 00:10:00 18.2 C 11.04 g/m*3 18.2 C 8.1 km/h
2020 31-05-2017 00:15:00 18.2 C 11.04 g/m*3 18.2 C 6.4 km/h
2021 31-05-2017 00:20:00 18.2 C 11.04 g/m*3 18.2 C 11.3 km/h
2022 31-05-2017 00:25:00 18.1 C 10.97 g/m*3 18.1 C 11.3 km/h
2023 31-05-2017 00:30:00 18.1 C 10.97 g/m*3 18.1 C 3.2 km/h
2024 31-05-2017 00:35:00 18 C 10.75 g/m*3 18 C 6.4 km/h
2025 31-05-2017 00:40:00 18 C 10.75 g/m*3 18 C 8.1 km/h
Sensor: Nr:Datum:Temp:Abs-Feuchte:Windchill:Wind:
Aussen-T/F 2026 31-05-2017 00:45:00 18 C 10.75 g/m*3 18 C 3.2 km/h
2027 31-05-2017 00:50:00 18 C 10.75 g/m*3 18 C 3.2 km/h
2028 31-05-2017 00:55:00 17.9 C 10.84 g/m*3 17.9 C 3.2 km/h
2029 31-05-2017 01:00:00 17.8 C 11.08 g/m*3 17.8 C 1.6 km/h
2030 31-05-2017 01:05:00 17.7 C 10.71 g/m*3 17.7 C 3.2 km/h
2031 31-05-2017 01:10:00 17.7 C 11.01 g/m*3 17.7 C 1.6 km/h
2032 31-05-2017 01:15:00 17.6 C 10.65 g/m*3 17.6 C 8.1 km/h
2033 31-05-2017 01:20:00 17.5 C 10.59 g/m*3 17.5 C 4.8 km/h
2034 31-05-2017 01:25:00 17.5 C 10.59 g/m*3 17.5 C 4.8 km/h
2035 31-05-2017 01:30:00 17.5 C 10.59 g/m*3 17.5 C 6.4 km/h
2036 31-05-2017 01:35:00 17.6 C 10.95 g/m*3 17.6 C 1.6 km/h
2037 31-05-2017 01:40:00 17.5 C 10.88 g/m*3 17.5 C 3.2 km/h
2038 31-05-2017 01:45:00 17.4 C 10.67 g/m*3 17.4 C 1.6 km/h
2039 31-05-2017 01:50:00 17.4 C 10.97 g/m*3 17.4 C 0 km/h
2040 31-05-2017 01:55:00 17.3 C 10.75 g/m*3 17.3 C 3.2 km/h
2041 31-05-2017 02:00:00 17.2 C 10.69 g/m*3 17.2 C 0 km/h
2042 31-05-2017 02:05:00 17.1 C 10.77 g/m*3 17.1 C 0 km/h
2043 31-05-2017 02:10:00 17 C 10.85 g/m*3 17 C 0 km/h
2044 31-05-2017 02:15:00 16.8 C 10.87 g/m*3 16.8 C 0 km/h
2045 31-05-2017 02:20:00 16.6 C 10.74 g/m*3 16.6 C 0 km/h
2046 31-05-2017 02:25:00 16.4 C 10.61 g/m*3 16.4 C 0 km/h
2047 31-05-2017 02:30:00 16.2 C 10.62 g/m*3 16.2 C 0 km/h
2048 31-05-2017 02:35:00 15.9 C 10.43 g/m*3 15.9 C 0 km/h
2049 31-05-2017 02:40:00 15.8 C 10.36 g/m*3 15.8 C 0 km/h
2050 31-05-2017 02:45:00 15.6 C 10.37 g/m*3 15.6 C 0 km/h
Sensor: Nr:Datum:Temp:Abs-Feuchte:Windchill:Wind:
Aussen-T/F 2051 31-05-2017 02:50:00 15.4 C 10.25 g/m*3 15.4 C 0 km/h
2052 31-05-2017 02:55:00 15.3 C 10.19 g/m*3 15.3 C 0 km/h
2053 31-05-2017 03:00:00 15.1 C 10.06 g/m*3 15.1 C 0 km/h
2054 31-05-2017 03:05:00 15.1 C 10.06 g/m*3 15.1 C 0 km/h
2055 31-05-2017 03:10:00 14.9 C 9.94 g/m*3 14.9 C 0 km/h
2056 31-05-2017 03:15:00 14.8 C 9.88 g/m*3 14.8 C 0 km/h
2057 31-05-2017 03:20:00 14.7 C 9.95 g/m*3 14.7 C 0 km/h
2058 31-05-2017 03:25:00 14.6 C 9.89 g/m*3 14.6 C 0 km/h
2059 31-05-2017 03:30:00 14.4 C 9.89 g/m*3 14.4 C 0 km/h
2060 31-05-2017 03:35:00 14.3 C 9.83 g/m*3 14.3 C 0 km/h
2061 31-05-2017 03:40:00 14.2 C 9.89 g/m*3 14.2 C 0 km/h
2062 31-05-2017 03:45:00 14 C 9.89 g/m*3 14 C 0 km/h
2063 31-05-2017 03:50:00 13.9 C 9.83 g/m*3 13.9 C 0 km/h
2064 31-05-2017 03:55:00 13.8 C 9.89 g/m*3 13.8 C 0 km/h
2065 31-05-2017 04:00:00 13.7 C 9.83 g/m*3 13.7 C 0 km/h
2066 31-05-2017 04:05:00 13.6 C 9.89 g/m*3 13.6 C 0 km/h
2067 31-05-2017 04:10:00 13.5 C 9.83 g/m*3 13.5 C 0 km/h
2068 31-05-2017 04:15:00 13.3 C 9.7 g/m*3 13.3 C 0 km/h
2069 31-05-2017 04:20:00 13.2 C 9.76 g/m*3 13.2 C 0 km/h
2070 31-05-2017 04:25:00 13.1 C 9.7 g/m*3 13.1 C 0 km/h
2071 31-05-2017 04:30:00 13.1 C 9.7 g/m*3 13.1 C 0 km/h
2072 31-05-2017 04:35:00 12.9 C 9.69 g/m*3 12.9 C 0 km/h
2073 31-05-2017 04:40:00 12.8 C 9.63 g/m*3 12.8 C 0 km/h
2074 31-05-2017 04:45:00 12.8 C 9.63 g/m*3 12.8 C 1.6 km/h
2075 31-05-2017 04:50:00 12.7 C 9.68 g/m*3 12.7 C 0 km/h
Sensor: Nr:Datum:Temp:Abs-Feuchte:Windchill:Wind:
Aussen-T/F 2076 31-05-2017 04:55:00 12.7 C 9.68 g/m*3 12.7 C 1.6 km/h
2077 31-05-2017 05:00:00 12.6 C 9.62 g/m*3 12.6 C 0 km/h
2078 31-05-2017 05:05:00 12.6 C 9.62 g/m*3 12.6 C 0 km/h
2079 31-05-2017 05:10:00 12.6 C 9.62 g/m*3 12.6 C 0 km/h
2080 31-05-2017 05:15:00 12.5 C 9.57 g/m*3 12.5 C 0 km/h
2081 31-05-2017 05:20:00 12.4 C 9.51 g/m*3 12.4 C 0 km/h
2082 31-05-2017 05:25:00 12.4 C 9.62 g/m*3 12.4 C 0 km/h
2083 31-05-2017 05:30:00 12.3 C 9.56 g/m*3 12.3 C 0 km/h
2084 31-05-2017 05:35:00 12.3 C 9.56 g/m*3 12.3 C 0 km/h
2085 31-05-2017 05:40:00 12.3 C 9.66 g/m*3 12.3 C 0 km/h
2086 31-05-2017 05:45:00 12.2 C 9.6 g/m*3 12.2 C 0 km/h
2087 31-05-2017 05:50:00 12.2 C 9.6 g/m*3 12.2 C 0 km/h
2088 31-05-2017 05:55:00 12.1 C 9.54 g/m*3 12.1 C 0 km/h
2089 31-05-2017 06:00:00 12.1 C 9.65 g/m*3 12.1 C 0 km/h
2090 31-05-2017 06:05:00 12.2 C 9.71 g/m*3 12.2 C 0 km/h
2091 31-05-2017 06:10:00 12.2 C 9.71 g/m*3 12.2 C 0 km/h
2092 31-05-2017 06:15:00 12.1 C 9.65 g/m*3 12.1 C 0 km/h
2093 31-05-2017 06:20:00 12.2 C 9.82 g/m*3 12.2 C 0 km/h
2094 31-05-2017 06:25:00 12.2 C 9.82 g/m*3 12.2 C 0 km/h
2095 31-05-2017 06:30:00 12.2 C 9.82 g/m*3 12.2 C 0 km/h
2096 31-05-2017 06:35:00 12.3 C 9.88 g/m*3 12.3 C 0 km/h
2097 31-05-2017 06:40:00 12.3 C 9.99 g/m*3 12.3 C 0 km/h
2098 31-05-2017 06:45:00 12.4 C 10.05 g/m*3 12.4 C 8.1 km/h
2099 31-05-2017 06:50:00 12.6 C 10.18 g/m*3 12.6 C 4.8 km/h
2100 31-05-2017 06:55:00 12.7 C 10.24 g/m*3 12.7 C 4.8 km/h
Sensor: Nr:Datum:Temp:Abs-Feuchte:Windchill:Wind:
Aussen-T/F 2101 31-05-2017 07:00:00 12.8 C 10.3 g/m*3 12.8 C 6.4 km/h
2102 31-05-2017 07:05:00 12.8 C 10.19 g/m*3 12.8 C 3.2 km/h
2103 31-05-2017 07:10:00 12.9 C 10.26 g/m*3 12.9 C 4.8 km/h
2104 31-05-2017 07:15:00 12.9 C 10.26 g/m*3 12.9 C 1.6 km/h
2105 31-05-2017 07:20:00 12.9 C 10.14 g/m*3 12.9 C 0 km/h
2106 31-05-2017 07:25:00 12.9 C 10.14 g/m*3 12.9 C 0 km/h
2107 31-05-2017 07:30:00 12.9 C 10.26 g/m*3 12.9 C 3.2 km/h
2108 31-05-2017 07:35:00 13 C 10.32 g/m*3 13 C 1.6 km/h
2109 31-05-2017 07:40:00 13.1 C 10.38 g/m*3 13.1 C 1.6 km/h
2110 31-05-2017 07:45:00 13.2 C 10.45 g/m*3 13.2 C 3.2 km/h
2111 31-05-2017 07:50:00 13.3 C 10.51 g/m*3 13.3 C 0 km/h
2112 31-05-2017 07:55:00 13.3 C 10.51 g/m*3 13.3 C 0 km/h
2113 31-05-2017 08:00:00 13.4 C 10.58 g/m*3 13.4 C 1.6 km/h
2114 31-05-2017 08:05:00 13.5 C 10.64 g/m*3 13.5 C 0 km/h
2115 31-05-2017 08:10:00 13.6 C 10.71 g/m*3 13.6 C 1.6 km/h
2116 31-05-2017 08:15:00 13.7 C 10.78 g/m*3 13.7 C 6.4 km/h
2117 31-05-2017 08:20:00 13.9 C 10.79 g/m*3 13.9 C 6.4 km/h
2118 31-05-2017 08:25:00 14.1 C 10.8 g/m*3 14.1 C 6.4 km/h
2119 31-05-2017 08:30:00 14.3 C 10.93 g/m*3 14.3 C 6.4 km/h
2120 31-05-2017 08:35:00 14.4 C 11 g/m*3 14.4 C 0 km/h
2121 31-05-2017 08:40:00 14.6 C 10.89 g/m*3 14.6 C 3.2 km/h
2122 31-05-2017 08:45:00 14.8 C 11.15 g/m*3 14.8 C 0 km/h
2123 31-05-2017 08:50:00 14.8 C 11.15 g/m*3 14.8 C 0 km/h
2124 31-05-2017 08:55:00 14.9 C 10.96 g/m*3 14.9 C 3.2 km/h
2125 31-05-2017 09:00:00 15.2 C 11.03 g/m*3 15.2 C 1.6 km/h
Sensor: Nr:Datum:Temp:Abs-Feuchte:Windchill:Wind:
Aussen-T/F 2126 31-05-2017 09:05:00 15.3 C 11.23 g/m*3 15.3 C 0 km/h
2127 31-05-2017 09:10:00 15.4 C 11.3 g/m*3 15.4 C 0 km/h
2128 31-05-2017 09:15:00 15.5 C 11.24 g/m*3 15.5 C 0 km/h
2129 31-05-2017 09:20:00 15.7 C 11.11 g/m*3 15.7 C 1.6 km/h
2130 31-05-2017 09:25:00 15.8 C 11.04 g/m*3 15.8 C 3.2 km/h
2131 31-05-2017 09:30:00 16.1 C 11.1 g/m*3 16.1 C 8.1 km/h
2132 31-05-2017 09:35:00 16.4 C 11.17 g/m*3 16.4 C 8.1 km/h
2133 31-05-2017 09:40:00 16.7 C 11.23 g/m*3 16.7 C 1.6 km/h
2134 31-05-2017 09:45:00 16.8 C 11.15 g/m*3 16.8 C 1.6 km/h
2135 31-05-2017 09:50:00 16.9 C 11.36 g/m*3 16.9 C 0 km/h
2136 31-05-2017 09:55:00 17.1 C 11.06 g/m*3 17.1 C 4.8 km/h
2137 31-05-2017 10:00:00 17.2 C 11.13 g/m*3 17.2 C 4.8 km/h
2138 31-05-2017 10:05:00 17.5 C 11.33 g/m*3 17.5 C 9.7 km/h
2139 31-05-2017 10:10:00 17.7 C 11.32 g/m*3 17.7 C 6.4 km/h
2140 31-05-2017 10:15:00 17.9 C 11.3 g/m*3 17.9 C 4.8 km/h
2141 31-05-2017 10:20:00 18.2 C 11.35 g/m*3 18.2 C 4.8 km/h
2142 31-05-2017 10:25:00 18.6 C 11.46 g/m*3 18.6 C 1.6 km/h
2143 31-05-2017 10:30:00 18.9 C 11.83 g/m*3 18.9 C 4.8 km/h
2144 31-05-2017 10:35:00 19.1 C 11.47 g/m*3 19.1 C 8.1 km/h
2145 31-05-2017 10:40:00 19.2 C 11.21 g/m*3 19.2 C 8.1 km/h
2146 31-05-2017 10:45:00 19.1 C 10.98 g/m*3 19.1 C 9.7 km/h
2147 31-05-2017 10:50:00 19.1 C 11.15 g/m*3 19.1 C 6.4 km/h
2148 31-05-2017 10:55:00 19.2 C 11.05 g/m*3 19.2 C 11.3 km/h
2149 31-05-2017 11:00:00 19.2 C 11.21 g/m*3 19.2 C 9.7 km/h
2150 31-05-2017 11:05:00 19.3 C 11.28 g/m*3 19.3 C 8.1 km/h
Sensor: Nr:Datum:Temp:Abs-Feuchte:Windchill:Wind:
Aussen-T/F 2151 31-05-2017 11:10:00 19.4 C 11.01 g/m*3 19.4 C 8.1 km/h
2152 31-05-2017 11:15:00 19.6 C 11.14 g/m*3 19.6 C 8.1 km/h
2153 31-05-2017 11:20:00 19.8 C 11.1 g/m*3 19.8 C 6.4 km/h
2154 31-05-2017 11:25:00 19.8 C 11.27 g/m*3 19.8 C 4.8 km/h
2155 31-05-2017 11:30:00 19.7 C 11.04 g/m*3 19.7 C 9.7 km/h
2156 31-05-2017 11:35:00 19.7 C 10.87 g/m*3 19.7 C 3.2 km/h
2157 31-05-2017 11:40:00 19.8 C 10.76 g/m*3 19.8 C 3.2 km/h
2158 31-05-2017 11:45:00 20.1 C 11.3 g/m*3 20.1 C 6.4 km/h
2159 31-05-2017 11:50:00 20.2 C 11.02 g/m*3 20.2 C 8.1 km/h
2160 31-05-2017 11:55:00 20.3 C 11.26 g/m*3 20.3 C 6.4 km/h
2161 31-05-2017 12:00:00 20.3 C 11.08 g/m*3 20.3 C 9.7 km/h
2162 31-05-2017 12:05:00 20.3 C 10.73 g/m*3 20.3 C 4.8 km/h
2163 31-05-2017 12:10:00 20.5 C 11.21 g/m*3 20.5 C 4.8 km/h
2164 31-05-2017 12:15:00 20.7 C 11.34 g/m*3 20.7 C 6.4 km/h
2165 31-05-2017 12:20:00 20.6 C 11.1 g/m*3 20.6 C 3.2 km/h
2166 31-05-2017 12:25:00 20.7 C 11.16 g/m*3 20.7 C 9.7 km/h
2167 31-05-2017 12:30:00 20.7 C 10.98 g/m*3 20.7 C 8.1 km/h
2168 31-05-2017 12:35:00 20.7 C 10.98 g/m*3 20.7 C 6.4 km/h
2169 31-05-2017 12:40:00 20.6 C 10.92 g/m*3 20.6 C 12.9 km/h
2170 31-05-2017 12:45:00 20.6 C 10.92 g/m*3 20.6 C 4.8 km/h
2171 31-05-2017 12:50:00 20.7 C 11.16 g/m*3 20.7 C 6.4 km/h
2172 31-05-2017 12:55:00 20.9 C 11.29 g/m*3 20.9 C 6.4 km/h
2173 31-05-2017 13:00:00 21.2 C 11.12 g/m*3 21.2 C 12.9 km/h
2174 31-05-2017 13:05:00 21.3 C 11.18 g/m*3 21.3 C 6.4 km/h
2175 31-05-2017 13:10:00 21.3 C 11.18 g/m*3 21.3 C 6.4 km/h
Sensor: Nr:Datum:Temp:Abs-Feuchte:Windchill:Wind:
Aussen-T/F 2176 31-05-2017 13:15:00 21.4 C 11.06 g/m*3 21.4 C 8.1 km/h
2177 31-05-2017 13:20:00 21.5 C 11.69 g/m*3 21.5 C 4.8 km/h
2178 31-05-2017 13:25:00 21.7 C 11.25 g/m*3 21.7 C 6.4 km/h
2179 31-05-2017 13:30:00 21.7 C 10.68 g/m*3 21.7 C 11.3 km/h
2180 31-05-2017 13:35:00 21.6 C 10.81 g/m*3 21.6 C 8.1 km/h
2181 31-05-2017 13:40:00 21.5 C 10.94 g/m*3 21.5 C 3.2 km/h
2182 31-05-2017 13:45:00 21.5 C 10.75 g/m*3 21.5 C 6.4 km/h
2183 31-05-2017 13:50:00 21.5 C 10.75 g/m*3 21.5 C 9.7 km/h
2184 31-05-2017 13:55:00 21.6 C 10.81 g/m*3 21.6 C 8.1 km/h
2185 31-05-2017 14:00:00 21.7 C 10.68 g/m*3 21.7 C 9.7 km/h
2186 31-05-2017 14:05:00 21.8 C 10.55 g/m*3 21.8 C 6.4 km/h
2187 31-05-2017 14:10:00 22.1 C 10.93 g/m*3 22.1 C 16.1 km/h
2188 31-05-2017 14:15:00 22.3 C 10.66 g/m*3 22.3 C 16.1 km/h
2189 31-05-2017 14:20:00 22.6 C 10.85 g/m*3 22.6 C 9.7 km/h
2190 31-05-2017 14:25:00 22.6 C 10.85 g/m*3 22.6 C 8.1 km/h
2191 31-05-2017 14:30:00 22.6 C 10.65 g/m*3 22.6 C 4.8 km/h
2192 31-05-2017 14:35:00 22.7 C 10.71 g/m*3 22.7 C 4.8 km/h
2193 31-05-2017 14:40:00 22.8 C 11.18 g/m*3 22.8 C 11.3 km/h
2194 31-05-2017 14:45:00 23.1 C 10.75 g/m*3 23.1 C 14.5 km/h
2195 31-05-2017 14:50:00 22.8 C 10.77 g/m*3 22.8 C 8.1 km/h
2196 31-05-2017 14:55:00 22.7 C 10.51 g/m*3 22.7 C 11.3 km/h
2197 31-05-2017 15:00:00 22.5 C 10.59 g/m*3 22.5 C 6.4 km/h
2198 31-05-2017 15:05:00 22.7 C 11.11 g/m*3 22.7 C 6.4 km/h
2199 31-05-2017 15:10:00 23 C 10.89 g/m*3 23 C 6.4 km/h
2200 31-05-2017 15:15:00 23.3 C 10.45 g/m*3 23.3 C 11.3 km/h
Sensor: Nr:Datum:Temp:Abs-Feuchte:Windchill:Wind:
Aussen-T/F 2201 31-05-2017 15:20:00 23.2 C 10.6 g/m*3 23.2 C 8.1 km/h
2202 31-05-2017 15:25:00 23.3 C 11.08 g/m*3 23.3 C 4.8 km/h
2203 31-05-2017 15:30:00 23.8 C 11.4 g/m*3 23.8 C 8.1 km/h
2204 31-05-2017 15:35:00 24.4 C 11.13 g/m*3 24.4 C 6.4 km/h
2205 31-05-2017 15:40:00 24.4 C 10.68 g/m*3 24.4 C 9.7 km/h
2206 31-05-2017 15:45:00 24.2 C 10.78 g/m*3 24.2 C 8.1 km/h
2207 31-05-2017 15:50:00 24.3 C 10.62 g/m*3 24.3 C 12.9 km/h
2208 31-05-2017 15:55:00 24.3 C 10.62 g/m*3 24.3 C 11.3 km/h
2209 31-05-2017 16:00:00 24.2 C 10.34 g/m*3 24.2 C 8.1 km/h
2210 31-05-2017 16:05:00 24 C 10.23 g/m*3 24 C 6.4 km/h
2211 31-05-2017 16:10:00 24.1 C 10.5 g/m*3 24.1 C 11.3 km/h
2212 31-05-2017 16:15:00 24.2 C 10.78 g/m*3 24.2 C 11.3 km/h
2213 31-05-2017 16:20:00 24.8 C 10.47 g/m*3 24.8 C 8.1 km/h
2214 31-05-2017 16:25:00 25.3 C 10.53 g/m*3 25.3 C 8.1 km/h
2215 31-05-2017 16:30:00 25.4 C 10.12 g/m*3 25.4 C 12.9 km/h
2216 31-05-2017 16:35:00 25.5 C 10.89 g/m*3 25.5 C 9.7 km/h
2217 31-05-2017 16:40:00 25.6 C 10.24 g/m*3 25.6 C 4.8 km/h
2218 31-05-2017 16:45:00 25.4 C 10.59 g/m*3 25.4 C 4.8 km/h
2219 31-05-2017 16:50:00 24.9 C 9.84 g/m*3 24.9 C 11.3 km/h
2220 31-05-2017 16:55:00 24.8 C 10.02 g/m*3 24.8 C 8.1 km/h
2221 31-05-2017 17:00:00 24.4 C 9.57 g/m*3 24.4 C 11.3 km/h
2222 31-05-2017 17:05:00 24.2 C 9.68 g/m*3 24.2 C 6.4 km/h
2223 31-05-2017 17:10:00 24.1 C 9.63 g/m*3 24.1 C 4.8 km/h
2224 31-05-2017 17:15:00 24.1 C 9.85 g/m*3 24.1 C 4.8 km/h
2225 31-05-2017 17:20:00 24.1 C 9.85 g/m*3 24.1 C 6.4 km/h
Sensor: Nr:Datum:Temp:Abs-Feuchte:Windchill:Wind:
Aussen-T/F 2226 31-05-2017 17:25:00 24.1 C 9.85 g/m*3 24.1 C 9.7 km/h
2227 31-05-2017 17:30:00 24.2 C 9.9 g/m*3 24.2 C 4.8 km/h
2228 31-05-2017 17:35:00 24.6 C 10.13 g/m*3 24.6 C 8.1 km/h
2229 31-05-2017 17:40:00 24.8 C 10.02 g/m*3 24.8 C 11.3 km/h
2230 31-05-2017 17:45:00 24.8 C 10.02 g/m*3 24.8 C 6.4 km/h
2231 31-05-2017 17:50:00 24.8 C 10.24 g/m*3 24.8 C 4.8 km/h
2232 31-05-2017 17:55:00 25 C 10.13 g/m*3 25 C 4.8 km/h
2233 31-05-2017 18:00:00 25.3 C 10.53 g/m*3 25.3 C 4.8 km/h
2234 31-05-2017 18:05:00 25.8 C 10.35 g/m*3 25.8 C 9.7 km/h
2235 31-05-2017 18:10:00 25.9 C 9.93 g/m*3 25.9 C 12.9 km/h
2236 31-05-2017 18:15:00 25.4 C 9.89 g/m*3 25.4 C 6.4 km/h
2237 31-05-2017 18:20:00 25 C 10.13 g/m*3 25 C 4.8 km/h
2238 31-05-2017 18:25:00 24.6 C 9.9 g/m*3 24.6 C 6.4 km/h
2239 31-05-2017 18:30:00 24.3 C 9.96 g/m*3 24.3 C 8.1 km/h
2240 31-05-2017 18:35:00 24.2 C 10.12 g/m*3 24.2 C 4.8 km/h
2241 31-05-2017 18:40:00 24.1 C 10.06 g/m*3 24.1 C 4.8 km/h
2242 31-05-2017 18:45:00 24 C 9.79 g/m*3 24 C 1.6 km/h
2243 31-05-2017 18:50:00 24 C 10.23 g/m*3 24 C 1.6 km/h
2244 31-05-2017 18:55:00 23.9 C 9.95 g/m*3 23.9 C 4.8 km/h
2245 31-05-2017 19:00:00 23.9 C 9.95 g/m*3 23.9 C 8.1 km/h
2246 31-05-2017 19:05:00 23.9 C 9.95 g/m*3 23.9 C 6.4 km/h
2247 31-05-2017 19:10:00 24 C 10.01 g/m*3 24 C 6.4 km/h
2248 31-05-2017 19:15:00 23.9 C 10.17 g/m*3 23.9 C 4.8 km/h
2249 31-05-2017 19:20:00 23.8 C 10.33 g/m*3 23.8 C 4.8 km/h
2250 31-05-2017 19:25:00 23.6 C 10.21 g/m*3 23.6 C 3.2 km/h
Sensor: Nr:Datum:Temp:Abs-Feuchte:Windchill:Wind:
Aussen-T/F 2251 31-05-2017 19:30:00 23.6 C 10 g/m*3 23.6 C 4.8 km/h
2252 31-05-2017 19:35:00 23.7 C 10.27 g/m*3 23.7 C 3.2 km/h
2253 31-05-2017 19:40:00 23.8 C 9.9 g/m*3 23.8 C 4.8 km/h
2254 31-05-2017 19:45:00 23.9 C 10.17 g/m*3 23.9 C 4.8 km/h
2255 31-05-2017 19:50:00 23.8 C 9.9 g/m*3 23.8 C 8.1 km/h
2256 31-05-2017 19:55:00 23.7 C 10.27 g/m*3 23.7 C 6.4 km/h
2257 31-05-2017 20:00:00 23.4 C 10.3 g/m*3 23.4 C 8.1 km/h
2258 31-05-2017 20:05:00 23.3 C 10.45 g/m*3 23.3 C 4.8 km/h
2259 31-05-2017 20:10:00 23.2 C 10.6 g/m*3 23.2 C 4.8 km/h
2260 31-05-2017 20:15:00 23.1 C 10.75 g/m*3 23.1 C 3.2 km/h
2261 31-05-2017 20:20:00 23.1 C 10.96 g/m*3 23.1 C 3.2 km/h
2262 31-05-2017 20:25:00 22.9 C 10.63 g/m*3 22.9 C 6.4 km/h
2263 31-05-2017 20:30:00 22.8 C 11.79 g/m*3 22.8 C 1.6 km/h
2264 31-05-2017 20:35:00 22.7 C 11.92 g/m*3 22.7 C 3.2 km/h
2265 31-05-2017 20:40:00 22.4 C 12.11 g/m*3 22.4 C 0 km/h
2266 31-05-2017 20:45:00 22.1 C 12.1 g/m*3 22.1 C 0 km/h
2267 31-05-2017 20:50:00 21.8 C 12.09 g/m*3 21.8 C 0 km/h
2268 31-05-2017 20:55:00 21.4 C 12 g/m*3 21.4 C 0 km/h
2269 31-05-2017 21:00:00 21 C 11.91 g/m*3 21 C 0 km/h
2270 31-05-2017 21:05:00 20.6 C 11.81 g/m*3 20.6 C 0 km/h
2271 31-05-2017 21:10:00 20.2 C 11.71 g/m*3 20.2 C 0 km/h
2272 31-05-2017 21:15:00 19.9 C 11.51 g/m*3 19.9 C 0 km/h
2273 31-05-2017 21:20:00 19.6 C 11.48 g/m*3 19.6 C 1.6 km/h
2274 31-05-2017 21:25:00 19.3 C 11.44 g/m*3 19.3 C 1.6 km/h
2275 31-05-2017 21:30:00 19.1 C 11.31 g/m*3 19.1 C 0 km/h
Sensor: Nr:Datum:Temp:Abs-Feuchte:Windchill:Wind:
Aussen-T/F 2276 31-05-2017 21:35:00 18.8 C 11.11 g/m*3 18.8 C 1.6 km/h
2277 31-05-2017 21:40:00 18.7 C 11.21 g/m*3 18.7 C 1.6 km/h
2278 31-05-2017 21:45:00 18.5 C 11.08 g/m*3 18.5 C 0 km/h
2279 31-05-2017 21:50:00 18.3 C 10.94 g/m*3 18.3 C 0 km/h
2280 31-05-2017 21:55:00 18.2 C 10.72 g/m*3 18.2 C 1.6 km/h
2281 31-05-2017 22:00:00 18.1 C 10.82 g/m*3 18.1 C 1.6 km/h
2282 31-05-2017 22:05:00 18 C 10.75 g/m*3 18 C 0 km/h
2283 31-05-2017 22:10:00 17.9 C 10.69 g/m*3 17.9 C 1.6 km/h
2284 31-05-2017 22:15:00 17.8 C 10.62 g/m*3 17.8 C 0 km/h
2285 31-05-2017 22:20:00 17.8 C 10.78 g/m*3 17.8 C 0 km/h
2286 31-05-2017 22:25:00 17.7 C 10.71 g/m*3 17.7 C 0 km/h
2287 31-05-2017 22:30:00 17.7 C 10.86 g/m*3 17.7 C 0 km/h
2288 31-05-2017 22:35:00 17.6 C 10.95 g/m*3 17.6 C 0 km/h
2289 31-05-2017 22:40:00 17.4 C 10.97 g/m*3 17.4 C 0 km/h
2290 31-05-2017 22:45:00 17.2 C 10.98 g/m*3 17.2 C 0 km/h
2291 31-05-2017 22:50:00 17.1 C 10.92 g/m*3 17.1 C 0 km/h
2292 31-05-2017 22:55:00 16.8 C 10.87 g/m*3 16.8 C 0 km/h
2293 31-05-2017 23:00:00 16.4 C 10.75 g/m*3 16.4 C 0 km/h
2294 31-05-2017 23:05:00 16.2 C 10.62 g/m*3 16.2 C 0 km/h
2295 31-05-2017 23:10:00 16.1 C 10.69 g/m*3 16.1 C 0 km/h
2296 31-05-2017 23:15:00 15.9 C 10.7 g/m*3 15.9 C 0 km/h
2297 31-05-2017 23:20:00 15.8 C 10.63 g/m*3 15.8 C 0 km/h
2298 31-05-2017 23:25:00 15.6 C 10.64 g/m*3 15.6 C 0 km/h
2299 31-05-2017 23:30:00 15.3 C 10.45 g/m*3 15.3 C 0 km/h
2300 31-05-2017 23:35:00 15.2 C 10.51 g/m*3 15.2 C 0 km/h
Sensor: Nr:Datum:Temp:Abs-Feuchte:Windchill:Wind:
Aussen-T/F 2301 31-05-2017 23:40:00 15.2 C 10.51 g/m*3 15.2 C 0 km/h
2302 31-05-2017 23:45:00 15.1 C 10.58 g/m*3 15.1 C 0 km/h
2303 31-05-2017 23:50:00 14.9 C 10.45 g/m*3 14.9 C 0 km/h
2304 31-05-2017 23:55:00 14.8 C 10.51 g/m*3 14.8 C 0 km/h
2305 01-06-2017 00:00:00 14.7 C 10.45 g/m*3 14.7 C 0 km/h
2306 01-06-2017 00:05:00 14.7 C 10.45 g/m*3 14.7 C 0 km/h
2307 01-06-2017 00:10:00 14.7 C 10.58 g/m*3 14.7 C 0 km/h
2308 01-06-2017 00:15:00 14.7 C 10.58 g/m*3 14.7 C 0 km/h
2309 01-06-2017 00:20:00 14.7 C 10.58 g/m*3 14.7 C 0 km/h
2310 01-06-2017 00:25:00 14.7 C 10.58 g/m*3 14.7 C 0 km/h
2311 01-06-2017 00:30:00 14.6 C 10.51 g/m*3 14.6 C 0 km/h
2312 01-06-2017 00:35:00 14.5 C 10.45 g/m*3 14.5 C 0 km/h
2313 01-06-2017 00:40:00 14.4 C 10.51 g/m*3 14.4 C 0 km/h
2314 01-06-2017 00:45:00 14.3 C 10.44 g/m*3 14.3 C 0 km/h
2315 01-06-2017 00:50:00 14.2 C 10.38 g/m*3 14.2 C 0 km/h
2316 01-06-2017 00:55:00 14.1 C 10.44 g/m*3 14.1 C 0 km/h
2317 01-06-2017 01:00:00 13.9 C 10.31 g/m*3 13.9 C 0 km/h
2318 01-06-2017 01:05:00 13.9 C 10.31 g/m*3 13.9 C 0 km/h
2319 01-06-2017 01:10:00 13.8 C 10.37 g/m*3 13.8 C 0 km/h
2320 01-06-2017 01:15:00 13.8 C 10.37 g/m*3 13.8 C 0 km/h
2321 01-06-2017 01:20:00 13.7 C 10.3 g/m*3 13.7 C 0 km/h
2322 01-06-2017 01:25:00 13.7 C 10.3 g/m*3 13.7 C 0 km/h
2323 01-06-2017 01:30:00 13.6 C 10.36 g/m*3 13.6 C 0 km/h
2324 01-06-2017 01:35:00 13.5 C 10.29 g/m*3 13.5 C 0 km/h
2325 01-06-2017 01:40:00 13.4 C 10.23 g/m*3 13.4 C 0 km/h
Sensor: Nr:Datum:Temp:Abs-Feuchte:Windchill:Wind:
Aussen-T/F 2326 01-06-2017 01:45:00 13.4 C 10.35 g/m*3 13.4 C 0 km/h
2327 01-06-2017 01:50:00 13.3 C 10.28 g/m*3 13.3 C 0 km/h
2328 01-06-2017 01:55:00 13.3 C 10.28 g/m*3 13.3 C 0 km/h
2329 01-06-2017 02:00:00 13.3 C 10.28 g/m*3 13.3 C 0 km/h
2330 01-06-2017 02:05:00 13.3 C 10.28 g/m*3 13.3 C 0 km/h
2331 01-06-2017 02:10:00 13.2 C 10.22 g/m*3 13.2 C 0 km/h
2332 01-06-2017 02:15:00 13.2 C 10.33 g/m*3 13.2 C 0 km/h
2333 01-06-2017 02:20:00 13.2 C 10.33 g/m*3 13.2 C 0 km/h
2334 01-06-2017 02:25:00 13.2 C 10.33 g/m*3 13.2 C 0 km/h
2335 01-06-2017 02:30:00 13.1 C 10.27 g/m*3 13.1 C 0 km/h
2336 01-06-2017 02:35:00 13.1 C 10.27 g/m*3 13.1 C 0 km/h
2337 01-06-2017 02:40:00 13 C 10.21 g/m*3 13 C 0 km/h
2338 01-06-2017 02:45:00 12.9 C 10.14 g/m*3 12.9 C 0 km/h
2339 01-06-2017 02:50:00 12.9 C 10.26 g/m*3 12.9 C 1.6 km/h
2340 01-06-2017 02:55:00 12.9 C 10.26 g/m*3 12.9 C 0 km/h
2341 01-06-2017 03:00:00 12.9 C 10.26 g/m*3 12.9 C 0 km/h
2342 01-06-2017 03:05:00 12.8 C 10.19 g/m*3 12.8 C 0 km/h
2343 01-06-2017 03:10:00 12.8 C 10.19 g/m*3 12.8 C 0 km/h
2344 01-06-2017 03:15:00 12.8 C 10.19 g/m*3 12.8 C 0 km/h
2345 01-06-2017 03:20:00 12.7 C 10.13 g/m*3 12.7 C 0 km/h
2346 01-06-2017 03:25:00 12.7 C 10.13 g/m*3 12.7 C 0 km/h
2347 01-06-2017 03:30:00 12.6 C 10.07 g/m*3 12.6 C 0 km/h
2348 01-06-2017 03:35:00 12.6 C 10.07 g/m*3 12.6 C 0 km/h
2349 01-06-2017 03:40:00 12.6 C 10.07 g/m*3 12.6 C 0 km/h
2350 01-06-2017 03:45:00 12.5 C 10 g/m*3 12.5 C 0 km/h
Sensor: Nr:Datum:Temp:Abs-Feuchte:Windchill:Wind:
Aussen-T/F 2351 01-06-2017 03:50:00 12.4 C 9.94 g/m*3 12.4 C 0 km/h
2352 01-06-2017 03:55:00 12.4 C 10.05 g/m*3 12.4 C 0 km/h
2353 01-06-2017 04:00:00 12.3 C 9.99 g/m*3 12.3 C 0 km/h
2354 01-06-2017 04:05:00 12.3 C 9.99 g/m*3 12.3 C 0 km/h
2355 01-06-2017 04:10:00 12.3 C 9.99 g/m*3 12.3 C 0 km/h
2356 01-06-2017 04:15:00 12.2 C 9.93 g/m*3 12.2 C 0 km/h
2357 01-06-2017 04:20:00 12.2 C 9.93 g/m*3 12.2 C 0 km/h
2358 01-06-2017 04:25:00 12.2 C 9.93 g/m*3 12.2 C 0 km/h
2359 01-06-2017 04:30:00 12.2 C 9.93 g/m*3 12.2 C 0 km/h
2360 01-06-2017 04:35:00 12.2 C 10.04 g/m*3 12.2 C 0 km/h
2361 01-06-2017 04:40:00 12.1 C 9.87 g/m*3 12.1 C 0 km/h
2362 01-06-2017 04:45:00 12.1 C 9.87 g/m*3 12.1 C 0 km/h
2363 01-06-2017 04:50:00 12 C 9.8 g/m*3 12 C 0 km/h
2364 01-06-2017 04:55:00 11.9 C 9.85 g/m*3 11.9 C 0 km/h
2365 01-06-2017 05:00:00 11.9 C 9.85 g/m*3 11.9 C 0 km/h
2366 01-06-2017 05:05:00 11.9 C 9.85 g/m*3 11.9 C 0 km/h
2367 01-06-2017 05:10:00 11.8 C 9.79 g/m*3 11.8 C 0 km/h
2368 01-06-2017 05:15:00 11.8 C 9.79 g/m*3 11.8 C 0 km/h
2369 01-06-2017 05:20:00 11.8 C 9.79 g/m*3 11.8 C 0 km/h
2370 01-06-2017 05:25:00 11.7 C 9.73 g/m*3 11.7 C 0 km/h
2371 01-06-2017 05:30:00 11.7 C 9.73 g/m*3 11.7 C 0 km/h
2372 01-06-2017 05:35:00 11.8 C 9.79 g/m*3 11.8 C 1.6 km/h
2373 01-06-2017 05:40:00 11.8 C 9.79 g/m*3 11.8 C 0 km/h
2374 01-06-2017 05:45:00 11.7 C 9.73 g/m*3 11.7 C 0 km/h
2375 01-06-2017 05:50:00 11.8 C 9.89 g/m*3 11.8 C 0 km/h
Sensor: Nr:Datum:Temp:Abs-Feuchte:Windchill:Wind:
Aussen-T/F 2376 01-06-2017 05:55:00 11.8 C 9.89 g/m*3 11.8 C 0 km/h
2377 01-06-2017 06:00:00 11.8 C 9.79 g/m*3 11.8 C 0 km/h
2378 01-06-2017 06:05:00 11.7 C 9.83 g/m*3 11.7 C 0 km/h
2379 01-06-2017 06:10:00 11.7 C 9.83 g/m*3 11.7 C 0 km/h
2380 01-06-2017 06:15:00 11.7 C 9.83 g/m*3 11.7 C 0 km/h
2381 01-06-2017 06:20:00 11.7 C 9.83 g/m*3 11.7 C 0 km/h
2382 01-06-2017 06:25:00 11.7 C 9.83 g/m*3 11.7 C 0 km/h
2383 01-06-2017 06:30:00 11.8 C 9.89 g/m*3 11.8 C 0 km/h
2384 01-06-2017 06:35:00 11.8 C 9.89 g/m*3 11.8 C 0 km/h
2385 01-06-2017 06:40:00 11.8 C 9.89 g/m*3 11.8 C 0 km/h
2386 01-06-2017 06:45:00 11.9 C 9.96 g/m*3 11.9 C 0 km/h
2387 01-06-2017 06:50:00 12 C 10.02 g/m*3 12 C 0 km/h
2388 01-06-2017 06:55:00 12.2 C 10.25 g/m*3 12.2 C 0 km/h
2389 01-06-2017 07:00:00 12.3 C 10.21 g/m*3 12.3 C 0 km/h
2390 01-06-2017 07:05:00 12.3 C 10.21 g/m*3 12.3 C 0 km/h
2391 01-06-2017 07:10:00 12.4 C 10.38 g/m*3 12.4 C 0 km/h
2392 01-06-2017 07:15:00 12.5 C 10.33 g/m*3 12.5 C 0 km/h
2393 01-06-2017 07:20:00 12.6 C 10.4 g/m*3 12.6 C 0 km/h
2394 01-06-2017 07:25:00 12.7 C 10.46 g/m*3 12.7 C 0 km/h
2395 01-06-2017 07:30:00 12.7 C 10.46 g/m*3 12.7 C 0 km/h
2396 01-06-2017 07:35:00 12.8 C 10.53 g/m*3 12.8 C 0 km/h
2397 01-06-2017 07:40:00 12.8 C 10.53 g/m*3 12.8 C 0 km/h
2398 01-06-2017 07:45:00 12.9 C 10.59 g/m*3 12.9 C 0 km/h
2399 01-06-2017 07:50:00 12.9 C 10.59 g/m*3 12.9 C 0 km/h
2400 01-06-2017 07:55:00 13 C 10.66 g/m*3 13 C 0 km/h
Sensor: Nr:Datum:Temp:Abs-Feuchte:Windchill:Wind:
Aussen-T/F 2401 01-06-2017 08:00:00 13.1 C 10.73 g/m*3 13.1 C 0 km/h
2402 01-06-2017 08:05:00 13.3 C 10.86 g/m*3 13.3 C 0 km/h
2403 01-06-2017 08:10:00 13.4 C 10.93 g/m*3 13.4 C 0 km/h
2404 01-06-2017 08:15:00 13.5 C 10.88 g/m*3 13.5 C 0 km/h
2405 01-06-2017 08:20:00 13.6 C 10.95 g/m*3 13.6 C 0 km/h
2406 01-06-2017 08:25:00 13.8 C 11.08 g/m*3 13.8 C 0 km/h
2407 01-06-2017 08:30:00 13.9 C 11.15 g/m*3 13.9 C 0 km/h
2408 01-06-2017 08:35:00 14.1 C 11.29 g/m*3 14.1 C 0 km/h
2409 01-06-2017 08:40:00 14.2 C 11.36 g/m*3 14.2 C 0 km/h
2410 01-06-2017 08:45:00 14.3 C 11.43 g/m*3 14.3 C 0 km/h
2411 01-06-2017 08:50:00 14.4 C 11.5 g/m*3 14.4 C 0 km/h
2412 01-06-2017 08:55:00 14.6 C 11.64 g/m*3 14.6 C 0 km/h
2413 01-06-2017 09:00:00 14.8 C 11.78 g/m*3 14.8 C 0 km/h
2414 01-06-2017 09:05:00 14.9 C 11.73 g/m*3 14.9 C 0 km/h
2415 01-06-2017 09:10:00 15.1 C 11.74 g/m*3 15.1 C 0 km/h
2416 01-06-2017 09:15:00 15.3 C 11.88 g/m*3 15.3 C 0 km/h
2417 01-06-2017 09:20:00 15.4 C 11.82 g/m*3 15.4 C 0 km/h
2418 01-06-2017 09:25:00 15.7 C 11.91 g/m*3 15.7 C 0 km/h
2419 01-06-2017 09:30:00 15.9 C 12.05 g/m*3 15.9 C 0 km/h
2420 01-06-2017 09:35:00 16.2 C 12.27 g/m*3 16.2 C 0 km/h
2421 01-06-2017 09:40:00 16.3 C 12.21 g/m*3 16.3 C 0 km/h
2422 01-06-2017 09:45:00 16.4 C 12.14 g/m*3 16.4 C 0 km/h
2423 01-06-2017 09:50:00 16.6 C 12.29 g/m*3 16.6 C 0 km/h
2424 01-06-2017 09:55:00 16.7 C 12.22 g/m*3 16.7 C 0 km/h
2425 01-06-2017 10:00:00 16.9 C 12.51 g/m*3 16.9 C 0 km/h
Sensor: Nr:Datum:Temp:Abs-Feuchte:Windchill:Wind:
Aussen-T/F 2426 01-06-2017 10:05:00 17.1 C 12.37 g/m*3 17.1 C 0 km/h
2427 01-06-2017 10:10:00 17.3 C 12.52 g/m*3 17.3 C 0 km/h
2428 01-06-2017 10:15:00 17.6 C 12.6 g/m*3 17.6 C 0 km/h
2429 01-06-2017 10:20:00 18.1 C 12.98 g/m*3 18.1 C 0 km/h
2430 01-06-2017 10:25:00 18.6 C 12.89 g/m*3 18.6 C 0 km/h
2431 01-06-2017 10:30:00 19.2 C 13.03 g/m*3 19.2 C 0 km/h
2432 01-06-2017 10:35:00 19.7 C 13.08 g/m*3 19.7 C 0 km/h
2433 01-06-2017 10:40:00 20.2 C 12.94 g/m*3 20.2 C 3.2 km/h
2434 01-06-2017 10:45:00 20.6 C 13.07 g/m*3 20.6 C 3.2 km/h
2435 01-06-2017 10:50:00 20.7 C 12.78 g/m*3 20.7 C 1.6 km/h
2436 01-06-2017 10:55:00 20.7 C 12.6 g/m*3 20.7 C 3.2 km/h
2437 01-06-2017 11:00:00 20.8 C 12.49 g/m*3 20.8 C 3.2 km/h
2438 01-06-2017 11:05:00 20.8 C 12.31 g/m*3 20.8 C 3.2 km/h
2439 01-06-2017 11:10:00 20.9 C 12.57 g/m*3 20.9 C 3.2 km/h
2440 01-06-2017 11:15:00 20.9 C 12.2 g/m*3 20.9 C 0 km/h
2441 01-06-2017 11:20:00 21 C 13.01 g/m*3 21 C 1.6 km/h
2442 01-06-2017 11:25:00 20.9 C 11.66 g/m*3 20.9 C 3.2 km/h
2443 01-06-2017 11:30:00 21.1 C 11.98 g/m*3 21.1 C 6.4 km/h
2444 01-06-2017 11:35:00 21.2 C 12.05 g/m*3 21.2 C 1.6 km/h
2445 01-06-2017 11:40:00 21.3 C 12.49 g/m*3 21.3 C 3.2 km/h
2446 01-06-2017 11:45:00 21.5 C 11.88 g/m*3 21.5 C 4.8 km/h
2447 01-06-2017 11:50:00 21.7 C 11.64 g/m*3 21.7 C 4.8 km/h
2448 01-06-2017 11:55:00 21.8 C 11.51 g/m*3 21.8 C 4.8 km/h
2449 01-06-2017 12:00:00 21.8 C 11.51 g/m*3 21.8 C 3.2 km/h
2450 01-06-2017 12:05:00 21.9 C 11.96 g/m*3 21.9 C 1.6 km/h
Sensor: Nr:Datum:Temp:Abs-Feuchte:Windchill:Wind:
Aussen-T/F 2451 01-06-2017 12:10:00 22.1 C 11.71 g/m*3 22.1 C 4.8 km/h
2452 01-06-2017 12:15:00 22.2 C 11.39 g/m*3 22.2 C 11.3 km/h
2453 01-06-2017 12:20:00 22.4 C 11.52 g/m*3 22.4 C 11.3 km/h
2454 01-06-2017 12:25:00 22.5 C 10.79 g/m*3 22.5 C 6.4 km/h
2455 01-06-2017 12:30:00 22.6 C 11.25 g/m*3 22.6 C 3.2 km/h
2456 01-06-2017 12:35:00 22.7 C 11.31 g/m*3 22.7 C 6.4 km/h
2457 01-06-2017 12:40:00 22.7 C 11.31 g/m*3 22.7 C 4.8 km/h
2458 01-06-2017 12:45:00 22.7 C 11.52 g/m*3 22.7 C 1.6 km/h
2459 01-06-2017 12:50:00 22.7 C 11.31 g/m*3 22.7 C 4.8 km/h
2460 01-06-2017 12:55:00 22.8 C 10.97 g/m*3 22.8 C 6.4 km/h
2461 01-06-2017 13:00:00 23.1 C 11.37 g/m*3 23.1 C 4.8 km/h
2462 01-06-2017 13:05:00 23.1 C 10.96 g/m*3 23.1 C 4.8 km/h
2463 01-06-2017 13:10:00 22.9 C 11.04 g/m*3 22.9 C 4.8 km/h
2464 01-06-2017 13:15:00 23 C 10.28 g/m*3 23 C 3.2 km/h
2465 01-06-2017 13:20:00 23.1 C 10.75 g/m*3 23.1 C 3.2 km/h
2466 01-06-2017 13:25:00 23.2 C 10.81 g/m*3 23.2 C 6.4 km/h
2467 01-06-2017 13:30:00 23.3 C 10.66 g/m*3 23.3 C 3.2 km/h
2468 01-06-2017 13:35:00 23.4 C 10.51 g/m*3 23.4 C 4.8 km/h
2469 01-06-2017 13:40:00 23.6 C 10.85 g/m*3 23.6 C 3.2 km/h
2470 01-06-2017 13:45:00 23.7 C 11.76 g/m*3 23.7 C 1.6 km/h
2471 01-06-2017 13:50:00 23.8 C 13.12 g/m*3 23.8 C 0 km/h
2472 01-06-2017 13:55:00 23.7 C 13.48 g/m*3 23.7 C 0 km/h
2473 01-06-2017 14:00:00 23.6 C 14.04 g/m*3 23.6 C 0 km/h
2474 01-06-2017 14:05:00 23.4 C 11.78 g/m*3 23.4 C 0 km/h
2475 01-06-2017 14:10:00 23.2 C 10.81 g/m*3 23.2 C 0 km/h
Sensor: Nr:Datum:Temp:Abs-Feuchte:Windchill:Wind:
Aussen-T/F 2476 01-06-2017 14:15:00 23.2 C 11.02 g/m*3 23.2 C 1.6 km/h
2477 01-06-2017 14:20:00 23.4 C 10.51 g/m*3 23.4 C 3.2 km/h
2478 01-06-2017 14:25:00 23.8 C 10.76 g/m*3 23.8 C 6.4 km/h
2479 01-06-2017 14:30:00 24.2 C 10.78 g/m*3 24.2 C 8.1 km/h
2480 01-06-2017 14:35:00 24.5 C 10.74 g/m*3 24.5 C 8.1 km/h
2481 01-06-2017 14:40:00 24.7 C 11.09 g/m*3 24.7 C 4.8 km/h
2482 01-06-2017 14:45:00 24.7 C 10.19 g/m*3 24.7 C 6.4 km/h
2483 01-06-2017 14:50:00 24.8 C 10.24 g/m*3 24.8 C 8.1 km/h
2484 01-06-2017 14:55:00 24.9 C 10.76 g/m*3 24.9 C 3.2 km/h
2485 01-06-2017 15:00:00 25.2 C 10.48 g/m*3 25.2 C 6.4 km/h
2486 01-06-2017 15:05:00 25.4 C 11.06 g/m*3 25.4 C 9.7 km/h
2487 01-06-2017 15:10:00 25.7 C 10.77 g/m*3 25.7 C 8.1 km/h
2488 01-06-2017 15:15:00 25.9 C 10.41 g/m*3 25.9 C 6.4 km/h
2489 01-06-2017 15:20:00 26.1 C 11.26 g/m*3 26.1 C 9.7 km/h
2490 01-06-2017 15:25:00 26.2 C 10.59 g/m*3 26.2 C 6.4 km/h
2491 01-06-2017 15:30:00 26.4 C 10.46 g/m*3 26.4 C 9.7 km/h
2492 01-06-2017 15:35:00 26.6 C 10.82 g/m*3 26.6 C 6.4 km/h
2493 01-06-2017 15:40:00 26.8 C 10.69 g/m*3 26.8 C 8.1 km/h
2494 01-06-2017 15:45:00 26.8 C 10.69 g/m*3 26.8 C 6.4 km/h
2495 01-06-2017 15:50:00 27.2 C 10.41 g/m*3 27.2 C 3.2 km/h
2496 01-06-2017 15:55:00 27.7 C 10.43 g/m*3 27.7 C 8.1 km/h
2497 01-06-2017 16:00:00 27.8 C 10.49 g/m*3 27.8 C 9.7 km/h
2498 01-06-2017 16:05:00 28 C 10.33 g/m*3 28 C 6.4 km/h
2499 01-06-2017 16:10:00 28.2 C 10.17 g/m*3 28.2 C 8.1 km/h
2500 01-06-2017 16:15:00 27.9 C 10.55 g/m*3 27.9 C 6.4 km/h
Sensor: Nr:Datum:Temp:Abs-Feuchte:Windchill:Wind:
Aussen-T/F 2501 01-06-2017 16:20:00 27.6 C 10.11 g/m*3 27.6 C 6.4 km/h
2502 01-06-2017 16:25:00 27.7 C 10.43 g/m*3 27.7 C 4.8 km/h
2503 01-06-2017 16:30:00 27.9 C 10.55 g/m*3 27.9 C 3.2 km/h
2504 01-06-2017 16:35:00 28.1 C 10.66 g/m*3 28.1 C 4.8 km/h
2505 01-06-2017 16:40:00 28.3 C 10.78 g/m*3 28.3 C 8.1 km/h
2506 01-06-2017 16:45:00 28.7 C 10.17 g/m*3 28.7 C 6.4 km/h
2507 01-06-2017 16:50:00 28.8 C 10.51 g/m*3 28.8 C 8.1 km/h
2508 01-06-2017 16:55:00 28.8 C 10.8 g/m*3 28.8 C 4.8 km/h
2509 01-06-2017 17:00:00 28.9 C 10.86 g/m*3 28.9 C 6.4 km/h
2510 01-06-2017 17:05:00 29.2 C 11.32 g/m*3 29.2 C 4.8 km/h
2511 01-06-2017 17:10:00 29.4 C 10.86 g/m*3 29.4 C 8.1 km/h
2512 01-06-2017 17:15:00 28.7 C 10.17 g/m*3 28.7 C 9.7 km/h
2513 01-06-2017 17:20:00 28.2 C 10.72 g/m*3 28.2 C 9.7 km/h
2514 01-06-2017 17:25:00 27.8 C 10.49 g/m*3 27.8 C 8.1 km/h
2515 01-06-2017 17:30:00 27.6 C 10.64 g/m*3 27.6 C 8.1 km/h
2516 01-06-2017 17:35:00 27.7 C 10.43 g/m*3 27.7 C 11.3 km/h
2517 01-06-2017 17:40:00 27.7 C 10.43 g/m*3 27.7 C 9.7 km/h
2518 01-06-2017 17:45:00 27.8 C 10.49 g/m*3 27.8 C 8.1 km/h
2519 01-06-2017 17:50:00 27.5 C 11.11 g/m*3 27.5 C 11.3 km/h
2520 01-06-2017 17:55:00 27.3 C 11.51 g/m*3 27.3 C 1.6 km/h
2521 01-06-2017 18:00:00 27.3 C 11.51 g/m*3 27.3 C 0 km/h
2522 01-06-2017 18:05:00 27.3 C 12.3 g/m*3 27.3 C 0 km/h
2523 01-06-2017 18:10:00 27.4 C 13.68 g/m*3 27.4 C 0 km/h
2524 01-06-2017 18:15:00 27.5 C 14.29 g/m*3 27.5 C 0 km/h
2525 01-06-2017 18:20:00 27.6 C 13.57 g/m*3 27.6 C 0 km/h
Sensor: Nr:Datum:Temp:Abs-Feuchte:Windchill:Wind:
Aussen-T/F 2526 01-06-2017 18:25:00 27.8 C 14.26 g/m*3 27.8 C 0 km/h
2527 01-06-2017 18:30:00 27.7 C 13.91 g/m*3 27.7 C 0 km/h
2528 01-06-2017 18:35:00 27.4 C 13.68 g/m*3 27.4 C 0 km/h
2529 01-06-2017 18:40:00 27 C 13.64 g/m*3 27 C 1.6 km/h
2530 01-06-2017 18:45:00 26.5 C 13.27 g/m*3 26.5 C 0 km/h
2531 01-06-2017 18:50:00 25.9 C 13.07 g/m*3 25.9 C 1.6 km/h
2532 01-06-2017 18:55:00 25.4 C 13.18 g/m*3 25.4 C 1.6 km/h
2533 01-06-2017 19:00:00 25.2 C 13.27 g/m*3 25.2 C 0 km/h
2534 01-06-2017 19:05:00 25.1 C 13.2 g/m*3 25.1 C 0 km/h
2535 01-06-2017 19:10:00 24.9 C 13.28 g/m*3 24.9 C 0 km/h
2536 01-06-2017 19:15:00 24.8 C 12.97 g/m*3 24.8 C 0 km/h
2537 01-06-2017 19:20:00 24.6 C 12.83 g/m*3 24.6 C 1.6 km/h
2538 01-06-2017 19:25:00 24.2 C 12.76 g/m*3 24.2 C 0 km/h
2539 01-06-2017 19:30:00 23.9 C 12.76 g/m*3 23.9 C 0 km/h
2540 01-06-2017 19:35:00 23.6 C 12.76 g/m*3 23.6 C 0 km/h
2541 01-06-2017 19:40:00 23.3 C 12.75 g/m*3 23.3 C 1.6 km/h
2542 01-06-2017 19:45:00 23.2 C 12.68 g/m*3 23.2 C 0 km/h
2543 01-06-2017 19:50:00 23 C 12.74 g/m*3 23 C 0 km/h
2544 01-06-2017 19:55:00 22.8 C 12.6 g/m*3 22.8 C 0 km/h
2545 01-06-2017 20:00:00 22.7 C 12.53 g/m*3 22.7 C 0 km/h
2546 01-06-2017 20:05:00 22.6 C 12.46 g/m*3 22.6 C 1.6 km/h
2547 01-06-2017 20:10:00 22.4 C 12.51 g/m*3 22.4 C 1.6 km/h
2548 01-06-2017 20:15:00 22.3 C 12.44 g/m*3 22.3 C 1.6 km/h
2549 01-06-2017 20:20:00 22.3 C 12.44 g/m*3 22.3 C 1.6 km/h
2550 01-06-2017 20:25:00 22.2 C 12.37 g/m*3 22.2 C 1.6 km/h
Sensor: Nr:Datum:Temp:Abs-Feuchte:Windchill:Wind:
Aussen-T/F 2551 01-06-2017 20:30:00 22.1 C 12.3 g/m*3 22.1 C 1.6 km/h
2552 01-06-2017 20:35:00 22.1 C 12.3 g/m*3 22.1 C 1.6 km/h
2553 01-06-2017 20:40:00 22.1 C 12.3 g/m*3 22.1 C 1.6 km/h
2554 01-06-2017 20:45:00 22 C 12.23 g/m*3 22 C 1.6 km/h
2555 01-06-2017 20:50:00 21.9 C 12.16 g/m*3 21.9 C 1.6 km/h
2556 01-06-2017 20:55:00 21.9 C 12.16 g/m*3 21.9 C 1.6 km/h
2557 01-06-2017 21:00:00 21.9 C 12.16 g/m*3 21.9 C 0 km/h
2558 01-06-2017 21:05:00 21.9 C 11.96 g/m*3 21.9 C 1.6 km/h
2559 01-06-2017 21:10:00 21.8 C 11.9 g/m*3 21.8 C 0 km/h
2560 01-06-2017 21:15:00 21.6 C 11.95 g/m*3 21.6 C 1.6 km/h
2561 01-06-2017 21:20:00 21.4 C 11.81 g/m*3 21.4 C 1.6 km/h
2562 01-06-2017 21:25:00 21.2 C 11.68 g/m*3 21.2 C 1.6 km/h
2563 01-06-2017 21:30:00 21.1 C 11.79 g/m*3 21.1 C 1.6 km/h
2564 01-06-2017 21:35:00 20.8 C 11.59 g/m*3 20.8 C 1.6 km/h
2565 01-06-2017 21:40:00 20.7 C 11.52 g/m*3 20.7 C 1.6 km/h
2566 01-06-2017 21:45:00 20.6 C 11.45 g/m*3 20.6 C 1.6 km/h
2567 01-06-2017 21:50:00 20.4 C 11.5 g/m*3 20.4 C 1.6 km/h
2568 01-06-2017 21:55:00 20.3 C 11.43 g/m*3 20.3 C 1.6 km/h
2569 01-06-2017 22:00:00 20.2 C 11.37 g/m*3 20.2 C 1.6 km/h
2570 01-06-2017 22:05:00 20.1 C 11.3 g/m*3 20.1 C 0 km/h
2571 01-06-2017 22:10:00 20 C 11.41 g/m*3 20 C 0 km/h
2572 01-06-2017 22:15:00 19.9 C 11.51 g/m*3 19.9 C 0 km/h
2573 01-06-2017 22:20:00 19.8 C 11.44 g/m*3 19.8 C 1.6 km/h
2574 01-06-2017 22:25:00 19.7 C 11.38 g/m*3 19.7 C 0 km/h
2575 01-06-2017 22:30:00 19.5 C 11.41 g/m*3 19.5 C 1.6 km/h
Sensor: Nr:Datum:Temp:Abs-Feuchte:Windchill:Wind:
Aussen-T/F 2576 01-06-2017 22:35:00 19.4 C 11.35 g/m*3 19.4 C 0 km/h
2577 01-06-2017 22:40:00 19.3 C 11.44 g/m*3 19.3 C 0 km/h
2578 01-06-2017 22:45:00 19.1 C 11.47 g/m*3 19.1 C 0 km/h
2579 01-06-2017 22:50:00 18.8 C 11.27 g/m*3 18.8 C 0 km/h
2580 01-06-2017 22:55:00 18.6 C 11.3 g/m*3 18.6 C 0 km/h
2581 01-06-2017 23:00:00 18.4 C 11.32 g/m*3 18.4 C 0 km/h
2582 01-06-2017 23:05:00 18.2 C 11.35 g/m*3 18.2 C 0 km/h
2583 01-06-2017 23:10:00 18.1 C 11.43 g/m*3 18.1 C 0 km/h
2584 01-06-2017 23:15:00 17.9 C 11.45 g/m*3 17.9 C 0 km/h
2585 01-06-2017 23:20:00 17.7 C 11.32 g/m*3 17.7 C 0 km/h
2586 01-06-2017 23:25:00 17.6 C 11.4 g/m*3 17.6 C 0 km/h
2587 01-06-2017 23:30:00 17.3 C 11.34 g/m*3 17.3 C 0 km/h
2588 01-06-2017 23:35:00 17.2 C 11.28 g/m*3 17.2 C 0 km/h
2589 01-06-2017 23:40:00 17.2 C 11.42 g/m*3 17.2 C 0 km/h
2590 01-06-2017 23:45:00 17.1 C 11.5 g/m*3 17.1 C 0 km/h
2591 01-06-2017 23:50:00 16.9 C 11.36 g/m*3 16.9 C 0 km/h
2592 01-06-2017 23:55:00 16.7 C 11.37 g/m*3 16.7 C 0 km/h
2593 02-06-2017 00:00:00 16.7 C 11.37 g/m*3 16.7 C 0 km/h
2594 02-06-2017 00:05:00 16.7 C 11.37 g/m*3 16.7 C 0 km/h
2595 02-06-2017 00:10:00 16.6 C 11.3 g/m*3 16.6 C 0 km/h
2596 02-06-2017 00:15:00 16.6 C 11.3 g/m*3 16.6 C 0 km/h
2597 02-06-2017 00:20:00 16.4 C 11.31 g/m*3 16.4 C 0 km/h
2598 02-06-2017 00:25:00 16.3 C 11.24 g/m*3 16.3 C 0 km/h
2599 02-06-2017 00:30:00 16.2 C 11.31 g/m*3 16.2 C 0 km/h
2600 02-06-2017 00:35:00 16.1 C 11.24 g/m*3 16.1 C 0 km/h
Sensor: Nr:Datum:Temp:Abs-Feuchte:Windchill:Wind:
Aussen-T/F 2601 02-06-2017 00:40:00 16 C 11.31 g/m*3 16 C 0 km/h
2602 02-06-2017 00:45:00 15.9 C 11.24 g/m*3 15.9 C 0 km/h
2603 02-06-2017 00:50:00 15.8 C 11.17 g/m*3 15.8 C 0 km/h
2604 02-06-2017 00:55:00 15.8 C 11.31 g/m*3 15.8 C 0 km/h
2605 02-06-2017 01:00:00 15.7 C 11.24 g/m*3 15.7 C 0 km/h
2606 02-06-2017 01:05:00 15.6 C 11.3 g/m*3 15.6 C 0 km/h
2607 02-06-2017 01:10:00 15.6 C 11.3 g/m*3 15.6 C 0 km/h
2608 02-06-2017 01:15:00 15.6 C 11.3 g/m*3 15.6 C 0 km/h
2609 02-06-2017 01:20:00 15.5 C 11.24 g/m*3 15.5 C 0 km/h
2610 02-06-2017 01:25:00 15.4 C 11.17 g/m*3 15.4 C 0 km/h
2611 02-06-2017 01:30:00 15.3 C 11.1 g/m*3 15.3 C 0 km/h
2612 02-06-2017 01:35:00 15.3 C 11.23 g/m*3 15.3 C 0 km/h
2613 02-06-2017 01:40:00 15.2 C 11.16 g/m*3 15.2 C 0 km/h
2614 02-06-2017 01:45:00 15.2 C 11.16 g/m*3 15.2 C 0 km/h
2615 02-06-2017 01:50:00 15.1 C 11.09 g/m*3 15.1 C 0 km/h
2616 02-06-2017 01:55:00 15.1 C 11.09 g/m*3 15.1 C 0 km/h
2617 02-06-2017 02:00:00 15 C 11.16 g/m*3 15 C 0 km/h
2618 02-06-2017 02:05:00 14.9 C 11.09 g/m*3 14.9 C 0 km/h
2619 02-06-2017 02:10:00 14.9 C 11.09 g/m*3 14.9 C 0 km/h
2620 02-06-2017 02:15:00 14.8 C 11.02 g/m*3 14.8 C 0 km/h
2621 02-06-2017 02:20:00 14.8 C 11.15 g/m*3 14.8 C 0 km/h
2622 02-06-2017 02:25:00 14.8 C 11.15 g/m*3 14.8 C 0 km/h
2623 02-06-2017 02:30:00 14.8 C 11.02 g/m*3 14.8 C 0 km/h
2624 02-06-2017 02:35:00 14.7 C 11.08 g/m*3 14.7 C 0 km/h
2625 02-06-2017 02:40:00 14.7 C 11.08 g/m*3 14.7 C 0 km/h
Sensor: Nr:Datum:Temp:Abs-Feuchte:Windchill:Wind:
Aussen-T/F 2626 02-06-2017 02:45:00 14.7 C 11.08 g/m*3 14.7 C 0 km/h
2627 02-06-2017 02:50:00 14.6 C 11.01 g/m*3 14.6 C 0 km/h
2628 02-06-2017 02:55:00 14.5 C 10.94 g/m*3 14.5 C 0 km/h
2629 02-06-2017 03:00:00 14.4 C 10.88 g/m*3 14.4 C 0 km/h
2630 02-06-2017 03:05:00 14.4 C 10.88 g/m*3 14.4 C 0 km/h
2631 02-06-2017 03:10:00 14.4 C 10.88 g/m*3 14.4 C 0 km/h
2632 02-06-2017 03:15:00 14.3 C 10.81 g/m*3 14.3 C 0 km/h
2633 02-06-2017 03:20:00 14.3 C 10.81 g/m*3 14.3 C 0 km/h
2634 02-06-2017 03:25:00 14.2 C 10.75 g/m*3 14.2 C 0 km/h
2635 02-06-2017 03:30:00 14.2 C 10.87 g/m*3 14.2 C 0 km/h
2636 02-06-2017 03:35:00 14.1 C 10.8 g/m*3 14.1 C 0 km/h
2637 02-06-2017 03:40:00 14.1 C 10.92 g/m*3 14.1 C 0 km/h
2638 02-06-2017 03:45:00 14.1 C 10.92 g/m*3 14.1 C 0 km/h
2639 02-06-2017 03:50:00 14.1 C 11.04 g/m*3 14.1 C 0 km/h
2640 02-06-2017 03:55:00 14.1 C 10.92 g/m*3 14.1 C 0 km/h
2641 02-06-2017 04:00:00 13.9 C 10.79 g/m*3 13.9 C 0 km/h
2642 02-06-2017 04:05:00 13.9 C 10.79 g/m*3 13.9 C 0 km/h
2643 02-06-2017 04:10:00 13.9 C 10.79 g/m*3 13.9 C 0 km/h
2644 02-06-2017 04:15:00 13.9 C 10.79 g/m*3 13.9 C 0 km/h
2645 02-06-2017 04:20:00 13.8 C 10.72 g/m*3 13.8 C 0 km/h
2646 02-06-2017 04:25:00 13.8 C 10.84 g/m*3 13.8 C 0 km/h
2647 02-06-2017 04:30:00 13.8 C 10.84 g/m*3 13.8 C 0 km/h
2648 02-06-2017 04:35:00 13.9 C 10.91 g/m*3 13.9 C 0 km/h
2649 02-06-2017 04:40:00 13.9 C 11.03 g/m*3 13.9 C 0 km/h
2650 02-06-2017 04:45:00 14.1 C 11.17 g/m*3 14.1 C 0 km/h
Sensor: Nr:Datum:Temp:Abs-Feuchte:Windchill:Wind:
Aussen-T/F 2651 02-06-2017 04:50:00 14.2 C 11.23 g/m*3 14.2 C 0 km/h
2652 02-06-2017 04:55:00 14.3 C 11.3 g/m*3 14.3 C 0 km/h
2653 02-06-2017 05:00:00 14.5 C 11.32 g/m*3 14.5 C 1.6 km/h
2654 02-06-2017 05:05:00 14.7 C 11.46 g/m*3 14.7 C 0 km/h
2655 02-06-2017 05:10:00 14.8 C 11.4 g/m*3 14.8 C 0 km/h
2656 02-06-2017 05:15:00 14.9 C 11.47 g/m*3 14.9 C 0 km/h
2657 02-06-2017 05:20:00 15 C 11.54 g/m*3 15 C 0 km/h
2658 02-06-2017 05:25:00 15.1 C 11.61 g/m*3 15.1 C 0 km/h
2659 02-06-2017 05:30:00 15.1 C 11.61 g/m*3 15.1 C 0 km/h
2660 02-06-2017 05:35:00 15.1 C 11.61 g/m*3 15.1 C 0 km/h
2661 02-06-2017 05:40:00 15.1 C 11.61 g/m*3 15.1 C 0 km/h
2662 02-06-2017 05:45:00 15.1 C 11.61 g/m*3 15.1 C 0 km/h
2663 02-06-2017 05:50:00 15.1 C 11.61 g/m*3 15.1 C 0 km/h
2664 02-06-2017 05:55:00 15.1 C 11.61 g/m*3 15.1 C 0 km/h
2665 02-06-2017 06:00:00 15.1 C 11.61 g/m*3 15.1 C 0 km/h
2666 02-06-2017 06:05:00 15.1 C 11.61 g/m*3 15.1 C 0 km/h
2667 02-06-2017 06:10:00 15.2 C 11.68 g/m*3 15.2 C 0 km/h
2668 02-06-2017 06:15:00 15.2 C 11.68 g/m*3 15.2 C 0 km/h
2669 02-06-2017 06:20:00 15.2 C 11.68 g/m*3 15.2 C 0 km/h
2670 02-06-2017 06:25:00 15.2 C 11.55 g/m*3 15.2 C 0 km/h
2671 02-06-2017 06:30:00 15.1 C 11.48 g/m*3 15.1 C 0 km/h
2672 02-06-2017 06:35:00 15 C 11.41 g/m*3 15 C 0 km/h
2673 02-06-2017 06:40:00 14.9 C 11.34 g/m*3 14.9 C 0 km/h
2674 02-06-2017 06:45:00 14.8 C 11.27 g/m*3 14.8 C 0 km/h
2675 02-06-2017 06:50:00 14.8 C 11.4 g/m*3 14.8 C 0 km/h
Sensor: Nr:Datum:Temp:Abs-Feuchte:Windchill:Wind:
Aussen-T/F 2676 02-06-2017 06:55:00 14.8 C 11.4 g/m*3 14.8 C 0 km/h
2677 02-06-2017 07:00:00 14.8 C 11.53 g/m*3 14.8 C 0 km/h
2678 02-06-2017 07:05:00 14.8 C 11.53 g/m*3 14.8 C 0 km/h
2679 02-06-2017 07:10:00 14.8 C 11.53 g/m*3 14.8 C 0 km/h
2680 02-06-2017 07:15:00 14.8 C 11.53 g/m*3 14.8 C 0 km/h
2681 02-06-2017 07:20:00 14.9 C 11.6 g/m*3 14.9 C 0 km/h
2682 02-06-2017 07:25:00 15 C 11.8 g/m*3 15 C 0 km/h
2683 02-06-2017 07:30:00 15.1 C 11.87 g/m*3 15.1 C 0 km/h
2684 02-06-2017 07:35:00 15.2 C 11.94 g/m*3 15.2 C 0 km/h
2685 02-06-2017 07:40:00 15.3 C 12.01 g/m*3 15.3 C 0 km/h
2686 02-06-2017 07:45:00 15.4 C 11.96 g/m*3 15.4 C 3.2 km/h
2687 02-06-2017 07:50:00 15.6 C 11.97 g/m*3 15.6 C 1.6 km/h
2688 02-06-2017 07:55:00 15.8 C 12.11 g/m*3 15.8 C 0 km/h
2689 02-06-2017 08:00:00 16 C 12.26 g/m*3 16 C 0 km/h
2690 02-06-2017 08:05:00 16.2 C 12.41 g/m*3 16.2 C 0 km/h
2691 02-06-2017 08:10:00 16.4 C 12.42 g/m*3 16.4 C 0 km/h
2692 02-06-2017 08:15:00 16.5 C 12.36 g/m*3 16.5 C 1.6 km/h
2693 02-06-2017 08:20:00 16.7 C 12.22 g/m*3 16.7 C 3.2 km/h
2694 02-06-2017 08:25:00 17 C 12.59 g/m*3 17 C 0 km/h
2695 02-06-2017 08:30:00 17.3 C 12.96 g/m*3 17.3 C 0 km/h
2696 02-06-2017 08:35:00 17.7 C 13.13 g/m*3 17.7 C 0 km/h
2697 02-06-2017 08:40:00 17.9 C 13.13 g/m*3 17.9 C 0 km/h
2698 02-06-2017 08:45:00 18.3 C 12.98 g/m*3 18.3 C 0 km/h
2699 02-06-2017 08:50:00 18.6 C 13.05 g/m*3 18.6 C 0 km/h
2700 02-06-2017 08:55:00 18.8 C 13.05 g/m*3 18.8 C 1.6 km/h
Sensor: Nr:Datum:Temp:Abs-Feuchte:Windchill:Wind:
Aussen-T/F 2701 02-06-2017 09:00:00 19.1 C 12.95 g/m*3 19.1 C 1.6 km/h
2702 02-06-2017 09:05:00 19.3 C 12.94 g/m*3 19.3 C 0 km/h
2703 02-06-2017 09:10:00 19.4 C 13.35 g/m*3 19.4 C 0 km/h
2704 02-06-2017 09:15:00 19.7 C 13.25 g/m*3 19.7 C 0 km/h
2705 02-06-2017 09:20:00 19.8 C 13.32 g/m*3 19.8 C 0 km/h
2706 02-06-2017 09:25:00 20 C 13.31 g/m*3 20 C 0 km/h
2707 02-06-2017 09:30:00 20.2 C 13.99 g/m*3 20.2 C 0 km/h
2708 02-06-2017 09:35:00 20.4 C 14.15 g/m*3 20.4 C 0 km/h
2709 02-06-2017 09:40:00 20.4 C 13.44 g/m*3 20.4 C 1.6 km/h
2710 02-06-2017 09:45:00 20.5 C 13.35 g/m*3 20.5 C 1.6 km/h
2711 02-06-2017 09:50:00 20.6 C 13.6 g/m*3 20.6 C 0 km/h
2712 02-06-2017 09:55:00 20.8 C 13.76 g/m*3 20.8 C 0 km/h
2713 02-06-2017 10:00:00 20.9 C 14.21 g/m*3 20.9 C 0 km/h
2714 02-06-2017 10:05:00 21.1 C 14.19 g/m*3 21.1 C 0 km/h
2715 02-06-2017 10:10:00 21.3 C 13.98 g/m*3 21.3 C 1.6 km/h
2716 02-06-2017 10:15:00 21.4 C 13.87 g/m*3 21.4 C 1.6 km/h
2717 02-06-2017 10:20:00 21.5 C 13.58 g/m*3 21.5 C 1.6 km/h
2718 02-06-2017 10:25:00 21.6 C 13.85 g/m*3 21.6 C 1.6 km/h
2719 02-06-2017 10:30:00 21.7 C 13.73 g/m*3 21.7 C 3.2 km/h
2720 02-06-2017 10:35:00 21.8 C 13.62 g/m*3 21.8 C 1.6 km/h
2721 02-06-2017 10:40:00 22 C 13.97 g/m*3 22 C 1.6 km/h
2722 02-06-2017 10:45:00 22.3 C 14.02 g/m*3 22.3 C 1.6 km/h
2723 02-06-2017 10:50:00 22.5 C 13.98 g/m*3 22.5 C 3.2 km/h
2724 02-06-2017 10:55:00 22.6 C 13.86 g/m*3 22.6 C 3.2 km/h
2725 02-06-2017 11:00:00 22.8 C 14.22 g/m*3 22.8 C 3.2 km/h
Sensor: Nr:Datum:Temp:Abs-Feuchte:Windchill:Wind:
Aussen-T/F 2726 02-06-2017 11:05:00 22.9 C 14.31 g/m*3 22.9 C 1.6 km/h
2727 02-06-2017 11:10:00 23.1 C 14.47 g/m*3 23.1 C 1.6 km/h
2728 02-06-2017 11:15:00 23.2 C 14.55 g/m*3 23.2 C 3.2 km/h
2729 02-06-2017 11:20:00 23.3 C 14.43 g/m*3 23.3 C 1.6 km/h
2730 02-06-2017 11:25:00 23.3 C 14.64 g/m*3 23.3 C 1.6 km/h
2731 02-06-2017 11:30:00 23.3 C 14.43 g/m*3 23.3 C 3.2 km/h
2732 02-06-2017 11:35:00 23.5 C 15.44 g/m*3 23.5 C 0 km/h
2733 02-06-2017 11:40:00 23.7 C 14.97 g/m*3 23.7 C 0 km/h
2734 02-06-2017 11:45:00 23.8 C 15.06 g/m*3 23.8 C 3.2 km/h
2735 02-06-2017 11:50:00 23.9 C 15.58 g/m*3 23.9 C 1.6 km/h
2736 02-06-2017 11:55:00 23.9 C 15.14 g/m*3 23.9 C 0 km/h
2737 02-06-2017 12:00:00 23.8 C 14.63 g/m*3 23.8 C 4.8 km/h
2738 02-06-2017 12:05:00 23.9 C 14.28 g/m*3 23.9 C 4.8 km/h
2739 02-06-2017 12:10:00 23.9 C 14.49 g/m*3 23.9 C 3.2 km/h
2740 02-06-2017 12:15:00 24.1 C 14.44 g/m*3 24.1 C 4.8 km/h
2741 02-06-2017 12:20:00 24.2 C 14.3 g/m*3 24.2 C 1.6 km/h
2742 02-06-2017 12:25:00 24.3 C 14.38 g/m*3 24.3 C 4.8 km/h
2743 02-06-2017 12:30:00 24.5 C 13.43 g/m*3 24.5 C 3.2 km/h
2744 02-06-2017 12:35:00 24.7 C 13.13 g/m*3 24.7 C 4.8 km/h
2745 02-06-2017 12:40:00 24.9 C 13.28 g/m*3 24.9 C 3.2 km/h
2746 02-06-2017 12:45:00 25.2 C 13.04 g/m*3 25.2 C 6.4 km/h
2747 02-06-2017 12:50:00 25.5 C 12.31 g/m*3 25.5 C 11.3 km/h
2748 02-06-2017 12:55:00 25.9 C 12.59 g/m*3 25.9 C 6.4 km/h
2749 02-06-2017 13:00:00 26.3 C 12.38 g/m*3 26.3 C 9.7 km/h
2750 02-06-2017 13:05:00 26.7 C 12.66 g/m*3 26.7 C 8.1 km/h
Sensor: Nr:Datum:Temp:Abs-Feuchte:Windchill:Wind:
Aussen-T/F 2751 02-06-2017 13:10:00 26.9 C 12.29 g/m*3 26.9 C 11.3 km/h
2752 02-06-2017 13:15:00 27.2 C 13.27 g/m*3 27.2 C 3.2 km/h
2753 02-06-2017 13:20:00 27.3 C 13.08 g/m*3 27.3 C 4.8 km/h
2754 02-06-2017 13:25:00 27.6 C 14.9 g/m*3 27.6 C 6.4 km/h
2755 02-06-2017 13:30:00 27.7 C 13.91 g/m*3 27.7 C 1.6 km/h
2756 02-06-2017 13:35:00 27.7 C 13.91 g/m*3 27.7 C 4.8 km/h
2757 02-06-2017 13:40:00 27.7 C 13.91 g/m*3 27.7 C 4.8 km/h
2758 02-06-2017 13:45:00 27.7 C 13.64 g/m*3 27.7 C 8.1 km/h
2759 02-06-2017 13:50:00 27.6 C 12.77 g/m*3 27.6 C 6.4 km/h
2760 02-06-2017 13:55:00 27.6 C 15.16 g/m*3 27.6 C 0 km/h
2761 02-06-2017 14:00:00 27.4 C 15.26 g/m*3 27.4 C 0 km/h
2762 02-06-2017 14:05:00 27.1 C 15.79 g/m*3 27.1 C 1.6 km/h
2763 02-06-2017 14:10:00 26.8 C 15.78 g/m*3 26.8 C 0 km/h
2764 02-06-2017 14:15:00 26.4 C 15.68 g/m*3 26.4 C 0 km/h
2765 02-06-2017 14:20:00 26 C 15.09 g/m*3 26 C 0 km/h
2766 02-06-2017 14:25:00 25.5 C 15.15 g/m*3 25.5 C 0 km/h
2767 02-06-2017 14:30:00 25.1 C 14.82 g/m*3 25.1 C 16.1 km/h
2768 02-06-2017 14:35:00 24.6 C 13.95 g/m*3 24.6 C 22.5 km/h
2769 02-06-2017 14:40:00 24.2 C 13.64 g/m*3 24.2 C 22.5 km/h
2770 02-06-2017 14:45:00 23.7 C 14.76 g/m*3 23.7 C 14.5 km/h
2771 02-06-2017 14:50:00 23 C 15.42 g/m*3 23 C 1.6 km/h
2772 02-06-2017 14:55:00 22.4 C 15.69 g/m*3 22.4 C 1.6 km/h
2773 02-06-2017 15:00:00 21.8 C 15.54 g/m*3 21.8 C 1.6 km/h
2774 02-06-2017 15:05:00 21.4 C 15.75 g/m*3 21.4 C 1.6 km/h
2775 02-06-2017 15:10:00 21 C 15.94 g/m*3 21 C 0 km/h
Sensor: Nr:Datum:Temp:Abs-Feuchte:Windchill:Wind:
Aussen-T/F 2776 02-06-2017 15:15:00 20.7 C 15.66 g/m*3 20.7 C 1.6 km/h
2777 02-06-2017 15:20:00 20.4 C 15.74 g/m*3 20.4 C 1.6 km/h
2778 02-06-2017 15:25:00 20.4 C 15.92 g/m*3 20.4 C 0 km/h
2779 02-06-2017 15:30:00 20.7 C 16.56 g/m*3 20.7 C 0 km/h
2780 02-06-2017 15:35:00 20.8 C 16.66 g/m*3 20.8 C 0 km/h
2781 02-06-2017 15:40:00 20.9 C 16.76 g/m*3 20.9 C 0 km/h
2782 02-06-2017 15:45:00 21 C 16.85 g/m*3 21 C 4.8 km/h
2783 02-06-2017 15:50:00 21.2 C 17.05 g/m*3 21.2 C 3.2 km/h
2784 02-06-2017 15:55:00 21.4 C 17.25 g/m*3 21.4 C 0 km/h
2785 02-06-2017 16:00:00 21.6 C 17.64 g/m*3 21.6 C 0 km/h
2786 02-06-2017 16:05:00 21.7 C 17.55 g/m*3 21.7 C 0 km/h
2787 02-06-2017 16:10:00 21.7 C 17.55 g/m*3 21.7 C 0 km/h
2788 02-06-2017 16:15:00 21.7 C 17.55 g/m*3 21.7 C 0 km/h
2789 02-06-2017 16:20:00 21.7 C 17.36 g/m*3 21.7 C 0 km/h
2790 02-06-2017 16:25:00 21.6 C 17.07 g/m*3 21.6 C 0 km/h
2791 02-06-2017 16:30:00 21.5 C 16.97 g/m*3 21.5 C 0 km/h
2792 02-06-2017 16:35:00 21.4 C 16.87 g/m*3 21.4 C 0 km/h
2793 02-06-2017 16:40:00 21.3 C 16.96 g/m*3 21.3 C 0 km/h
2794 02-06-2017 16:45:00 21.2 C 16.68 g/m*3 21.2 C 0 km/h
2795 02-06-2017 16:50:00 21.1 C 16.77 g/m*3 21.1 C 0 km/h
2796 02-06-2017 16:55:00 20.9 C 16.57 g/m*3 20.9 C 3.2 km/h
2797 02-06-2017 17:00:00 20.8 C 16.48 g/m*3 20.8 C 3.2 km/h
2798 02-06-2017 17:05:00 20.7 C 16.38 g/m*3 20.7 C 1.6 km/h
2799 02-06-2017 17:10:00 20.6 C 16.11 g/m*3 20.6 C 1.6 km/h
2800 02-06-2017 17:15:00 20.5 C 16.01 g/m*3 20.5 C 1.6 km/h
Sensor: Nr:Datum:Temp:Abs-Feuchte:Windchill:Wind:
Aussen-T/F 2801 02-06-2017 17:20:00 20.6 C 16.29 g/m*3 20.6 C 1.6 km/h
2802 02-06-2017 17:25:00 20.6 C 16.47 g/m*3 20.6 C 1.6 km/h
2803 02-06-2017 17:30:00 20.7 C 16.56 g/m*3 20.7 C 0 km/h
2804 02-06-2017 17:35:00 20.9 C 16.76 g/m*3 20.9 C 0 km/h
2805 02-06-2017 17:40:00 20.9 C 16.76 g/m*3 20.9 C 1.6 km/h
2806 02-06-2017 17:45:00 20.8 C 16.12 g/m*3 20.8 C 1.6 km/h
2807 02-06-2017 17:50:00 20.8 C 16.12 g/m*3 20.8 C 1.6 km/h
2808 02-06-2017 17:55:00 20.9 C 16.57 g/m*3 20.9 C 1.6 km/h
2809 02-06-2017 18:00:00 20.8 C 16.12 g/m*3 20.8 C 1.6 km/h
2810 02-06-2017 18:05:00 20.8 C 16.12 g/m*3 20.8 C 0 km/h
2811 02-06-2017 18:10:00 20.8 C 15.93 g/m*3 20.8 C 1.6 km/h
2812 02-06-2017 18:15:00 20.9 C 16.03 g/m*3 20.9 C 0 km/h
2813 02-06-2017 18:20:00 20.8 C 16.12 g/m*3 20.8 C 0 km/h
2814 02-06-2017 18:25:00 20.8 C 15.93 g/m*3 20.8 C 1.6 km/h
2815 02-06-2017 18:30:00 20.7 C 15.66 g/m*3 20.7 C 1.6 km/h
2816 02-06-2017 18:35:00 20.4 C 15.39 g/m*3 20.4 C 1.6 km/h
2817 02-06-2017 18:40:00 20.2 C 15.21 g/m*3 20.2 C 0 km/h
2818 02-06-2017 18:45:00 20 C 15.04 g/m*3 20 C 1.6 km/h
2819 02-06-2017 18:50:00 19.8 C 14.86 g/m*3 19.8 C 1.6 km/h
2820 02-06-2017 18:55:00 19.6 C 14.86 g/m*3 19.6 C 1.6 km/h
2821 02-06-2017 19:00:00 19.4 C 14.85 g/m*3 19.4 C 0 km/h
2822 02-06-2017 19:05:00 19.3 C 14.76 g/m*3 19.3 C 1.6 km/h
2823 02-06-2017 19:10:00 19.2 C 14.84 g/m*3 19.2 C 1.6 km/h
2824 02-06-2017 19:15:00 19.2 C 14.84 g/m*3 19.2 C 0 km/h
2825 02-06-2017 19:20:00 19.2 C 15.01 g/m*3 19.2 C 1.6 km/h
Sensor: Nr:Datum:Temp:Abs-Feuchte:Windchill:Wind:
Aussen-T/F 2826 02-06-2017 19:25:00 19.3 C 15.26 g/m*3 19.3 C 1.6 km/h
2827 02-06-2017 19:30:00 19.4 C 15.35 g/m*3 19.4 C 0 km/h
2828 02-06-2017 19:35:00 19.6 C 15.7 g/m*3 19.6 C 1.6 km/h
2829 02-06-2017 19:40:00 19.7 C 15.62 g/m*3 19.7 C 0 km/h
2830 02-06-2017 19:45:00 19.8 C 15.71 g/m*3 19.8 C 0 km/h
2831 02-06-2017 19:50:00 20 C 15.9 g/m*3 20 C 0 km/h
2832 02-06-2017 19:55:00 20.1 C 15.99 g/m*3 20.1 C 0 km/h
2833 02-06-2017 20:00:00 20.2 C 16.09 g/m*3 20.2 C 0 km/h
2834 02-06-2017 20:05:00 20.3 C 16.18 g/m*3 20.3 C 0 km/h
2835 02-06-2017 20:10:00 20.2 C 15.91 g/m*3 20.2 C 0 km/h
2836 02-06-2017 20:15:00 20.2 C 15.91 g/m*3 20.2 C 0 km/h
2837 02-06-2017 20:20:00 20.1 C 15.82 g/m*3 20.1 C 0 km/h
2838 02-06-2017 20:25:00 20 C 15.73 g/m*3 20 C 1.6 km/h
2839 02-06-2017 20:30:00 19.9 C 15.63 g/m*3 19.9 C 0 km/h
2840 02-06-2017 20:35:00 19.8 C 15.54 g/m*3 19.8 C 0 km/h
2841 02-06-2017 20:40:00 19.8 C 15.54 g/m*3 19.8 C 0 km/h
2842 02-06-2017 20:45:00 19.7 C 15.45 g/m*3 19.7 C 0 km/h
2843 02-06-2017 20:50:00 19.6 C 15.36 g/m*3 19.6 C 1.6 km/h
2844 02-06-2017 20:55:00 19.5 C 15.27 g/m*3 19.5 C 0 km/h
2845 02-06-2017 21:00:00 19.4 C 15.18 g/m*3 19.4 C 0 km/h
2846 02-06-2017 21:05:00 19.3 C 15.26 g/m*3 19.3 C 0 km/h
2847 02-06-2017 21:10:00 19.3 C 15.26 g/m*3 19.3 C 0 km/h
2848 02-06-2017 21:15:00 19.2 C 15.17 g/m*3 19.2 C 1.6 km/h
2849 02-06-2017 21:20:00 19.2 C 15.17 g/m*3 19.2 C 0 km/h
2850 02-06-2017 21:25:00 19.1 C 15.08 g/m*3 19.1 C 0 km/h
Sensor: Nr:Datum:Temp:Abs-Feuchte:Windchill:Wind:
Aussen-T/F 2851 02-06-2017 21:30:00 19.1 C 15.08 g/m*3 19.1 C 0 km/h
2852 02-06-2017 21:35:00 18.9 C 14.9 g/m*3 18.9 C 0 km/h
2853 02-06-2017 21:40:00 18.9 C 14.9 g/m*3 18.9 C 0 km/h
2854 02-06-2017 21:45:00 18.8 C 14.82 g/m*3 18.8 C 0 km/h
2855 02-06-2017 21:50:00 18.7 C 14.73 g/m*3 18.7 C 1.6 km/h
2856 02-06-2017 21:55:00 18.7 C 14.73 g/m*3 18.7 C 0 km/h
2857 02-06-2017 22:00:00 18.6 C 14.64 g/m*3 18.6 C 0 km/h
2858 02-06-2017 22:05:00 18.5 C 14.56 g/m*3 18.5 C 0 km/h
2859 02-06-2017 22:10:00 18.4 C 14.47 g/m*3 18.4 C 1.6 km/h
2860 02-06-2017 22:15:00 18.3 C 14.38 g/m*3 18.3 C 1.6 km/h
2861 02-06-2017 22:20:00 18.3 C 14.38 g/m*3 18.3 C 0 km/h
2862 02-06-2017 22:25:00 18.3 C 14.38 g/m*3 18.3 C 0 km/h
2863 02-06-2017 22:30:00 18.2 C 14.3 g/m*3 18.2 C 0 km/h
2864 02-06-2017 22:35:00 18.1 C 14.21 g/m*3 18.1 C 0 km/h
2865 02-06-2017 22:40:00 18 C 14.13 g/m*3 18 C 0 km/h
2866 02-06-2017 22:45:00 17.9 C 14.05 g/m*3 17.9 C 0 km/h
2867 02-06-2017 22:50:00 17.8 C 13.96 g/m*3 17.8 C 0 km/h
2868 02-06-2017 22:55:00 17.8 C 13.96 g/m*3 17.8 C 0 km/h
2869 02-06-2017 23:00:00 17.8 C 14.12 g/m*3 17.8 C 0 km/h
2870 02-06-2017 23:05:00 17.7 C 14.03 g/m*3 17.7 C 0 km/h
2871 02-06-2017 23:10:00 17.7 C 14.03 g/m*3 17.7 C 0 km/h
2872 02-06-2017 23:15:00 17.7 C 14.03 g/m*3 17.7 C 0 km/h
2873 02-06-2017 23:20:00 17.7 C 14.03 g/m*3 17.7 C 0 km/h
2874 02-06-2017 23:25:00 17.7 C 14.03 g/m*3 17.7 C 0 km/h
2875 02-06-2017 23:30:00 17.6 C 13.95 g/m*3 17.6 C 0 km/h
Sensor: Nr:Datum:Temp:Abs-Feuchte:Windchill:Wind:
Aussen-T/F 2876 02-06-2017 23:35:00 17.6 C 13.95 g/m*3 17.6 C 0 km/h
2877 02-06-2017 23:40:00 17.4 C 13.78 g/m*3 17.4 C 0 km/h
2878 02-06-2017 23:45:00 17.3 C 13.7 g/m*3 17.3 C 0 km/h
2879 02-06-2017 23:50:00 17.3 C 13.7 g/m*3 17.3 C 0 km/h
2880 02-06-2017 23:55:00 17.3 C 13.7 g/m*3 17.3 C 0 km/h
2881 03-06-2017 00:00:00 17.2 C 13.77 g/m*3 17.2 C 0 km/h
2882 03-06-2017 00:05:00 17.2 C 13.77 g/m*3 17.2 C 0 km/h
2883 03-06-2017 00:10:00 17.2 C 13.77 g/m*3 17.2 C 0 km/h
2884 03-06-2017 00:15:00 17.1 C 13.68 g/m*3 17.1 C 0 km/h
2885 03-06-2017 00:20:00 16.9 C 13.52 g/m*3 16.9 C 0 km/h
2886 03-06-2017 00:25:00 16.9 C 13.52 g/m*3 16.9 C 0 km/h
2887 03-06-2017 00:30:00 16.8 C 13.44 g/m*3 16.8 C 0 km/h
2888 03-06-2017 00:35:00 16.8 C 13.44 g/m*3 16.8 C 0 km/h
2889 03-06-2017 00:40:00 16.7 C 13.36 g/m*3 16.7 C 0 km/h
2890 03-06-2017 00:45:00 16.7 C 13.36 g/m*3 16.7 C 0 km/h
2891 03-06-2017 00:50:00 16.6 C 13.28 g/m*3 16.6 C 0 km/h
2892 03-06-2017 00:55:00 16.6 C 13.28 g/m*3 16.6 C 0 km/h
2893 03-06-2017 01:00:00 16.6 C 13.28 g/m*3 16.6 C 0 km/h
2894 03-06-2017 01:05:00 16.6 C 13.28 g/m*3 16.6 C 0 km/h
2895 03-06-2017 01:10:00 16.6 C 13.28 g/m*3 16.6 C 0 km/h
2896 03-06-2017 01:15:00 16.6 C 13.42 g/m*3 16.6 C 0 km/h
2897 03-06-2017 01:20:00 16.5 C 13.34 g/m*3 16.5 C 0 km/h
2898 03-06-2017 01:25:00 16.4 C 13.26 g/m*3 16.4 C 0 km/h
2899 03-06-2017 01:30:00 16.4 C 13.26 g/m*3 16.4 C 0 km/h
2900 03-06-2017 01:35:00 16.3 C 13.04 g/m*3 16.3 C 0 km/h
Sensor: Nr:Datum:Temp:Abs-Feuchte:Windchill:Wind:
Aussen-T/F 2901 03-06-2017 01:40:00 16.2 C 13.1 g/m*3 16.2 C 0 km/h
2902 03-06-2017 01:45:00 16.2 C 13.1 g/m*3 16.2 C 0 km/h
2903 03-06-2017 01:50:00 16.2 C 13.1 g/m*3 16.2 C 0 km/h
2904 03-06-2017 01:55:00 16.2 C 13.1 g/m*3 16.2 C 0 km/h
2905 03-06-2017 02:00:00 16.2 C 13.1 g/m*3 16.2 C 0 km/h
2906 03-06-2017 02:05:00 16.2 C 13.1 g/m*3 16.2 C 0 km/h
2907 03-06-2017 02:10:00 16.2 C 13.1 g/m*3 16.2 C 0 km/h
2908 03-06-2017 02:15:00 16.1 C 13.02 g/m*3 16.1 C 0 km/h
2909 03-06-2017 02:20:00 16.1 C 13.02 g/m*3 16.1 C 0 km/h
2910 03-06-2017 02:25:00 16 C 12.94 g/m*3 16 C 0 km/h
2911 03-06-2017 02:30:00 16.1 C 13.16 g/m*3 16.1 C 0 km/h
2912 03-06-2017 02:35:00 16.2 C 13.1 g/m*3 16.2 C 0 km/h
2913 03-06-2017 02:40:00 16.1 C 13.02 g/m*3 16.1 C 0 km/h
2914 03-06-2017 02:45:00 16 C 12.94 g/m*3 16 C 0 km/h
2915 03-06-2017 02:50:00 15.9 C 12.87 g/m*3 15.9 C 0 km/h
2916 03-06-2017 02:55:00 15.9 C 12.87 g/m*3 15.9 C 0 km/h
2917 03-06-2017 03:00:00 15.8 C 12.79 g/m*3 15.8 C 0 km/h
2918 03-06-2017 03:05:00 15.9 C 13 g/m*3 15.9 C 0 km/h
2919 03-06-2017 03:10:00 15.9 C 13 g/m*3 15.9 C 0 km/h
2920 03-06-2017 03:15:00 16 C 13.08 g/m*3 16 C 0 km/h
2921 03-06-2017 03:20:00 16.1 C 13.16 g/m*3 16.1 C 0 km/h
2922 03-06-2017 03:25:00 16.3 C 13.32 g/m*3 16.3 C 0 km/h
2923 03-06-2017 03:30:00 16.5 C 13.48 g/m*3 16.5 C 0 km/h
2924 03-06-2017 03:35:00 16.6 C 13.56 g/m*3 16.6 C 0 km/h
2925 03-06-2017 03:40:00 16.7 C 13.64 g/m*3 16.7 C 0 km/h
Sensor: Nr:Datum:Temp:Abs-Feuchte:Windchill:Wind:
Aussen-T/F 2926 03-06-2017 03:45:00 16.6 C 13.56 g/m*3 16.6 C 0 km/h
2927 03-06-2017 03:50:00 16.6 C 13.56 g/m*3 16.6 C 0 km/h
2928 03-06-2017 03:55:00 16.6 C 13.56 g/m*3 16.6 C 0 km/h
2929 03-06-2017 04:00:00 16.5 C 13.48 g/m*3 16.5 C 0 km/h
2930 03-06-2017 04:05:00 16.4 C 13.4 g/m*3 16.4 C 0 km/h
2931 03-06-2017 04:10:00 16.3 C 13.32 g/m*3 16.3 C 0 km/h
2932 03-06-2017 04:15:00 16.3 C 13.32 g/m*3 16.3 C 0 km/h
2933 03-06-2017 04:20:00 16.2 C 13.24 g/m*3 16.2 C 0 km/h
2934 03-06-2017 04:25:00 16.1 C 13.02 g/m*3 16.1 C 0 km/h
2935 03-06-2017 04:30:00 16.1 C 13.16 g/m*3 16.1 C 0 km/h
2936 03-06-2017 04:35:00 16 C 13.08 g/m*3 16 C 0 km/h
2937 03-06-2017 04:40:00 16.1 C 13.16 g/m*3 16.1 C 0 km/h
2938 03-06-2017 04:45:00 16.1 C 13.16 g/m*3 16.1 C 0 km/h
2939 03-06-2017 04:50:00 16.1 C 13.16 g/m*3 16.1 C 0 km/h
2940 03-06-2017 04:55:00 16.1 C 13.16 g/m*3 16.1 C 0 km/h
2941 03-06-2017 05:00:00 16.2 C 13.24 g/m*3 16.2 C 0 km/h
2942 03-06-2017 05:05:00 16.2 C 13.24 g/m*3 16.2 C 3.2 km/h
2943 03-06-2017 05:10:00 16.3 C 13.32 g/m*3 16.3 C 0 km/h
2944 03-06-2017 05:15:00 16.4 C 13.4 g/m*3 16.4 C 0 km/h
2945 03-06-2017 05:20:00 16.4 C 13.4 g/m*3 16.4 C 3.2 km/h
2946 03-06-2017 05:25:00 16.5 C 13.48 g/m*3 16.5 C 1.6 km/h
2947 03-06-2017 05:30:00 16.5 C 13.48 g/m*3 16.5 C 0 km/h
2948 03-06-2017 05:35:00 16.4 C 13.4 g/m*3 16.4 C 1.6 km/h
2949 03-06-2017 05:40:00 16.4 C 13.4 g/m*3 16.4 C 1.6 km/h
2950 03-06-2017 05:45:00 16.3 C 13.32 g/m*3 16.3 C 0 km/h
Sensor: Nr:Datum:Temp:Abs-Feuchte:Windchill:Wind:
Aussen-T/F 2951 03-06-2017 05:50:00 16.3 C 13.32 g/m*3 16.3 C 0 km/h
2952 03-06-2017 05:55:00 16.3 C 13.32 g/m*3 16.3 C 0 km/h
2953 03-06-2017 06:00:00 16.3 C 13.32 g/m*3 16.3 C 0 km/h
2954 03-06-2017 06:05:00 16.3 C 13.32 g/m*3 16.3 C 0 km/h
2955 03-06-2017 06:10:00 16.3 C 13.32 g/m*3 16.3 C 0 km/h
2956 03-06-2017 06:15:00 16.4 C 13.4 g/m*3 16.4 C 0 km/h
2957 03-06-2017 06:20:00 16.4 C 13.4 g/m*3 16.4 C 0 km/h
2958 03-06-2017 06:25:00 16.4 C 13.4 g/m*3 16.4 C 0 km/h
2959 03-06-2017 06:30:00 16.4 C 13.4 g/m*3 16.4 C 0 km/h
2960 03-06-2017 06:35:00 16.5 C 13.48 g/m*3 16.5 C 0 km/h
2961 03-06-2017 06:40:00 16.6 C 13.7 g/m*3 16.6 C 0 km/h
2962 03-06-2017 06:45:00 16.7 C 13.79 g/m*3 16.7 C 0 km/h
2963 03-06-2017 06:50:00 16.7 C 13.79 g/m*3 16.7 C 0 km/h
2964 03-06-2017 06:55:00 16.8 C 13.87 g/m*3 16.8 C 1.6 km/h
2965 03-06-2017 07:00:00 16.9 C 13.95 g/m*3 16.9 C 1.6 km/h
2966 03-06-2017 07:05:00 17.1 C 14.12 g/m*3 17.1 C 0 km/h
2967 03-06-2017 07:10:00 17.2 C 14.2 g/m*3 17.2 C 0 km/h
2968 03-06-2017 07:15:00 17.2 C 14.2 g/m*3 17.2 C 0 km/h
2969 03-06-2017 07:20:00 17.3 C 14.14 g/m*3 17.3 C 0 km/h
2970 03-06-2017 07:25:00 17.3 C 14.29 g/m*3 17.3 C 0 km/h
2971 03-06-2017 07:30:00 17.4 C 14.38 g/m*3 17.4 C 1.6 km/h
2972 03-06-2017 07:35:00 17.5 C 14.31 g/m*3 17.5 C 1.6 km/h
2973 03-06-2017 07:40:00 17.5 C 14.31 g/m*3 17.5 C 0 km/h
2974 03-06-2017 07:45:00 17.4 C 14.23 g/m*3 17.4 C 0 km/h
2975 03-06-2017 07:50:00 17.4 C 14.23 g/m*3 17.4 C 1.6 km/h
Sensor: Nr:Datum:Temp:Abs-Feuchte:Windchill:Wind:
Aussen-T/F 2976 03-06-2017 07:55:00 17.5 C 14.31 g/m*3 17.5 C 0 km/h
2977 03-06-2017 08:00:00 17.6 C 14.4 g/m*3 17.6 C 0 km/h
2978 03-06-2017 08:05:00 17.6 C 14.4 g/m*3 17.6 C 0 km/h
2979 03-06-2017 08:10:00 17.6 C 14.4 g/m*3 17.6 C 0 km/h
2980 03-06-2017 08:15:00 17.7 C 14.48 g/m*3 17.7 C 1.6 km/h
2981 03-06-2017 08:20:00 17.7 C 14.48 g/m*3 17.7 C 0 km/h
2982 03-06-2017 08:25:00 17.7 C 14.48 g/m*3 17.7 C 0 km/h
2983 03-06-2017 08:30:00 17.7 C 14.48 g/m*3 17.7 C 0 km/h
2984 03-06-2017 08:35:00 17.8 C 14.57 g/m*3 17.8 C 1.6 km/h
2985 03-06-2017 08:40:00 17.8 C 14.42 g/m*3 17.8 C 0 km/h
2986 03-06-2017 08:45:00 17.9 C 14.5 g/m*3 17.9 C 0 km/h
2987 03-06-2017 08:50:00 18 C 14.59 g/m*3 18 C 0 km/h
2988 03-06-2017 08:55:00 18.1 C 14.68 g/m*3 18.1 C 0 km/h
2989 03-06-2017 09:00:00 18.1 C 14.68 g/m*3 18.1 C 1.6 km/h
2990 03-06-2017 09:05:00 18.2 C 14.77 g/m*3 18.2 C 0 km/h
2991 03-06-2017 09:10:00 18.3 C 14.85 g/m*3 18.3 C 0 km/h
2992 03-06-2017 09:15:00 18.3 C 14.85 g/m*3 18.3 C 0 km/h
2993 03-06-2017 09:20:00 18.4 C 14.78 g/m*3 18.4 C 0 km/h
2994 03-06-2017 09:25:00 18.4 C 14.78 g/m*3 18.4 C 0 km/h
2995 03-06-2017 09:30:00 18.6 C 14.96 g/m*3 18.6 C 1.6 km/h
2996 03-06-2017 09:35:00 18.7 C 15.05 g/m*3 18.7 C 0 km/h
2997 03-06-2017 09:40:00 18.7 C 15.05 g/m*3 18.7 C 0 km/h
2998 03-06-2017 09:45:00 18.8 C 15.14 g/m*3 18.8 C 0 km/h
2999 03-06-2017 09:50:00 18.9 C 15.23 g/m*3 18.9 C 0 km/h
3000 03-06-2017 09:55:00 19 C 15.16 g/m*3 19 C 0 km/h
Sensor: Nr:Datum:Temp:Abs-Feuchte:Windchill:Wind:
Aussen-T/F 3001 03-06-2017 10:00:00 19.1 C 15.25 g/m*3 19.1 C 1.6 km/h
3002 03-06-2017 10:05:00 19.2 C 15.34 g/m*3 19.2 C 0 km/h
3003 03-06-2017 10:10:00 19.2 C 15.34 g/m*3 19.2 C 0 km/h
3004 03-06-2017 10:15:00 19.3 C 15.43 g/m*3 19.3 C 0 km/h
3005 03-06-2017 10:20:00 19.4 C 15.52 g/m*3 19.4 C 0 km/h
3006 03-06-2017 10:25:00 19.5 C 15.61 g/m*3 19.5 C 1.6 km/h
3007 03-06-2017 10:30:00 19.6 C 15.7 g/m*3 19.6 C 0 km/h
3008 03-06-2017 10:35:00 19.6 C 15.7 g/m*3 19.6 C 0 km/h
3009 03-06-2017 10:40:00 19.7 C 15.79 g/m*3 19.7 C 0 km/h
3010 03-06-2017 10:45:00 19.8 C 15.89 g/m*3 19.8 C 0 km/h
3011 03-06-2017 10:50:00 20 C 16.07 g/m*3 20 C 1.6 km/h
3012 03-06-2017 10:55:00 20.1 C 16.17 g/m*3 20.1 C 1.6 km/h
3013 03-06-2017 11:00:00 20.2 C 16.09 g/m*3 20.2 C 0 km/h
3014 03-06-2017 11:05:00 20.3 C 16.18 g/m*3 20.3 C 0 km/h
3015 03-06-2017 11:10:00 20.5 C 16.37 g/m*3 20.5 C 1.6 km/h
3016 03-06-2017 11:15:00 20.7 C 16.56 g/m*3 20.7 C 1.6 km/h
3017 03-06-2017 11:20:00 20.8 C 16.48 g/m*3 20.8 C 1.6 km/h
3018 03-06-2017 11:25:00 20.9 C 16.39 g/m*3 20.9 C 1.6 km/h
3019 03-06-2017 11:30:00 21 C 16.3 g/m*3 21 C 3.2 km/h
3020 03-06-2017 11:35:00 21.1 C 16.21 g/m*3 21.1 C 0 km/h
3021 03-06-2017 11:40:00 21.2 C 16.31 g/m*3 21.2 C 1.6 km/h
3022 03-06-2017 11:45:00 21.3 C 16.4 g/m*3 21.3 C 1.6 km/h
3023 03-06-2017 11:50:00 21.5 C 16.59 g/m*3 21.5 C 0 km/h
3024 03-06-2017 11:55:00 21.7 C 16.98 g/m*3 21.7 C 0 km/h
3025 03-06-2017 12:00:00 21.7 C 16.6 g/m*3 21.7 C 3.2 km/h
Sensor: Nr:Datum:Temp:Abs-Feuchte:Windchill:Wind:
Aussen-T/F 3026 03-06-2017 12:05:00 21.9 C 16.98 g/m*3 21.9 C 0 km/h
3027 03-06-2017 12:10:00 22.1 C 16.59 g/m*3 22.1 C 0 km/h
3028 03-06-2017 12:15:00 22.2 C 16.3 g/m*3 22.2 C 4.8 km/h
3029 03-06-2017 12:20:00 22.4 C 16.09 g/m*3 22.4 C 8.1 km/h
3030 03-06-2017 12:25:00 22.7 C 16.57 g/m*3 22.7 C 4.8 km/h
3031 03-06-2017 12:30:00 22.8 C 16.66 g/m*3 22.8 C 4.8 km/h
3032 03-06-2017 12:35:00 23 C 16.85 g/m*3 23 C 0 km/h
3033 03-06-2017 12:40:00 23.2 C 16.84 g/m*3 23.2 C 3.2 km/h
3034 03-06-2017 12:45:00 23.3 C 16.73 g/m*3 23.3 C 4.8 km/h
3035 03-06-2017 12:50:00 23.5 C 16.5 g/m*3 23.5 C 9.7 km/h
3036 03-06-2017 12:55:00 23.7 C 16.47 g/m*3 23.7 C 8.1 km/h
3037 03-06-2017 13:00:00 23.9 C 16.23 g/m*3 23.9 C 11.3 km/h
3038 03-06-2017 13:05:00 24.1 C 16.41 g/m*3 24.1 C 9.7 km/h
3039 03-06-2017 13:10:00 24.3 C 16.82 g/m*3 24.3 C 4.8 km/h
3040 03-06-2017 13:15:00 24.2 C 16.06 g/m*3 24.2 C 6.4 km/h
3041 03-06-2017 13:20:00 23.9 C 15.58 g/m*3 23.9 C 22.5 km/h
3042 03-06-2017 13:25:00 21.9 C 13.89 g/m*3 21.9 C 25.7 km/h
3043 03-06-2017 13:30:00 19.4 C 13.35 g/m*3 19.4 C 17.7 km/h
3044 03-06-2017 13:35:00 18.4 C 13.53 g/m*3 18.4 C 8.1 km/h
3045 03-06-2017 13:40:00 18.2 C 13.83 g/m*3 18.2 C 0 km/h
3046 03-06-2017 13:45:00 18.3 C 14.38 g/m*3 18.3 C 1.6 km/h
3047 03-06-2017 13:50:00 18.5 C 14.71 g/m*3 18.5 C 1.6 km/h
3048 03-06-2017 13:55:00 18.6 C 14.8 g/m*3 18.6 C 0 km/h
3049 03-06-2017 14:00:00 18.7 C 14.89 g/m*3 18.7 C 1.6 km/h
3050 03-06-2017 14:05:00 18.8 C 14.98 g/m*3 18.8 C 0 km/h
Sensor: Nr:Datum:Temp:Abs-Feuchte:Windchill:Wind:
Aussen-T/F 3051 03-06-2017 14:10:00 19.1 C 15.41 g/m*3 19.1 C 3.2 km/h
3052 03-06-2017 14:15:00 19.2 C 15.5 g/m*3 19.2 C 1.6 km/h
3053 03-06-2017 14:20:00 19.2 C 15.34 g/m*3 19.2 C 0 km/h
3054 03-06-2017 14:25:00 19.2 C 15.5 g/m*3 19.2 C 0 km/h
3055 03-06-2017 14:30:00 19.1 C 15.41 g/m*3 19.1 C 3.2 km/h
3056 03-06-2017 14:35:00 19 C 15.32 g/m*3 19 C 0 km/h
3057 03-06-2017 14:40:00 18.9 C 15.23 g/m*3 18.9 C 0 km/h
3058 03-06-2017 14:45:00 19.2 C 15.66 g/m*3 19.2 C 0 km/h
3059 03-06-2017 14:50:00 19.5 C 15.94 g/m*3 19.5 C 1.6 km/h
3060 03-06-2017 14:55:00 19.9 C 16.49 g/m*3 19.9 C 0 km/h
3061 03-06-2017 15:00:00 20.6 C 17.36 g/m*3 20.6 C 3.2 km/h
3062 03-06-2017 15:05:00 20.6 C 17.18 g/m*3 20.6 C 0 km/h
3063 03-06-2017 15:10:00 20.6 C 17 g/m*3 20.6 C 1.6 km/h
3064 03-06-2017 15:15:00 20.6 C 17 g/m*3 20.6 C 1.6 km/h
3065 03-06-2017 15:20:00 20.7 C 17.1 g/m*3 20.7 C 1.6 km/h
3066 03-06-2017 15:25:00 20.8 C 17.02 g/m*3 20.8 C 1.6 km/h
3067 03-06-2017 15:30:00 20.9 C 17.3 g/m*3 20.9 C 0 km/h
3068 03-06-2017 15:35:00 21.2 C 17.61 g/m*3 21.2 C 0 km/h
3069 03-06-2017 15:40:00 21.7 C 18.31 g/m*3 21.7 C 0 km/h
3070 03-06-2017 15:45:00 21.8 C 18.23 g/m*3 21.8 C 0 km/h
3071 03-06-2017 15:50:00 21.8 C 18.23 g/m*3 21.8 C 0 km/h
3072 03-06-2017 15:55:00 22.1 C 18.54 g/m*3 22.1 C 0 km/h
3073 03-06-2017 16:00:00 22.1 C 18.54 g/m*3 22.1 C 0 km/h
3074 03-06-2017 16:05:00 22.1 C 18.35 g/m*3 22.1 C 0 km/h
3075 03-06-2017 16:10:00 21.9 C 18.14 g/m*3 21.9 C 0 km/h
Sensor: Nr:Datum:Temp:Abs-Feuchte:Windchill:Wind:
Aussen-T/F 3076 03-06-2017 16:15:00 21.7 C 17.74 g/m*3 21.7 C 0 km/h
3077 03-06-2017 16:20:00 21.6 C 17.64 g/m*3 21.6 C 0 km/h
3078 03-06-2017 16:25:00 21.6 C 17.83 g/m*3 21.6 C 0 km/h
3079 03-06-2017 16:30:00 21.7 C 17.93 g/m*3 21.7 C 0 km/h
3080 03-06-2017 16:35:00 21.7 C 17.93 g/m*3 21.7 C 0 km/h
3081 03-06-2017 16:40:00 21.7 C 17.93 g/m*3 21.7 C 0 km/h
3082 03-06-2017 16:45:00 21.8 C 18.03 g/m*3 21.8 C 0 km/h
3083 03-06-2017 16:50:00 22.1 C 18.35 g/m*3 22.1 C 0 km/h
3084 03-06-2017 16:55:00 22.2 C 18.45 g/m*3 22.2 C 0 km/h
3085 03-06-2017 17:00:00 22.3 C 18.56 g/m*3 22.3 C 0 km/h
3086 03-06-2017 17:05:00 22.3 C 18.56 g/m*3 22.3 C 0 km/h
3087 03-06-2017 17:10:00 22.2 C 18.45 g/m*3 22.2 C 0 km/h
3088 03-06-2017 17:15:00 22.2 C 18.45 g/m*3 22.2 C 0 km/h
3089 03-06-2017 17:20:00 22.2 C 18.45 g/m*3 22.2 C 0 km/h
3090 03-06-2017 17:25:00 22.2 C 18.45 g/m*3 22.2 C 0 km/h
3091 03-06-2017 17:30:00 22.3 C 18.56 g/m*3 22.3 C 0 km/h
3092 03-06-2017 17:35:00 22.4 C 18.67 g/m*3 22.4 C 0 km/h
3093 03-06-2017 17:40:00 22.4 C 18.67 g/m*3 22.4 C 0 km/h
3094 03-06-2017 17:45:00 22.4 C 18.67 g/m*3 22.4 C 0 km/h
3095 03-06-2017 17:50:00 22.5 C 18.78 g/m*3 22.5 C 0 km/h
3096 03-06-2017 17:55:00 22.6 C 18.68 g/m*3 22.6 C 0 km/h
3097 03-06-2017 18:00:00 22.7 C 18.99 g/m*3 22.7 C 0 km/h
3098 03-06-2017 18:05:00 22.7 C 18.79 g/m*3 22.7 C 0 km/h
3099 03-06-2017 18:10:00 22.6 C 18.48 g/m*3 22.6 C 0 km/h
3100 03-06-2017 18:15:00 22.6 C 18.48 g/m*3 22.6 C 0 km/h
Sensor: Nr:Datum:Temp:Abs-Feuchte:Windchill:Wind:
Aussen-T/F 3101 03-06-2017 18:20:00 22.5 C 18.38 g/m*3 22.5 C 0 km/h
3102 03-06-2017 18:25:00 22.5 C 18.38 g/m*3 22.5 C 1.6 km/h
3103 03-06-2017 18:30:00 22.5 C 18.38 g/m*3 22.5 C 0 km/h
3104 03-06-2017 18:35:00 22.4 C 18.27 g/m*3 22.4 C 0 km/h
3105 03-06-2017 18:40:00 22.4 C 18.27 g/m*3 22.4 C 1.6 km/h
3106 03-06-2017 18:45:00 22.2 C 17.87 g/m*3 22.2 C 0 km/h
3107 03-06-2017 18:50:00 22.1 C 17.76 g/m*3 22.1 C 0 km/h
3108 03-06-2017 18:55:00 21.9 C 17.56 g/m*3 21.9 C 0 km/h
3109 03-06-2017 19:00:00 21.8 C 17.46 g/m*3 21.8 C 0 km/h
3110 03-06-2017 19:05:00 21.7 C 17.36 g/m*3 21.7 C 0 km/h
3111 03-06-2017 19:10:00 21.5 C 17.35 g/m*3 21.5 C 0 km/h
3112 03-06-2017 19:15:00 21.3 C 17.15 g/m*3 21.3 C 0 km/h
3113 03-06-2017 19:20:00 21.2 C 17.05 g/m*3 21.2 C 0 km/h
3114 03-06-2017 19:25:00 21.2 C 17.23 g/m*3 21.2 C 1.6 km/h
3115 03-06-2017 19:30:00 21.1 C 17.14 g/m*3 21.1 C 0 km/h
3116 03-06-2017 19:35:00 20.9 C 16.94 g/m*3 20.9 C 0 km/h
3117 03-06-2017 19:40:00 20.9 C 16.94 g/m*3 20.9 C 0 km/h
3118 03-06-2017 19:45:00 20.8 C 16.84 g/m*3 20.8 C 0 km/h
3119 03-06-2017 19:50:00 20.7 C 16.74 g/m*3 20.7 C 0 km/h
3120 03-06-2017 19:55:00 20.6 C 16.64 g/m*3 20.6 C 1.6 km/h
3121 03-06-2017 20:00:00 20.4 C 16.45 g/m*3 20.4 C 0 km/h
3122 03-06-2017 20:05:00 20.3 C 16.36 g/m*3 20.3 C 1.6 km/h
3123 03-06-2017 20:10:00 20.2 C 16.26 g/m*3 20.2 C 1.6 km/h
3124 03-06-2017 20:15:00 19.9 C 16.15 g/m*3 19.9 C 0 km/h
3125 03-06-2017 20:20:00 19.8 C 16.06 g/m*3 19.8 C 0 km/h
Sensor: Nr:Datum:Temp:Abs-Feuchte:Windchill:Wind:
Aussen-T/F 3126 03-06-2017 20:25:00 19.7 C 15.96 g/m*3 19.7 C 0 km/h
3127 03-06-2017 20:30:00 19.6 C 15.87 g/m*3 19.6 C 0 km/h
3128 03-06-2017 20:35:00 19.4 C 15.68 g/m*3 19.4 C 0 km/h
3129 03-06-2017 20:40:00 19.3 C 15.59 g/m*3 19.3 C 0 km/h
3130 03-06-2017 20:45:00 19.2 C 15.5 g/m*3 19.2 C 1.6 km/h
3131 03-06-2017 20:50:00 19.1 C 15.41 g/m*3 19.1 C 0 km/h
3132 03-06-2017 20:55:00 19.1 C 15.41 g/m*3 19.1 C 0 km/h
3133 03-06-2017 21:00:00 18.9 C 15.23 g/m*3 18.9 C 0 km/h
3134 03-06-2017 21:05:00 18.9 C 15.23 g/m*3 18.9 C 0 km/h
3135 03-06-2017 21:10:00 18.8 C 15.14 g/m*3 18.8 C 0 km/h
3136 03-06-2017 21:15:00 18.8 C 15.3 g/m*3 18.8 C 1.6 km/h
3137 03-06-2017 21:20:00 18.7 C 15.21 g/m*3 18.7 C 0 km/h
3138 03-06-2017 21:25:00 18.6 C 15.12 g/m*3 18.6 C 3.2 km/h
3139 03-06-2017 21:30:00 18.6 C 15.12 g/m*3 18.6 C 0 km/h
3140 03-06-2017 21:35:00 18.5 C 15.03 g/m*3 18.5 C 1.6 km/h
3141 03-06-2017 21:40:00 18.4 C 14.94 g/m*3 18.4 C 1.6 km/h
3142 03-06-2017 21:45:00 18.2 C 14.77 g/m*3 18.2 C 1.6 km/h
3143 03-06-2017 21:50:00 18.1 C 14.52 g/m*3 18.1 C 0 km/h
3144 03-06-2017 21:55:00 17.9 C 14.5 g/m*3 17.9 C 1.6 km/h
3145 03-06-2017 22:00:00 17.8 C 14.42 g/m*3 17.8 C 0 km/h
3146 03-06-2017 22:05:00 17.7 C 14.33 g/m*3 17.7 C 0 km/h
3147 03-06-2017 22:10:00 17.6 C 14.25 g/m*3 17.6 C 0 km/h
3148 03-06-2017 22:15:00 17.6 C 14.25 g/m*3 17.6 C 0 km/h
3149 03-06-2017 22:20:00 17.5 C 14.16 g/m*3 17.5 C 0 km/h
3150 03-06-2017 22:25:00 17.4 C 14.08 g/m*3 17.4 C 0 km/h
Sensor: Nr:Datum:Temp:Abs-Feuchte:Windchill:Wind:
Aussen-T/F 3151 03-06-2017 22:30:00 17.4 C 14.08 g/m*3 17.4 C 0 km/h
3152 03-06-2017 22:35:00 17.4 C 14.08 g/m*3 17.4 C 1.6 km/h
3153 03-06-2017 22:40:00 17.3 C 14 g/m*3 17.3 C 0 km/h
3154 03-06-2017 22:45:00 17.3 C 14 g/m*3 17.3 C 0 km/h
3155 03-06-2017 22:50:00 17.3 C 14.14 g/m*3 17.3 C 0 km/h
3156 03-06-2017 22:55:00 17.3 C 14.14 g/m*3 17.3 C 0 km/h
3157 03-06-2017 23:00:00 17.3 C 14.14 g/m*3 17.3 C 0 km/h
3158 03-06-2017 23:05:00 17.2 C 14.06 g/m*3 17.2 C 0 km/h
3159 03-06-2017 23:10:00 17.2 C 14.06 g/m*3 17.2 C 0 km/h
3160 03-06-2017 23:15:00 17.2 C 14.06 g/m*3 17.2 C 0 km/h
3161 03-06-2017 23:20:00 17.2 C 14.06 g/m*3 17.2 C 0 km/h
3162 03-06-2017 23:25:00 17.1 C 13.97 g/m*3 17.1 C 0 km/h
3163 03-06-2017 23:30:00 17.1 C 13.97 g/m*3 17.1 C 1.6 km/h
3164 03-06-2017 23:35:00 17.1 C 13.97 g/m*3 17.1 C 0 km/h
3165 03-06-2017 23:40:00 17 C 13.89 g/m*3 17 C 0 km/h
3166 03-06-2017 23:45:00 17 C 13.89 g/m*3 17 C 0 km/h
3167 03-06-2017 23:50:00 16.9 C 13.81 g/m*3 16.9 C 0 km/h
3168 03-06-2017 23:55:00 16.9 C 13.81 g/m*3 16.9 C 0 km/h
3169 04-06-2017 00:00:00 16.9 C 13.81 g/m*3 16.9 C 0 km/h
3170 04-06-2017 00:05:00 17 C 13.89 g/m*3 17 C 0 km/h
3171 04-06-2017 00:10:00 17 C 13.89 g/m*3 17 C 0 km/h
3172 04-06-2017 00:15:00 17 C 13.89 g/m*3 17 C 0 km/h
3173 04-06-2017 00:20:00 17 C 13.89 g/m*3 17 C 0 km/h
3174 04-06-2017 00:25:00 17.1 C 13.97 g/m*3 17.1 C 0 km/h
3175 04-06-2017 00:30:00 17.1 C 13.97 g/m*3 17.1 C 1.6 km/h
Sensor: Nr:Datum:Temp:Abs-Feuchte:Windchill:Wind:
Aussen-T/F 3176 04-06-2017 00:35:00 17.1 C 13.97 g/m*3 17.1 C 4.8 km/h
3177 04-06-2017 00:40:00 17 C 13.89 g/m*3 17 C 6.4 km/h
3178 04-06-2017 00:45:00 16.7 C 13.5 g/m*3 16.7 C 8.1 km/h
3179 04-06-2017 00:50:00 16.5 C 13.34 g/m*3 16.5 C 8.1 km/h
3180 04-06-2017 00:55:00 16.4 C 13.4 g/m*3 16.4 C 8.1 km/h
3181 04-06-2017 01:00:00 16.4 C 13.26 g/m*3 16.4 C 3.2 km/h
3182 04-06-2017 01:05:00 16.4 C 13.4 g/m*3 16.4 C 3.2 km/h
3183 04-06-2017 01:10:00 16.4 C 13.4 g/m*3 16.4 C 0 km/h
3184 04-06-2017 01:15:00 16.4 C 13.4 g/m*3 16.4 C 1.6 km/h
3185 04-06-2017 01:20:00 16.4 C 13.4 g/m*3 16.4 C 4.8 km/h
3186 04-06-2017 01:25:00 16.4 C 13.4 g/m*3 16.4 C 1.6 km/h
3187 04-06-2017 01:30:00 16.3 C 13.32 g/m*3 16.3 C 3.2 km/h
3188 04-06-2017 01:35:00 16.3 C 13.32 g/m*3 16.3 C 0 km/h
3189 04-06-2017 01:40:00 16.3 C 13.32 g/m*3 16.3 C 3.2 km/h
3190 04-06-2017 01:45:00 16.3 C 13.32 g/m*3 16.3 C 1.6 km/h
3191 04-06-2017 01:50:00 16.3 C 13.32 g/m*3 16.3 C 0 km/h
3192 04-06-2017 01:55:00 16.3 C 13.32 g/m*3 16.3 C 3.2 km/h
3193 04-06-2017 02:00:00 16.3 C 13.32 g/m*3 16.3 C 4.8 km/h
3194 04-06-2017 02:05:00 16.2 C 13.24 g/m*3 16.2 C 9.7 km/h
3195 04-06-2017 02:10:00 15.9 C 12.87 g/m*3 15.9 C 11.3 km/h
3196 04-06-2017 02:15:00 15.8 C 12.79 g/m*3 15.8 C 4.8 km/h
3197 04-06-2017 02:20:00 15.7 C 12.71 g/m*3 15.7 C 9.7 km/h
3198 04-06-2017 02:25:00 15.6 C 12.63 g/m*3 15.6 C 11.3 km/h
3199 04-06-2017 02:30:00 15.5 C 12.56 g/m*3 15.5 C 6.4 km/h
3200 04-06-2017 02:35:00 15.4 C 12.48 g/m*3 15.4 C 11.3 km/h
Sensor: Nr:Datum:Temp:Abs-Feuchte:Windchill:Wind:
Aussen-T/F 3201 04-06-2017 02:40:00 15.4 C 12.48 g/m*3 15.4 C 12.9 km/h
3202 04-06-2017 02:45:00 15.4 C 12.48 g/m*3 15.4 C 8.1 km/h
3203 04-06-2017 02:50:00 15.3 C 12.41 g/m*3 15.3 C 9.7 km/h
3204 04-06-2017 02:55:00 15.3 C 12.41 g/m*3 15.3 C 9.7 km/h
3205 04-06-2017 03:00:00 15.1 C 12.13 g/m*3 15.1 C 16.1 km/h
3206 04-06-2017 03:05:00 14.9 C 11.98 g/m*3 14.9 C 16.1 km/h
3207 04-06-2017 03:10:00 14.8 C 11.91 g/m*3 14.8 C 12.9 km/h
3208 04-06-2017 03:15:00 14.7 C 11.83 g/m*3 14.7 C 14.5 km/h
3209 04-06-2017 03:20:00 14.7 C 11.83 g/m*3 14.7 C 6.4 km/h
3210 04-06-2017 03:25:00 14.7 C 11.83 g/m*3 14.7 C 6.4 km/h
3211 04-06-2017 03:30:00 14.7 C